Roubidoux Creek (Missouri), Polla Road (06928420)

StateMissouriLatestUnknown (4 cfs)
RiverRoubidoux CreekRatingObservedEstimated
Updated2020-08-14 5:30 (54 minutes ago)Flood - The river is flooding. Obstacles can be treacherous or deadly. The river should be avoided at this stage for casual trips and definitely for the inexperienced. Trips should be attempted only with protective gear and equipment.Flood(none)(none)
Discharge4 cfs (median: (none))High - The river is high and potentially dangerous, especially for the young and / or inexperienced. Normal stream obstacles are sometimes difficult to navigate. Extended distances can be attempted, but canoe travel may not be advisable.High(none)(none)
Height0.88 feetGood - Conditions are ideal for a canoe or kayak. Boats typically will drag on fewer than one-quarter of riffles, if at all, and portages are unnecessary or rare. Normal float lengths can be attempted without a problem.Good(none)(none)
TrendSteady (falling over 24 hours)Low - River is low but can still be floated. Some riffles are okay but most come with significant dragging and might need a portage. Float lengths should be reduced to accommodate low flow, dragging, and portages.Low(none)(none)
USGSExternal icon USGS Site (External icon Google Maps)Poor - River is too low to float comfortably. Most or all riffles will drag or must be portaged and some obstacles (such as slick shelf rock) cause undue problems. Avoid the river at this stage for casual paddling trips.Poor(none)(none)

Trending Data

Plot Image

Trips for Roubidoux Creek (Missouri), Polla Road (06928420)

DateStartEndDistanceConditionDischargeHeightFishingDetails

A total of 0 rows are displayed.

Condition Descriptions

Fishing Conditions

Fish Species

Notes

Classic Trip List

The classic River Trips application is still available for use. It is updated with the new system using a data retrofit. It is no longer maintained. The original River Trips application is no longer updated (as of 1 Dec 2016) but can be checked for errors or for the condition of the data before it was converted to the new system.

Gauge Data Table

ObservationHeightDischargeMaximum
Discharge
Minimum
Discharge
Mean
Discharge
P05P10P20P25P50
(Median)
P75P80P90P95
2020-08-14 05:30 0.88 4 504 (2013) 0 (2009) 48 0 0 0 0 5 10 406
2020-08-14 04:30 0.89 4 504 (2013) 0 (2009) 48 0 0 0 0 5 10 406
2020-08-14 03:30 0.90 5 504 (2013) 0 (2009) 48 0 0 0 0 5 10 406
2020-08-14 02:30 0.90 5 504 (2013) 0 (2009) 48 0 0 0 0 5 10 406
2020-08-14 01:30 0.91 5 504 (2013) 0 (2009) 48 0 0 0 0 5 10 406
2020-08-14 00:30 0.92 5 504 (2013) 0 (2009) 48 0 0 0 0 5 10 406
2020-08-13 23:30 0.93 5 690 (2013) 0 (2009) 67 0 0 0 0 15 27 559
2020-08-13 22:30 0.95 6 690 (2013) 0 (2009) 67 0 0 0 0 15 27 559
2020-08-13 21:30 0.96 6 690 (2013) 0 (2009) 67 0 0 0 0 15 27 559
2020-08-13 20:30 0.97 6 690 (2013) 0 (2009) 67 0 0 0 0 15 27 559
2020-08-13 19:30 0.99 7 690 (2013) 0 (2009) 67 0 0 0 0 15 27 559
2020-08-13 18:30 1.01 7 690 (2013) 0 (2009) 67 0 0 0 0 15 27 559
2020-08-13 17:30 1.03 8 690 (2013) 0 (2009) 67 0 0 0 0 15 27 559
2020-08-13 16:30 1.05 9 690 (2013) 0 (2009) 67 0 0 0 0 15 27 559
2020-08-13 15:30 1.05 9 690 (2013) 0 (2009) 67 0 0 0 0 15 27 559
2020-08-13 14:30 1.11 11 690 (2013) 0 (2009) 67 0 0 0 0 15 27 559
2020-08-13 13:30 1.14 12 690 (2013) 0 (2009) 67 0 0 0 0 15 27 559
2020-08-13 12:30 1.13 12 690 (2013) 0 (2009) 67 0 0 0 0 15 27 559
2020-08-13 11:30 1.19 14 690 (2013) 0 (2009) 67 0 0 0 0 15 27 559
2020-08-13 10:30 1.23 16 690 (2013) 0 (2009) 67 0 0 0 0 15 27 559
2020-08-13 09:30 1.26 18 690 (2013) 0 (2009) 67 0 0 0 0 15 27 559
2020-08-13 08:30 1.29 19 690 (2013) 0 (2009) 67 0 0 0 0 15 27 559
2020-08-13 07:30 1.32 21 690 (2013) 0 (2009) 67 0 0 0 0 15 27 559
2020-08-13 06:30 1.36 24 690 (2013) 0 (2009) 67 0 0 0 0 15 27 559
2020-08-13 05:30 1.40 26 690 (2013) 0 (2009) 67 0 0 0 0 15 27 559
2020-08-13 04:30 1.44 29 690 (2013) 0 (2009) 67 0 0 0 0 15 27 559
2020-08-13 03:30 1.49 34 690 (2013) 0 (2009) 67 0 0 0 0 15 27 559
2020-08-13 02:30 1.54 38 690 (2013) 0 (2009) 67 0 0 0 0 15 27 559
2020-08-13 01:30 1.58 42 690 (2013) 0 (2009) 67 0 0 0 0 15 27 559
2020-08-13 00:30 1.61 45 690 (2013) 0 (2009) 67 0 0 0 0 15 27 559
2020-08-12 23:30 1.66 50 744 (2013) 0 (2009) 79 0 0 0 0 6 71 618
2020-08-12 22:30 1.69 54 744 (2013) 0 (2009) 79 0 0 0 0 6 71 618
2020-08-12 21:30 1.73 59 744 (2013) 0 (2009) 79 0 0 0 0 6 71 618
2020-08-12 20:30 1.78 65 744 (2013) 0 (2009) 79 0 0 0 0 6 71 618
2020-08-12 19:30 1.81 70 744 (2013) 0 (2009) 79 0 0 0 0 6 71 618
2020-08-12 18:30 1.88 80 744 (2013) 0 (2009) 79 0 0 0 0 6 71 618
2020-08-12 17:30 1.92 86 744 (2013) 0 (2009) 79 0 0 0 0 6 71 618
2020-08-12 16:30 1.99 99 744 (2013) 0 (2009) 79 0 0 0 0 6 71 618
2020-08-12 15:30 2.06 112 744 (2013) 0 (2009) 79 0 0 0 0 6 71 618
2020-08-12 14:30 2.13 126 744 (2013) 0 (2009) 79 0 0 0 0 6 71 618
2020-08-12 13:30 2.17 135 744 (2013) 0 (2009) 79 0 0 0 0 6 71 618
2020-08-12 12:30 2.20 142 744 (2013) 0 (2009) 79 0 0 0 0 6 71 618
2020-08-12 11:30 1.89 82 744 (2013) 0 (2009) 79 0 0 0 0 6 71 618
2020-08-12 10:30 0.86 4 744 (2013) 0 (2009) 79 0 0 0 0 6 71 618
2020-08-12 09:30 0.87 4 744 (2013) 0 (2009) 79 0 0 0 0 6 71 618
2020-08-12 08:30 0.87 4 744 (2013) 0 (2009) 79 0 0 0 0 6 71 618
2020-08-12 07:30 0.88 4 744 (2013) 0 (2009) 79 0 0 0 0 6 71 618
2020-08-12 06:30 0.88 4 744 (2013) 0 (2009) 79 0 0 0 0 6 71 618
2020-08-12 05:30 0.88 4 744 (2013) 0 (2009) 79 0 0 0 0 6 71 618
2020-08-12 04:30 0.89 4 744 (2013) 0 (2009) 79 0 0 0 0 6 71 618
2020-08-12 03:30 0.90 5 744 (2013) 0 (2009) 79 0 0 0 0 6 71 618
2020-08-12 02:30 0.91 5 744 (2013) 0 (2009) 79 0 0 0 0 6 71 618
2020-08-12 01:30 0.91 5 744 (2013) 0 (2009) 79 0 0 0 0 6 71 618
2020-08-12 00:30 0.92 5 744 (2013) 0 (2009) 79 0 0 0 0 6 71 618
2020-08-11 23:30 0.93 5 1240 (2013) 0 (2009) 162 0 0 0 0 4 325 1100
2020-08-11 22:30 0.94 5 1240 (2013) 0 (2009) 162 0 0 0 0 4 325 1100
2020-08-11 21:30 0.96 6 1240 (2013) 0 (2009) 162 0 0 0 0 4 325 1100
2020-08-11 20:30 0.97 6 1240 (2013) 0 (2009) 162 0 0 0 0 4 325 1100
2020-08-11 19:30 0.99 7 1240 (2013) 0 (2009) 162 0 0 0 0 4 325 1100
2020-08-11 18:30 1.00 7 1240 (2013) 0 (2009) 162 0 0 0 0 4 325 1100
2020-08-11 17:30 1.02 8 1240 (2013) 0 (2009) 162 0 0 0 0 4 325 1100
2020-08-11 16:30 1.05 9 1240 (2013) 0 (2009) 162 0 0 0 0 4 325 1100
2020-08-11 15:30 1.08 10 1240 (2013) 0 (2009) 162 0 0 0 0 4 325 1100
2020-08-11 14:30 1.13 12 1240 (2013) 0 (2009) 162 0 0 0 0 4 325 1100
2020-08-11 13:30 1.18 14 1240 (2013) 0 (2009) 162 0 0 0 0 4 325 1100
2020-08-11 12:30 1.27 18 1240 (2013) 0 (2009) 162 0 0 0 0 4 325 1100
2020-08-11 11:30 1.40 26 1240 (2013) 0 (2009) 162 0 0 0 0 4 325 1100
2020-08-11 10:30 1.55 39 1240 (2013) 0 (2009) 162 0 0 0 0 4 325 1100
2020-08-11 09:30 1.74 60 1240 (2013) 0 (2009) 162 0 0 0 0 4 325 1100
2020-08-11 08:30 1.16 13 1240 (2013) 0 (2009) 162 0 0 0 0 4 325 1100
2020-08-11 07:30 0.77 2 1240 (2013) 0 (2009) 162 0 0 0 0 4 325 1100
2020-08-11 06:30 0.70 2 1240 (2013) 0 (2009) 162 0 0 0 0 4 325 1100
2020-08-11 05:30 0.73 2 1240 (2013) 0 (2009) 162 0 0 0 0 4 325 1100
2020-08-11 04:30 0.67 1 1240 (2013) 0 (2009) 162 0 0 0 0 4 325 1100
2020-08-11 03:30 0.67 1 1240 (2013) 0 (2009) 162 0 0 0 0 4 325 1100
2020-08-11 02:30 0.68 1 1240 (2013) 0 (2009) 162 0 0 0 0 4 325 1100
2020-08-11 01:30 0.69 1 1240 (2013) 0 (2009) 162 0 0 0 0 4 325 1100
2020-08-11 00:30 0.69 1 1240 (2013) 0 (2009) 162 0 0 0 0 4 325 1100
2020-08-10 23:30 0.70 2 2810 (2013) 0 (2009) 278 0 0 0 0 7 148 2300
2020-08-10 22:30 0.68 1 2810 (2013) 0 (2009) 278 0 0 0 0 7 148 2300
2020-08-10 21:30 0.64 1 2810 (2013) 0 (2009) 278 0 0 0 0 7 148 2300
2020-08-10 20:30 0.62 1 2810 (2013) 0 (2009) 278 0 0 0 0 7 148 2300
2020-08-10 19:30 0.57 1 2810 (2013) 0 (2009) 278 0 0 0 0 7 148 2300
2020-08-10 18:30 0.60 1 2810 (2013) 0 (2009) 278 0 0 0 0 7 148 2300
2020-08-10 17:30 0.61 1 2810 (2013) 0 (2009) 278 0 0 0 0 7 148 2300
2020-08-10 16:30 0.62 1 2810 (2013) 0 (2009) 278 0 0 0 0 7 148 2300
2020-08-10 15:30 0.62 1 2810 (2013) 0 (2009) 278 0 0 0 0 7 148 2300
2020-08-10 14:30 0.62 1 2810 (2013) 0 (2009) 278 0 0 0 0 7 148 2300
2020-08-10 13:30 0.63 1 2810 (2013) 0 (2009) 278 0 0 0 0 7 148 2300
2020-08-10 12:30 0.63 1 2810 (2013) 0 (2009) 278 0 0 0 0 7 148 2300
2020-08-10 11:30 0.63 1 2810 (2013) 0 (2009) 278 0 0 0 0 7 148 2300
2020-08-10 10:30 0.63 1 2810 (2013) 0 (2009) 278 0 0 0 0 7 148 2300
2020-08-10 09:30 0.63 1 2810 (2013) 0 (2009) 278 0 0 0 0 7 148 2300
2020-08-10 08:30 0.62 1 2810 (2013) 0 (2009) 278 0 0 0 0 7 148 2300
2020-08-10 07:30 0.63 1 2810 (2013) 0 (2009) 278 0 0 0 0 7 148 2300
2020-08-10 06:30 0.63 1 2810 (2013) 0 (2009) 278 0 0 0 0 7 148 2300
2020-08-10 05:30 0.63 1 2810 (2013) 0 (2009) 278 0 0 0 0 7 148 2300
2020-08-10 04:30 0.63 1 2810 (2013) 0 (2009) 278 0 0 0 0 7 148 2300
2020-08-10 03:30 0.63 1 2810 (2013) 0 (2009) 278 0 0 0 0 7 148 2300
2020-08-10 02:30 0.63 1 2810 (2013) 0 (2009) 278 0 0 0 0 7 148 2300
2020-08-10 01:30 0.63 1 2810 (2013) 0 (2009) 278 0 0 0 0 7 148 2300
2020-08-10 00:30 0.63 1 2810 (2013) 0 (2009) 278 0 0 0 0 7 148 2300
2020-08-09 23:30 0.63 1 6250 (2013) 0 (2009) 570 0 0 0 0 2 8 5000
2020-08-09 22:30 0.63 1 6250 (2013) 0 (2009) 570 0 0 0 0 2 8 5000
2020-08-09 21:30 0.63 1 6250 (2013) 0 (2009) 570 0 0 0 0 2 8 5000
2020-08-09 20:30 0.63 1 6250 (2013) 0 (2009) 570 0 0 0 0 2 8 5000
2020-08-09 19:30 0.63 1 6250 (2013) 0 (2009) 570 0 0 0 0 2 8 5000
2020-08-09 18:30 0.64 1 6250 (2013) 0 (2009) 570 0 0 0 0 2 8 5000
2020-08-09 17:30 0.64 1 6250 (2013) 0 (2009) 570 0 0 0 0 2 8 5000
2020-08-09 16:30 0.64 1 6250 (2013) 0 (2009) 570 0 0 0 0 2 8 5000
2020-08-09 15:30 0.64 1 6250 (2013) 0 (2009) 570 0 0 0 0 2 8 5000
2020-08-09 14:30 0.64 1 6250 (2013) 0 (2009) 570 0 0 0 0 2 8 5000
2020-08-09 13:30 0.64 1 6250 (2013) 0 (2009) 570 0 0 0 0 2 8 5000
2020-08-09 12:30 0.64 1 6250 (2013) 0 (2009) 570 0 0 0 0 2 8 5000
2020-08-09 11:30 0.58 1 6250 (2013) 0 (2009) 570 0 0 0 0 2 8 5000
2020-08-09 10:30 0.58 1 6250 (2013) 0 (2009) 570 0 0 0 0 2 8 5000
2020-08-09 09:30 0.61 1 6250 (2013) 0 (2009) 570 0 0 0 0 2 8 5000
2020-08-09 08:30 0.61 1 6250 (2013) 0 (2009) 570 0 0 0 0 2 8 5000
2020-08-09 07:30 0.63 1 6250 (2013) 0 (2009) 570 0 0 0 0 2 8 5000
2020-08-09 06:30 0.55 6250 (2013) 0 (2009) 570 0 0 0 0 2 8 5000
2020-08-09 05:30 0.64 1 6250 (2013) 0 (2009) 570 0 0 0 0 2 8 5000
2020-08-09 04:30 0.63 1 6250 (2013) 0 (2009) 570 0 0 0 0 2 8 5000
2020-08-09 03:30 0.64 1 6250 (2013) 0 (2009) 570 0 0 0 0 2 8 5000
2020-08-09 02:30 0.63 1 6250 (2013) 0 (2009) 570 0 0 0 0 2 8 5000
2020-08-09 01:30 0.64 1 6250 (2013) 0 (2009) 570 0 0 0 0 2 8 5000
2020-08-09 00:30 0.64 1 6250 (2013) 0 (2009) 570 0 0 0 0 2 8 5000
2020-08-08 23:30 0.63 1 8890 (2013) 0 (2009) 810 0 0 0 0 3 13 7120
2020-08-08 22:30 0.64 1 8890 (2013) 0 (2009) 810 0 0 0 0 3 13 7120
2020-08-08 21:30 0.64 1 8890 (2013) 0 (2009) 810 0 0 0 0 3 13 7120
2020-08-08 20:30 0.64 1 8890 (2013) 0 (2009) 810 0 0 0 0 3 13 7120
2020-08-08 19:30 0.64 1 8890 (2013) 0 (2009) 810 0 0 0 0 3 13 7120
2020-08-08 18:30 0.64 1 8890 (2013) 0 (2009) 810 0 0 0 0 3 13 7120
2020-08-08 17:30 0.59 1 8890 (2013) 0 (2009) 810 0 0 0 0 3 13 7120
2020-08-08 16:30 0.61 1 8890 (2013) 0 (2009) 810 0 0 0 0 3 13 7120
2020-08-08 15:30 0.60 1 8890 (2013) 0 (2009) 810 0 0 0 0 3 13 7120
2020-08-08 14:30 0.60 1 8890 (2013) 0 (2009) 810 0 0 0 0 3 13 7120
2020-08-08 13:30 0.56 1 8890 (2013) 0 (2009) 810 0 0 0 0 3 13 7120
2020-08-08 12:30 0.61 1 8890 (2013) 0 (2009) 810 0 0 0 0 3 13 7120
2020-08-08 11:30 0.62 1 8890 (2013) 0 (2009) 810 0 0 0 0 3 13 7120
2020-08-08 10:30 0.60 1 8890 (2013) 0 (2009) 810 0 0 0 0 3 13 7120
2020-08-08 09:30 0.62 1 8890 (2013) 0 (2009) 810 0 0 0 0 3 13 7120
2020-08-08 08:30 0.60 1 8890 (2013) 0 (2009) 810 0 0 0 0 3 13 7120
2020-08-08 07:30 0.60 1 8890 (2013) 0 (2009) 810 0 0 0 0 3 13 7120
2020-08-08 06:30 0.60 1 8890 (2013) 0 (2009) 810 0 0 0 0 3 13 7120
2020-08-08 05:30 0.60 1 8890 (2013) 0 (2009) 810 0 0 0 0 3 13 7120
2020-08-08 04:30 0.60 1 8890 (2013) 0 (2009) 810 0 0 0 0 3 13 7120
2020-08-08 03:30 0.60 1 8890 (2013) 0 (2009) 810 0 0 0 0 3 13 7120
2020-08-08 02:30 0.60 1 8890 (2013) 0 (2009) 810 0 0 0 0 3 13 7120
2020-08-08 01:30 0.60 1 8890 (2013) 0 (2009) 810 0 0 0 0 3 13 7120
2020-08-08 00:30 0.61 1 8890 (2013) 0 (2009) 810 0 0 0 0 3 13 7120
2020-08-07 23:30 0.61 1 10600 (2013) 0 (2010) 967 0 0 0 0 7 18 8490
2020-08-07 22:30 0.61 1 10600 (2013) 0 (2010) 967 0 0 0 0 7 18 8490
2020-08-07 21:30 0.61 1 10600 (2013) 0 (2010) 967 0 0 0 0 7 18 8490
2020-08-07 20:30 0.61 1 10600 (2013) 0 (2010) 967 0 0 0 0 7 18 8490
2020-08-07 19:30 0.61 1 10600 (2013) 0 (2010) 967 0 0 0 0 7 18 8490
2020-08-07 18:30 0.61 1 10600 (2013) 0 (2010) 967 0 0 0 0 7 18 8490
2020-08-07 17:30 0.59 1 10600 (2013) 0 (2010) 967 0 0 0 0 7 18 8490
2020-08-07 16:30 0.54 10600 (2013) 0 (2010) 967 0 0 0 0 7 18 8490
2020-08-07 15:30 0.59 1 10600 (2013) 0 (2010) 967 0 0 0 0 7 18 8490
2020-08-07 14:30 0.61 1 10600 (2013) 0 (2010) 967 0 0 0 0 7 18 8490
2020-08-07 13:30 0.61 1 10600 (2013) 0 (2010) 967 0 0 0 0 7 18 8490
2020-08-07 12:30 0.59 1 10600 (2013) 0 (2010) 967 0 0 0 0 7 18 8490
2020-08-07 11:30 0.61 1 10600 (2013) 0 (2010) 967 0 0 0 0 7 18 8490
2020-08-07 10:30 0.61 1 10600 (2013) 0 (2010) 967 0 0 0 0 7 18 8490
2020-08-07 09:30 0.61 1 10600 (2013) 0 (2010) 967 0 0 0 0 7 18 8490
2020-08-07 08:30 0.61 1 10600 (2013) 0 (2010) 967 0 0 0 0 7 18 8490
2020-08-07 07:30 0.61 6 10600 (2013) 0 (2010) 967 0 0 0 0 7 18 8490
2020-08-07 06:30 0.62 6 10600 (2013) 0 (2010) 967 0 0 0 0 7 18 8490
2020-08-07 05:30 0.62 6 10600 (2013) 0 (2010) 967 0 0 0 0 7 18 8490
2020-08-07 04:30 0.62 6 10600 (2013) 0 (2010) 967 0 0 0 0 7 18 8490
2020-08-07 03:30 0.62 6 10600 (2013) 0 (2010) 967 0 0 0 0 7 18 8490
2020-08-07 02:30 0.62 6 10600 (2013) 0 (2010) 967 0 0 0 0 7 18 8490
2020-08-07 01:30 0.62 6 10600 (2013) 0 (2010) 967 0 0 0 0 7 18 8490
2020-08-07 00:30 0.62 6 10600 (2013) 0 (2010) 967 0 0 0 0 7 18 8490
2020-08-06 23:30 0.62 6 23000 (2013) 0 (2010) 2100 0 0 0 0 26 39 18400
2020-08-06 22:30 0.62 6 23000 (2013) 0 (2010) 2100 0 0 0 0 26 39 18400
2020-08-06 21:30 0.62 6 23000 (2013) 0 (2010) 2100 0 0 0 0 26 39 18400
2020-08-06 20:30 0.62 6 23000 (2013) 0 (2010) 2100 0 0 0 0 26 39 18400
2020-08-06 19:30 0.62 6 23000 (2013) 0 (2010) 2100 0 0 0 0 26 39 18400
2020-08-06 18:30 0.62 6 23000 (2013) 0 (2010) 2100 0 0 0 0 26 39 18400
2020-08-06 17:30 0.62 6 23000 (2013) 0 (2010) 2100 0 0 0 0 26 39 18400
2020-08-06 16:30 0.62 6 23000 (2013) 0 (2010) 2100 0 0 0 0 26 39 18400
2020-08-06 15:30 0.63 7 23000 (2013) 0 (2010) 2100 0 0 0 0 26 39 18400
2020-08-06 14:30 0.63 7 23000 (2013) 0 (2010) 2100 0 0 0 0 26 39 18400
2020-08-06 13:30 0.60 6 23000 (2013) 0 (2010) 2100 0 0 0 0 26 39 18400
2020-08-06 12:30 0.58 5 23000 (2013) 0 (2010) 2100 0 0 0 0 26 39 18400
2020-08-06 11:30 0.63 7 23000 (2013) 0 (2010) 2100 0 0 0 0 26 39 18400
2020-08-06 10:30 0.61 6 23000 (2013) 0 (2010) 2100 0 0 0 0 26 39 18400
2020-08-06 09:30 0.57 5 23000 (2013) 0 (2010) 2100 0 0 0 0 26 39 18400
2020-08-06 08:30 0.63 7 23000 (2013) 0 (2010) 2100 0 0 0 0 26 39 18400
2020-08-06 07:30 0.63 7 23000 (2013) 0 (2010) 2100 0 0 0 0 26 39 18400
2020-08-06 06:30 0.64 7 23000 (2013) 0 (2010) 2100 0 0 0 0 26 39 18400
2020-08-06 05:30 0.64 7 23000 (2013) 0 (2010) 2100 0 0 0 0 26 39 18400
2020-08-06 04:30 0.64 7 23000 (2013) 0 (2010) 2100 0 0 0 0 26 39 18400
2020-08-06 03:30 0.64 7 23000 (2013) 0 (2010) 2100 0 0 0 0 26 39 18400
2020-08-06 02:30 0.64 7 23000 (2013) 0 (2010) 2100 0 0 0 0 26 39 18400
2020-08-06 01:30 0.64 7 23000 (2013) 0 (2010) 2100 0 0 0 0 26 39 18400
2020-08-06 00:30 0.64 7 23000 (2013) 0 (2010) 2100 0 0 0 0 26 39 18400
2020-08-05 23:30 0.64 7 570 (2013) 0 (2012) 64 0 0 0 0 4 76 481
2020-08-05 22:30 0.64 7 570 (2013) 0 (2012) 64 0 0 0 0 4 76 481
2020-08-05 21:30 0.64 7 570 (2013) 0 (2012) 64 0 0 0 0 4 76 481
2020-08-05 20:30 0.64 7 570 (2013) 0 (2012) 64 0 0 0 0 4 76 481
2020-08-05 19:30 0.64 7 570 (2013) 0 (2012) 64 0 0 0 0 4 76 481
2020-08-05 18:30 0.64 7 570 (2013) 0 (2012) 64 0 0 0 0 4 76 481
2020-08-05 17:30 0.64 7 570 (2013) 0 (2012) 64 0 0 0 0 4 76 481
2020-08-05 16:30 0.64 7 570 (2013) 0 (2012) 64 0 0 0 0 4 76 481
2020-08-05 15:30 0.63 7 570 (2013) 0 (2012) 64 0 0 0 0 4 76 481
2020-08-05 14:30 0.63 7 570 (2013) 0 (2012) 64 0 0 0 0 4 76 481
2020-08-05 13:30 0.63 7 570 (2013) 0 (2012) 64 0 0 0 0 4 76 481
2020-08-05 12:30 0.65 7 570 (2013) 0 (2012) 64 0 0 0 0 4 76 481
2020-08-05 11:30 0.65 7 570 (2013) 0 (2012) 64 0 0 0 0 4 76 481
2020-08-05 10:30 0.65 7 570 (2013) 0 (2012) 64 0 0 0 0 4 76 481
2020-08-05 09:30 0.65 7 570 (2013) 0 (2012) 64 0 0 0 0 4 76 481
2020-08-05 08:30 0.65 7 570 (2013) 0 (2012) 64 0 0 0 0 4 76 481
2020-08-05 07:30 0.65 7 570 (2013) 0 (2012) 64 0 0 0 0 4 76 481
2020-08-05 06:30 0.65 7 570 (2013) 0 (2012) 64 0 0 0 0 4 76 481
2020-08-05 05:30 0.65 7 570 (2013) 0 (2012) 64 0 0 0 0 4 76 481
2020-08-05 04:30 0.66 8 570 (2013) 0 (2012) 64 0 0 0 0 4 76 481
2020-08-05 03:30 0.66 8 570 (2013) 0 (2012) 64 0 0 0 0 4 76 481
2020-08-05 02:30 0.65 7 570 (2013) 0 (2012) 64 0 0 0 0 4 76 481
2020-08-05 01:30 0.65 7 570 (2013) 0 (2012) 64 0 0 0 0 4 76 481
2020-08-05 00:30 0.66 8 570 (2013) 0 (2012) 64 0 0 0 0 4 76 481
2020-08-04 23:30 0.66 8 373 (2016) 0 (2010) 38 0 0 0 0 6 25 306
2020-08-04 22:30 0.66 8 373 (2016) 0 (2010) 38 0 0 0 0 6 25 306
2020-08-04 21:30 0.66 8 373 (2016) 0 (2010) 38 0 0 0 0 6 25 306
2020-08-04 20:30 0.66 8 373 (2016) 0 (2010) 38 0 0 0 0 6 25 306
2020-08-04 19:30 0.66 8 373 (2016) 0 (2010) 38 0 0 0 0 6 25 306
2020-08-04 18:30 0.66 8 373 (2016) 0 (2010) 38 0 0 0 0 6 25 306
2020-08-04 17:30 0.66 8 373 (2016) 0 (2010) 38 0 0 0 0 6 25 306
2020-08-04 16:30 0.66 8 373 (2016) 0 (2010) 38 0 0 0 0 6 25 306
2020-08-04 15:30 0.60 6 373 (2016) 0 (2010) 38 0 0 0 0 6 25 306
2020-08-04 14:30 0.64 7 373 (2016) 0 (2010) 38 0 0 0 0 6 25 306
2020-08-04 13:30 0.67 8 373 (2016) 0 (2010) 38 0 0 0 0 6 25 306
2020-08-04 12:30 0.66 8 373 (2016) 0 (2010) 38 0 0 0 0 6 25 306
2020-08-04 11:30 0.67 8 373 (2016) 0 (2010) 38 0 0 0 0 6 25 306
2020-08-04 10:30 0.67 8 373 (2016) 0 (2010) 38 0 0 0 0 6 25 306
2020-08-04 09:30 0.67 8 373 (2016) 0 (2010) 38 0 0 0 0 6 25 306
2020-08-04 08:30 0.67 8 373 (2016) 0 (2010) 38 0 0 0 0 6 25 306
2020-08-04 07:30 0.67 8 373 (2016) 0 (2010) 38 0 0 0 0 6 25 306
2020-08-04 06:30 0.67 8 373 (2016) 0 (2010) 38 0 0 0 0 6 25 306
2020-08-04 05:30 0.67 8 373 (2016) 0 (2010) 38 0 0 0 0 6 25 306
2020-08-04 04:30 0.67 8 373 (2016) 0 (2010) 38 0 0 0 0 6 25 306
2020-08-04 03:30 0.67 8 373 (2016) 0 (2010) 38 0 0 0 0 6 25 306
2020-08-04 02:30 0.67 8 373 (2016) 0 (2010) 38 0 0 0 0 6 25 306
2020-08-04 01:30 0.67 8 373 (2016) 0 (2010) 38 0 0 0 0 6 25 306
2020-08-04 00:30 0.67 8 373 (2016) 0 (2010) 38 0 0 0 0 6 25 306
2020-08-03 23:30 0.67 8 163 (2013) 0 (2010) 17 0 0 0 0 2 12 134
2020-08-03 22:30 0.67 8 163 (2013) 0 (2010) 17 0 0 0 0 2 12 134
2020-08-03 21:30 0.67 8 163 (2013) 0 (2010) 17 0 0 0 0 2 12 134
2020-08-03 20:30 0.67 8 163 (2013) 0 (2010) 17 0 0 0 0 2 12 134
2020-08-03 19:30 0.67 8 163 (2013) 0 (2010) 17 0 0 0 0 2 12 134
2020-08-03 18:30 0.67 8 163 (2013) 0 (2010) 17 0 0 0 0 2 12 134
2020-08-03 17:30 0.66 8 163 (2013) 0 (2010) 17 0 0 0 0 2 12 134
2020-08-03 16:30 0.61 6 163 (2013) 0 (2010) 17 0 0 0 0 2 12 134
2020-08-03 15:30 0.59 6 163 (2013) 0 (2010) 17 0 0 0 0 2 12 134
2020-08-03 14:30 0.63 7 163 (2013) 0 (2010) 17 0 0 0 0 2 12 134
2020-08-03 13:30 0.60 6 163 (2013) 0 (2010) 17 0 0 0 0 2 12 134
2020-08-03 12:30 0.64 7 163 (2013) 0 (2010) 17 0 0 0 0 2 12 134
2020-08-03 11:30 0.65 7 163 (2013) 0 (2010) 17 0 0 0 0 2 12 134
2020-08-03 10:30 0.65 7 163 (2013) 0 (2010) 17 0 0 0 0 2 12 134
2020-08-03 09:30 0.63 7 163 (2013) 0 (2010) 17 0 0 0 0 2 12 134
2020-08-03 08:30 0.66 8 163 (2013) 0 (2010) 17 0 0 0 0 2 12 134
2020-08-03 07:30 0.65 7 163 (2013) 0 (2010) 17 0 0 0 0 2 12 134
2020-08-03 06:30 0.66 8 163 (2013) 0 (2010) 17 0 0 0 0 2 12 134
2020-08-03 05:30 0.66 8 163 (2013) 0 (2010) 17 0 0 0 0 2 12 134
2020-08-03 04:30 0.66 8 163 (2013) 0 (2010) 17 0 0 0 0 2 12 134
2020-08-03 03:30 0.66 8 163 (2013) 0 (2010) 17 0 0 0 0 2 12 134
2020-08-03 02:30 0.66 8 163 (2013) 0 (2010) 17 0 0 0 0 2 12 134
2020-08-03 01:30 0.66 8 163 (2013) 0 (2010) 17 0 0 0 0 2 12 134
2020-08-03 00:30 0.66 8 163 (2013) 0 (2010) 17 0 0 0 0 2 12 134
2020-08-02 23:30 0.66 8 3 (2015) 0 (2010) 0 0 0 0 0 1 1 2
2020-08-02 22:30 0.67 8 3 (2015) 0 (2010) 0 0 0 0 0 1 1 2
2020-08-02 21:30 0.67 8 3 (2015) 0 (2010) 0 0 0 0 0 1 1 2
2020-08-02 20:30 0.67 8 3 (2015) 0 (2010) 0 0 0 0 0 1 1 2
2020-08-02 19:30 0.65 7 3 (2015) 0 (2010) 0 0 0 0 0 1 1 2
2020-08-02 18:30 0.64 7 3 (2015) 0 (2010) 0 0 0 0 0 1 1 2
2020-08-02 17:30 0.66 8 3 (2015) 0 (2010) 0 0 0 0 0 1 1 2
2020-08-02 16:30 0.64 7 3 (2015) 0 (2010) 0 0 0 0 0 1 1 2
2020-08-02 15:30 0.59 6 3 (2015) 0 (2010) 0 0 0 0 0 1 1 2
2020-08-02 14:30 0.65 7 3 (2015) 0 (2010) 0 0 0 0 0 1 1 2
2020-08-02 13:30 0.65 7 3 (2015) 0 (2010) 0 0 0 0 0 1 1 2
2020-08-02 12:30 0.65 7 3 (2015) 0 (2010) 0 0 0 0 0 1 1 2
2020-08-02 11:30 0.65 7 3 (2015) 0 (2010) 0 0 0 0 0 1 1 2
2020-08-02 10:30 0.65 7 3 (2015) 0 (2010) 0 0 0 0 0 1 1 2
2020-08-02 09:30 0.65 7 3 (2015) 0 (2010) 0 0 0 0 0 1 1 2
2020-08-02 08:30 0.64 7 3 (2015) 0 (2010) 0 0 0 0 0 1 1 2
2020-08-02 07:30 0.64 7 3 (2015) 0 (2010) 0 0 0 0 0 1 1 2
2020-08-02 06:30 0.65 7 3 (2015) 0 (2010) 0 0 0 0 0 1 1 2
2020-08-02 05:30 0.65 7 3 (2015) 0 (2010) 0 0 0 0 0 1 1 2
2020-08-02 04:30 0.65 7 3 (2015) 0 (2010) 0 0 0 0 0 1 1 2
2020-08-02 03:30 0.65 7 3 (2015) 0 (2010) 0 0 0 0 0 1 1 2
2020-08-02 02:30 0.65 7 3 (2015) 0 (2010) 0 0 0 0 0 1 1 2
2020-08-02 01:30 0.65 7 3 (2015) 0 (2010) 0 0 0 0 0 1 1 2
2020-08-02 00:30 0.65 7 3 (2015) 0 (2010) 0 0 0 0 0 1 1 2
2020-08-01 23:30 0.65 7 3 (2015) 0 (2010) 0 0 0 0 0 1 1 3
2020-08-01 22:30 0.65 7 3 (2015) 0 (2010) 0 0 0 0 0 1 1 3
2020-08-01 21:30 0.65 7 3 (2015) 0 (2010) 0 0 0 0 0 1 1 3
2020-08-01 20:30 0.66 8 3 (2015) 0 (2010) 0 0 0 0 0 1 1 3
2020-08-01 19:30 0.65 7 3 (2015) 0 (2010) 0 0 0 0 0 1 1 3
2020-08-01 18:30 0.66 8 3 (2015) 0 (2010) 0 0 0 0 0 1 1 3
2020-08-01 17:30 0.59 6 3 (2015) 0 (2010) 0 0 0 0 0 1 1 3
2020-08-01 16:30 0.66 8 3 (2015) 0 (2010) 0 0 0 0 0 1 1 3
2020-08-01 15:30 0.65 7 3 (2015) 0 (2010) 0 0 0 0 0 1 1 3
2020-08-01 14:30 0.59 6 3 (2015) 0 (2010) 0 0 0 0 0 1 1 3
2020-08-01 13:30 0.60 6 3 (2015) 0 (2010) 0 0 0 0 0 1 1 3
2020-08-01 12:30 0.65 7 3 (2015) 0 (2010) 0 0 0 0 0 1 1 3
2020-08-01 11:30 0.64 7 3 (2015) 0 (2010) 0 0 0 0 0 1 1 3
2020-08-01 10:30 0.65 7 3 (2015) 0 (2010) 0 0 0 0 0 1 1 3
2020-08-01 09:30 0.65 7 3 (2015) 0 (2010) 0 0 0 0 0 1 1 3
2020-08-01 08:30 0.65 7 3 (2015) 0 (2010) 0 0 0 0 0 1 1 3
2020-08-01 07:30 0.65 7 3 (2015) 0 (2010) 0 0 0 0 0 1 1 3
2020-08-01 06:30 0.65 7 3 (2015) 0 (2010) 0 0 0 0 0 1 1 3
2020-08-01 05:30 0.66 8 3 (2015) 0 (2010) 0 0 0 0 0 1 1 3
2020-08-01 04:30 0.65 7 3 (2015) 0 (2010) 0 0 0 0 0 1 1 3
2020-08-01 03:30 0.65 7 3 (2015) 0 (2010) 0 0 0 0 0 1 1 3
2020-08-01 02:30 0.65 7 3 (2015) 0 (2010) 0 0 0 0 0 1 1 3
2020-08-01 01:30 0.66 8 3 (2015) 0 (2010) 0 0 0 0 0 1 1 3
2020-08-01 00:30 0.66 8 3 (2015) 0 (2010) 0 0 0 0 0 1 1 3
2020-07-31 23:30 0.65 7 3 (2015) 0 (2010) 1 0 0 0 0 2 2 3
2020-07-31 22:30 0.65 7 3 (2015) 0 (2010) 1 0 0 0 0 2 2 3
2020-07-31 21:30 0.65 7 3 (2015) 0 (2010) 1 0 0 0 0 2 2 3
2020-07-31 20:30 0.65 7 3 (2015) 0 (2010) 1 0 0 0 0 2 2 3
2020-07-31 19:30 0.65 7 3 (2015) 0 (2010) 1 0 0 0 0 2 2 3
2020-07-31 18:30 0.65 7 3 (2015) 0 (2010) 1 0 0 0 0 2 2 3
2020-07-31 17:30 0.65 7 3 (2015) 0 (2010) 1 0 0 0 0 2 2 3
2020-07-31 16:30 0.65 7 3 (2015) 0 (2010) 1 0 0 0 0 2 2 3
2020-07-31 15:30 0.65 7 3 (2015) 0 (2010) 1 0 0 0 0 2 2 3
2020-07-31 14:30 0.64 7 3 (2015) 0 (2010) 1 0 0 0 0 2 2 3
2020-07-31 13:30 0.65 7 3 (2015) 0 (2010) 1 0 0 0 0 2 2 3
2020-07-31 12:30 0.65 7 3 (2015) 0 (2010) 1 0 0 0 0 2 2 3
2020-07-31 11:30 0.65 7 3 (2015) 0 (2010) 1 0 0 0 0 2 2 3
2020-07-31 10:30 0.66 8 3 (2015) 0 (2010) 1 0 0 0 0 2 2 3
2020-07-31 09:30 0.64 7 3 (2015) 0 (2010) 1 0 0 0 0 2 2 3
2020-07-31 08:30 0.65 7 3 (2015) 0 (2010) 1 0 0 0 0 2 2 3
2020-07-31 07:30 0.65 7 3 (2015) 0 (2010) 1 0 0 0 0 2 2 3
2020-07-31 06:30 0.66 8 3 (2015) 0 (2010) 1 0 0 0 0 2 2 3
2020-07-31 05:30 0.66 8 3 (2015) 0 (2010) 1 0 0 0 0 2 2 3
2020-07-31 04:30 0.66 8 3 (2015) 0 (2010) 1 0 0 0 0 2 2 3
2020-07-31 03:30 0.65 7 3 (2015) 0 (2010) 1 0 0 0 0 2 2 3
2020-07-31 02:30 0.65 7 3 (2015) 0 (2010) 1 0 0 0 0 2 2 3
2020-07-31 01:30 0.65 7 3 (2015) 0 (2010) 1 0 0 0 0 2 2 3
2020-07-31 00:30 0.66 8 3 (2015) 0 (2010) 1 0 0 0 0 2 2 3
2020-07-30 23:30 0.66 8 3 (2015) 0 (2010) 1 0 0 0 0 2 2 3
2020-07-30 22:30 0.66 8 3 (2015) 0 (2010) 1 0 0 0 0 2 2 3
2020-07-30 21:30 0.66 8 3 (2015) 0 (2010) 1 0 0 0 0 2 2 3
2020-07-30 20:30 0.66 8 3 (2015) 0 (2010) 1 0 0 0 0 2 2 3
2020-07-30 19:30 0.66 8 3 (2015) 0 (2010) 1 0 0 0 0 2 2 3
2020-07-30 18:30 0.66 8 3 (2015) 0 (2010) 1 0 0 0 0 2 2 3
2020-07-30 17:30 0.66 8 3 (2015) 0 (2010) 1 0 0 0 0 2 2 3
2020-07-30 16:30 0.65 7 3 (2015) 0 (2010) 1 0 0 0 0 2 2 3
2020-07-30 15:30 0.66 8 3 (2015) 0 (2010) 1 0 0 0 0 2 2 3
2020-07-30 14:30 0.66 8 3 (2015) 0 (2010) 1 0 0 0 0 2 2 3
2020-07-30 13:30 0.66 8 3 (2015) 0 (2010) 1 0 0 0 0 2 2 3
2020-07-30 12:30 0.66 8 3 (2015) 0 (2010) 1 0 0 0 0 2 2 3
2020-07-30 11:30 0.66 8 3 (2015) 0 (2010) 1 0 0 0 0 2 2 3
2020-07-30 10:30 0.65 7 3 (2015) 0 (2010) 1 0 0 0 0 2 2 3
2020-07-30 09:30 0.67 8 3 (2015) 0 (2010) 1 0 0 0 0 2 2 3
2020-07-30 08:30 0.67 8 3 (2015) 0 (2010) 1 0 0 0 0 2 2 3
2020-07-30 07:30 0.68 8 3 (2015) 0 (2010) 1 0 0 0 0 2 2 3
2020-07-30 06:30 0.68 8 3 (2015) 0 (2010) 1 0 0 0 0 2 2 3
2020-07-30 05:30 0.68 8 3 (2015) 0 (2010) 1 0 0 0 0 2 2 3
2020-07-30 04:30 0.68 8 3 (2015) 0 (2010) 1 0 0 0 0 2 2 3
2020-07-30 03:30 0.68 8 3 (2015) 0 (2010) 1 0 0 0 0 2 2 3
2020-07-30 02:30 0.69 9 3 (2015) 0 (2010) 1 0 0 0 0 2 2 3
2020-07-30 01:30 0.68 8 3 (2015) 0 (2010) 1 0 0 0 0 2 2 3
2020-07-30 00:30 0.67 8 3 (2015) 0 (2010) 1 0 0 0 0 2 2 3
2020-07-29 23:30 0.60 6 3 (2019) 0 (2011) 1 0 0 0 0 2 2 3
2020-07-29 22:30 0.66 8 3 (2019) 0 (2011) 1 0 0 0 0 2 2 3
2020-07-29 21:30 0.66 8 3 (2019) 0 (2011) 1 0 0 0 0 2 2 3
2020-07-29 20:30 0.66 8 3 (2019) 0 (2011) 1 0 0 0 0 2 2 3
2020-07-29 19:30 0.66 8 3 (2019) 0 (2011) 1 0 0 0 0 2 2 3
2020-07-29 18:30 0.67 8 3 (2019) 0 (2011) 1 0 0 0 0 2 2 3
2020-07-29 17:30 0.67 8 3 (2019) 0 (2011) 1 0 0 0 0 2 2 3
2020-07-29 16:30 0.67 8 3 (2019) 0 (2011) 1 0 0 0 0 2 2 3
2020-07-29 15:30 0.67 8 3 (2019) 0 (2011) 1 0 0 0 0 2 2 3
2020-07-29 14:30 0.67 8 3 (2019) 0 (2011) 1 0 0 0 0 2 2 3
2020-07-29 13:30 0.67 8 3 (2019) 0 (2011) 1 0 0 0 0 2 2 3
2020-07-29 12:30 0.64 7 3 (2019) 0 (2011) 1 0 0 0 0 2 2 3
2020-07-29 11:30 0.64 7 3 (2019) 0 (2011) 1 0 0 0 0 2 2 3
2020-07-29 10:30 0.68 8 3 (2019) 0 (2011) 1 0 0 0 0 2 2 3
2020-07-29 09:30 0.67 8 3 (2019) 0 (2011) 1 0 0 0 0 2 2 3
2020-07-29 08:30 0.68 8 3 (2019) 0 (2011) 1 0 0 0 0 2 2 3
2020-07-29 07:30 0.68 8 3 (2019) 0 (2011) 1 0 0 0 0 2 2 3
2020-07-29 06:30 0.68 8 3 (2019) 0 (2011) 1 0 0 0 0 2 2 3
2020-07-29 05:30 0.68 8 3 (2019) 0 (2011) 1 0 0 0 0 2 2 3
2020-07-29 04:30 0.68 8 3 (2019) 0 (2011) 1 0 0 0 0 2 2 3
2020-07-29 03:30 0.68 8 3 (2019) 0 (2011) 1 0 0 0 0 2 2 3
2020-07-29 02:30 0.68 8 3 (2019) 0 (2011) 1 0 0 0 0 2 2 3
2020-07-29 01:30 0.68 8 3 (2019) 0 (2011) 1 0 0 0 0 2 2 3
2020-07-29 00:30 0.69 9 3 (2019) 0 (2011) 1 0 0 0 0 2 2 3
2020-07-28 23:30 0.69 9 3 (2019) 0 (2011) 1 0 0 0 0 3 3 3
2020-07-28 22:30 0.69 9 3 (2019) 0 (2011) 1 0 0 0 0 3 3 3
2020-07-28 21:30 0.69 9 3 (2019) 0 (2011) 1 0 0 0 0 3 3 3
2020-07-28 20:30 0.69 9 3 (2019) 0 (2011) 1 0 0 0 0 3 3 3
2020-07-28 19:30 0.69 9 3 (2019) 0 (2011) 1 0 0 0 0 3 3 3
2020-07-28 18:30 0.69 9 3 (2019) 0 (2011) 1 0 0 0 0 3 3 3
2020-07-28 17:30 0.69 9 3 (2019) 0 (2011) 1 0 0 0 0 3 3 3
2020-07-28 16:30 0.70 9 3 (2019) 0 (2011) 1 0 0 0 0 3 3 3
2020-07-28 15:30 0.70 9 3 (2019) 0 (2011) 1 0 0 0 0 3 3 3
2020-07-28 14:30 0.70 9 3 (2019) 0 (2011) 1 0 0 0 0 3 3 3
2020-07-28 13:30 0.70 9 3 (2019) 0 (2011) 1 0 0 0 0 3 3 3
2020-07-28 12:30 0.69 9 3 (2019) 0 (2011) 1 0 0 0 0 3 3 3
2020-07-28 11:30 0.70 9 3 (2019) 0 (2011) 1 0 0 0 0 3 3 3
2020-07-28 10:30 0.70 9 3 (2019) 0 (2011) 1 0 0 0 0 3 3 3
2020-07-28 09:30 0.70 9 3 (2019) 0 (2011) 1 0 0 0 0 3 3 3
2020-07-28 08:30 0.69 9 3 (2019) 0 (2011) 1 0 0 0 0 3 3 3
2020-07-28 07:30 0.70 9 3 (2019) 0 (2011) 1 0 0 0 0 3 3 3
2020-07-28 06:30 0.70 9 3 (2019) 0 (2011) 1 0 0 0 0 3 3 3
2020-07-28 05:30 0.70 9 3 (2019) 0 (2011) 1 0 0 0 0 3 3 3
2020-07-28 04:30 0.70 9 3 (2019) 0 (2011) 1 0 0 0 0 3 3 3
2020-07-28 03:30 0.70 9 3 (2019) 0 (2011) 1 0 0 0 0 3 3 3
2020-07-28 02:30 0.70 9 3 (2019) 0 (2011) 1 0 0 0 0 3 3 3
2020-07-28 01:30 0.70 9 3 (2019) 0 (2011) 1 0 0 0 0 3 3 3
2020-07-28 00:30 0.70 9 3 (2019) 0 (2011) 1 0 0 0 0 3 3 3
2020-07-27 23:30 0.71 9 143 (2010) 0 (2011) 14 0 0 0 0 3 3 115
2020-07-27 22:30 0.71 9 143 (2010) 0 (2011) 14 0 0 0 0 3 3 115
2020-07-27 21:30 0.71 9 143 (2010) 0 (2011) 14 0 0 0 0 3 3 115
2020-07-27 20:30 0.72 10 143 (2010) 0 (2011) 14 0 0 0 0 3 3 115
2020-07-27 19:30 0.70 9 143 (2010) 0 (2011) 14 0 0 0 0 3 3 115
2020-07-27 18:30 0.70 9 143 (2010) 0 (2011) 14 0 0 0 0 3 3 115
2020-07-27 17:30 0.61 6 143 (2010) 0 (2011) 14 0 0 0 0 3 3 115
2020-07-27 16:30 0.63 7 143 (2010) 0 (2011) 14 0 0 0 0 3 3 115
2020-07-27 15:30 0.62 6 143 (2010) 0 (2011) 14 0 0 0 0 3 3 115
2020-07-27 14:30 0.62 6 143 (2010) 0 (2011) 14 0 0 0 0 3 3 115
2020-07-27 13:30 0.62 6 143 (2010) 0 (2011) 14 0 0 0 0 3 3 115
2020-07-27 12:30 0.62 6 143 (2010) 0 (2011) 14 0 0 0 0 3 3 115
2020-07-27 11:30 0.62 6 143 (2010) 0 (2011) 14 0 0 0 0 3 3 115
2020-07-27 10:30 0.62 6 143 (2010) 0 (2011) 14 0 0 0 0 3 3 115
2020-07-27 09:30 0.62 6 143 (2010) 0 (2011) 14 0 0 0 0 3 3 115
2020-07-27 08:30 0.62 6 143 (2010) 0 (2011) 14 0 0 0 0 3 3 115
2020-07-27 07:30 0.62 6 143 (2010) 0 (2011) 14 0 0 0 0 3 3 115
2020-07-27 06:30 0.62 6 143 (2010) 0 (2011) 14 0 0 0 0 3 3 115
2020-07-27 05:30 0.62 6 143 (2010) 0 (2011) 14 0 0 0 0 3 3 115
2020-07-27 04:30 0.62 6 143 (2010) 0 (2011) 14 0 0 0 0 3 3 115
2020-07-27 03:30 0.62 6 143 (2010) 0 (2011) 14 0 0 0 0 3 3 115
2020-07-27 02:30 0.62 6 143 (2010) 0 (2011) 14 0 0 0 0 3 3 115
2020-07-27 01:30 0.62 6 143 (2010) 0 (2011) 14 0 0 0 0 3 3 115
2020-07-27 00:30 0.62 6 143 (2010) 0 (2011) 14 0 0 0 0 3 3 115
2020-07-26 23:30 0.62 6 36 (2010) 0 (2011) 5 0 0 0 0 4 7 30
2020-07-26 22:30 0.63 7 36 (2010) 0 (2011) 5 0 0 0 0 4 7 30
2020-07-26 21:30 0.63 7 36 (2010) 0 (2011) 5 0 0 0 0 4 7 30
2020-07-26 20:30 0.62 6 36 (2010) 0 (2011) 5 0 0 0 0 4 7 30
2020-07-26 19:30 0.63 7 36 (2010) 0 (2011) 5 0 0 0 0 4 7 30
2020-07-26 18:30 0.63 7 36 (2010) 0 (2011) 5 0 0 0 0 4 7 30
2020-07-26 17:30 0.63 7 36 (2010) 0 (2011) 5 0 0 0 0 4 7 30
2020-07-26 16:30 0.63 7 36 (2010) 0 (2011) 5 0 0 0 0 4 7 30
2020-07-26 15:30 0.63 7 36 (2010) 0 (2011) 5 0 0 0 0 4 7 30
2020-07-26 14:30 0.63 7 36 (2010) 0 (2011) 5 0 0 0 0 4 7 30
2020-07-26 13:30 0.63 7 36 (2010) 0 (2011) 5 0 0 0 0 4 7 30
2020-07-26 12:30 0.64 7 36 (2010) 0 (2011) 5 0 0 0 0 4 7 30
2020-07-26 11:30 0.63 7 36 (2010) 0 (2011) 5 0 0 0 0 4 7 30
2020-07-26 10:30 0.63 7 36 (2010) 0 (2011) 5 0 0 0 0 4 7 30
2020-07-26 09:30 0.55 5 36 (2010) 0 (2011) 5 0 0 0 0 4 7 30
2020-07-26 08:30 0.56 5 36 (2010) 0 (2011) 5 0 0 0 0 4 7 30
2020-07-26 07:30 0.57 5 36 (2010) 0 (2011) 5 0 0 0 0 4 7 30
2020-07-26 06:30 0.57 5 36 (2010) 0 (2011) 5 0 0 0 0 4 7 30
2020-07-26 05:30 0.57 5 36 (2010) 0 (2011) 5 0 0 0 0 4 7 30
2020-07-26 04:30 0.57 5 36 (2010) 0 (2011) 5 0 0 0 0 4 7 30
2020-07-26 03:30 0.57 5 36 (2010) 0 (2011) 5 0 0 0 0 4 7 30
2020-07-26 02:30 0.57 5 36 (2010) 0 (2011) 5 0 0 0 0 4 7 30
2020-07-26 01:30 0.57 5 36 (2010) 0 (2011) 5 0 0 0 0 4 7 30
2020-07-26 00:30 0.57 5 36 (2010) 0 (2011) 5 0 0 0 0 4 7 30
2020-07-25 23:30 0.57 5 24 (2015) 0 (2011) 3 0 0 0 0 3 5 21
2020-07-25 22:30 0.57 5 24 (2015) 0 (2011) 3 0 0 0 0 3 5 21
2020-07-25 21:30 0.57 5 24 (2015) 0 (2011) 3 0 0 0 0 3 5 21
2020-07-25 20:30 0.57 5 24 (2015) 0 (2011) 3 0 0 0 0 3 5 21
2020-07-25 19:30 0.57 5 24 (2015) 0 (2011) 3 0 0 0 0 3 5 21
2020-07-25 18:30 0.58 5 24 (2015) 0 (2011) 3 0 0 0 0 3 5 21
2020-07-25 17:30 0.58 5 24 (2015) 0 (2011) 3 0 0 0 0 3 5 21
2020-07-25 16:30 0.50 4 24 (2015) 0 (2011) 3 0 0 0 0 3 5 21
2020-07-25 15:30 0.57 5 24 (2015) 0 (2011) 3 0 0 0 0 3 5 21
2020-07-25 14:30 0.58 5 24 (2015) 0 (2011) 3 0 0 0 0 3 5 21
2020-07-25 13:30 0.58 5 24 (2015) 0 (2011) 3 0 0 0 0 3 5 21
2020-07-25 12:30 0.58 5 24 (2015) 0 (2011) 3 0 0 0 0 3 5 21
2020-07-25 11:30 0.55 5 24 (2015) 0 (2011) 3 0 0 0 0 3 5 21
2020-07-25 10:30 0.58 5 24 (2015) 0 (2011) 3 0 0 0 0 3 5 21
2020-07-25 09:30 0.57 5 24 (2015) 0 (2011) 3 0 0 0 0 3 5 21
2020-07-25 08:30 0.57 5 24 (2015) 0 (2011) 3 0 0 0 0 3 5 21
2020-07-25 07:30 0.58 5 24 (2015) 0 (2011) 3 0 0 0 0 3 5 21
2020-07-25 06:30 0.58 5 24 (2015) 0 (2011) 3 0 0 0 0 3 5 21
2020-07-25 05:30 0.58 5 24 (2015) 0 (2011) 3 0 0 0 0 3 5 21
2020-07-25 04:30 0.58 5 24 (2015) 0 (2011) 3 0 0 0 0 3 5 21
2020-07-25 03:30 0.58 5 24 (2015) 0 (2011) 3 0 0 0 0 3 5 21
2020-07-25 02:30 0.58 5 24 (2015) 0 (2011) 3 0 0 0 0 3 5 21
2020-07-25 01:30 0.58 5 24 (2015) 0 (2011) 3 0 0 0 0 3 5 21
2020-07-25 00:30 0.58 5 24 (2015) 0 (2011) 3 0 0 0 0 3 5 21
2020-07-24 23:30 0.58 5 29 (2019) 0 (2011) 4 0 0 0 0 3 6 25
2020-07-24 22:30 0.58 5 29 (2019) 0 (2011) 4 0 0 0 0 3 6 25
2020-07-24 21:30 0.58 5 29 (2019) 0 (2011) 4 0 0 0 0 3 6 25
2020-07-24 20:30 0.58 5 29 (2019) 0 (2011) 4 0 0 0 0 3 6 25
2020-07-24 19:30 0.58 5 29 (2019) 0 (2011) 4 0 0 0 0 3 6 25
2020-07-24 18:30 0.58 5 29 (2019) 0 (2011) 4 0 0 0 0 3 6 25
2020-07-24 17:30 0.59 6 29 (2019) 0 (2011) 4 0 0 0 0 3 6 25
2020-07-24 16:30 0.59 6 29 (2019) 0 (2011) 4 0 0 0 0 3 6 25
2020-07-24 15:30 0.53 4 29 (2019) 0 (2011) 4 0 0 0 0 3 6 25
2020-07-24 14:30 0.59 6 29 (2019) 0 (2011) 4 0 0 0 0 3 6 25
2020-07-24 13:30 0.53 4 29 (2019) 0 (2011) 4 0 0 0 0 3 6 25
2020-07-24 12:30 0.58 5 29 (2019) 0 (2011) 4 0 0 0 0 3 6 25
2020-07-24 11:30 0.60 6 29 (2019) 0 (2011) 4 0 0 0 0 3 6 25
2020-07-24 10:30 0.59 6 29 (2019) 0 (2011) 4 0 0 0 0 3 6 25
2020-07-24 09:30 0.60 6 29 (2019) 0 (2011) 4 0 0 0 0 3 6 25
2020-07-24 08:30 0.59 6 29 (2019) 0 (2011) 4 0 0 0 0 3 6 25
2020-07-24 07:30 0.59 6 29 (2019) 0 (2011) 4 0 0 0 0 3 6 25
2020-07-24 06:30 0.60 6 29 (2019) 0 (2011) 4 0 0 0 0 3 6 25
2020-07-24 05:30 0.60 6 29 (2019) 0 (2011) 4 0 0 0 0 3 6 25
2020-07-24 04:30 0.60 6 29 (2019) 0 (2011) 4 0 0 0 0 3 6 25
2020-07-24 03:30 0.60 6 29 (2019) 0 (2011) 4 0 0 0 0 3 6 25
2020-07-24 02:30 0.60 6 29 (2019) 0 (2011) 4 0 0 0 0 3 6 25
2020-07-24 01:30 0.60 6 29 (2019) 0 (2011) 4 0 0 0 0 3 6 25
2020-07-24 00:30 0.60 6 29 (2019) 0 (2011) 4 0 0 0 0 3 6 25
2020-07-23 23:30 0.60 6 62 (2019) 0 (2011) 7 0 0 0 0 3 5 51
2020-07-23 22:30 0.61 6 62 (2019) 0 (2011) 7 0 0 0 0 3 5 51
2020-07-23 21:30 0.60 6 62 (2019) 0 (2011) 7 0 0 0 0 3 5 51
2020-07-23 20:30 0.61 6 62 (2019) 0 (2011) 7 0 0 0 0 3 5 51
2020-07-23 19:30 0.56 5 62 (2019) 0 (2011) 7 0 0 0 0 3 5 51
2020-07-23 18:30 0.61 6 62 (2019) 0 (2011) 7 0 0 0 0 3 5 51
2020-07-23 17:30 0.60 6 62 (2019) 0 (2011) 7 0 0 0 0 3 5 51
2020-07-23 16:30 0.62 6 62 (2019) 0 (2011) 7 0 0 0 0 3 5 51
2020-07-23 15:30 0.62 6 62 (2019) 0 (2011) 7 0 0 0 0 3 5 51
2020-07-23 14:30 0.62 6 62 (2019) 0 (2011) 7 0 0 0 0 3 5 51
2020-07-23 13:30 0.62 6 62 (2019) 0 (2011) 7 0 0 0 0 3 5 51
2020-07-23 12:30 0.63 7 62 (2019) 0 (2011) 7 0 0 0 0 3 5 51
2020-07-23 11:30 0.63 7 62 (2019) 0 (2011) 7 0 0 0 0 3 5 51
2020-07-23 10:30 0.63 7 62 (2019) 0 (2011) 7 0 0 0 0 3 5 51
2020-07-23 09:30 0.63 7 62 (2019) 0 (2011) 7 0 0 0 0 3 5 51
2020-07-23 08:30 0.63 7 62 (2019) 0 (2011) 7 0 0 0 0 3 5 51
2020-07-23 07:30 0.63 7 62 (2019) 0 (2011) 7 0 0 0 0 3 5 51
2020-07-23 06:30 0.63 7 62 (2019) 0 (2011) 7 0 0 0 0 3 5 51
2020-07-23 05:30 0.63 7 62 (2019) 0 (2011) 7 0 0 0 0 3 5 51
2020-07-23 04:30 0.64 7 62 (2019) 0 (2011) 7 0 0 0 0 3 5 51
2020-07-23 03:30 0.64 7 62 (2019) 0 (2011) 7 0 0 0 0 3 5 51
2020-07-23 02:30 0.64 7 62 (2019) 0 (2011) 7 0 0 0 0 3 5 51
2020-07-23 01:30 0.65 7 62 (2019) 0 (2011) 7 0 0 0 0 3 5 51
2020-07-23 00:30 0.65 7 62 (2019) 0 (2011) 7 0 0 0 0 3 5 51
2020-07-22 23:30 0.65 7 8 (2015) 0 (2011) 2 0 0 0 0 3 5 8
2020-07-22 22:30 0.65 7 8 (2015) 0 (2011) 2 0 0 0 0 3 5 8
2020-07-22 21:30 0.65 7 8 (2015) 0 (2011) 2 0 0 0 0 3 5 8
2020-07-22 20:30 0.65 7 8 (2015) 0 (2011) 2 0 0 0 0 3 5 8
2020-07-22 19:30 0.65 7 8 (2015) 0 (2011) 2 0 0 0 0 3 5 8
2020-07-22 18:30 0.66 8 8 (2015) 0 (2011) 2 0 0 0 0 3 5 8
2020-07-22 17:30 0.66 8 8 (2015) 0 (2011) 2 0 0 0 0 3 5 8
2020-07-22 16:30 0.66 8 8 (2015) 0 (2011) 2 0 0 0 0 3 5 8
2020-07-22 15:30 0.67 8 8 (2015) 0 (2011) 2 0 0 0 0 3 5 8
2020-07-22 14:30 0.67 8 8 (2015) 0 (2011) 2 0 0 0 0 3 5 8
2020-07-22 13:30 0.67 8 8 (2015) 0 (2011) 2 0 0 0 0 3 5 8
2020-07-22 12:30 0.67 8 8 (2015) 0 (2011) 2 0 0 0 0 3 5 8
2020-07-22 11:30 0.67 8 8 (2015) 0 (2011) 2 0 0 0 0 3 5 8
2020-07-22 10:30 0.63 7 8 (2015) 0 (2011) 2 0 0 0 0 3 5 8
2020-07-22 09:30 8 (2015) 0 (2011) 2 0 0 0 0 3 5 8
2020-07-22 08:30 8 (2015) 0 (2011) 2 0 0 0 0 3 5 8
2020-07-22 07:30 8 (2015) 0 (2011) 2 0 0 0 0 3 5 8
2020-07-22 06:30 8 (2015) 0 (2011) 2 0 0 0 0 3 5 8
2020-07-22 05:30 8 (2015) 0 (2011) 2 0 0 0 0 3 5 8
2020-07-22 04:30 8 (2015) 0 (2011) 2 0 0 0 0 3 5 8
2020-07-22 03:30 8 (2015) 0 (2011) 2 0 0 0 0 3 5 8
2020-07-22 02:30 8 (2015) 0 (2011) 2 0 0 0 0 3 5 8
2020-07-22 01:30 8 (2015) 0 (2011) 2 0 0 0 0 3 5 8
2020-07-22 00:30 8 (2015) 0 (2011) 2 0 0 0 0 3 5 8
2020-07-21 23:30 14 (2015) 0 (2011) 2 0 0 0 0 1 2 11
2020-07-21 22:30 14 (2015) 0 (2011) 2 0 0 0 0 1 2 11
2020-07-21 21:30 14 (2015) 0 (2011) 2 0 0 0 0 1 2 11
2020-07-21 20:30 14 (2015) 0 (2011) 2 0 0 0 0 1 2 11
2020-07-21 19:30 14 (2015) 0 (2011) 2 0 0 0 0 1 2 11
2020-07-21 18:30 14 (2015) 0 (2011) 2 0 0 0 0 1 2 11
2020-07-21 17:30 14 (2015) 0 (2011) 2 0 0 0 0 1 2 11
2020-07-21 16:30 14 (2015) 0 (2011) 2 0 0 0 0 1 2 11
2020-07-21 15:30 14 (2015) 0 (2011) 2 0 0 0 0 1 2 11
2020-07-21 14:30 14 (2015) 0 (2011) 2 0 0 0 0 1 2 11
2020-07-21 13:30 1.26 46 14 (2015) 0 (2011) 2 0 0 0 0 1 2 11
2020-07-21 12:30 1.40 63 14 (2015) 0 (2011) 2 0 0 0 0 1 2 11
2020-07-21 11:30 1.82 137 14 (2015) 0 (2011) 2 0 0 0 0 1 2 11
2020-07-21 10:30 1.72 116 14 (2015) 0 (2011) 2 0 0 0 0 1 2 11
2020-07-21 09:30 1.60 93 14 (2015) 0 (2011) 2 0 0 0 0 1 2 11
2020-07-21 08:30 1.51 78 14 (2015) 0 (2011) 2 0 0 0 0 1 2 11
2020-07-20 22:30 1.58 90 52 (2015) 0 (2011) 5 0 0 0 0 1 2 42
2020-07-20 21:30 1.61 95 52 (2015) 0 (2011) 5 0 0 0 0 1 2 42
2020-07-20 20:30 1.67 106 52 (2015) 0 (2011) 5 0 0 0 0 1 2 42
2020-07-20 19:30 1.69 110 52 (2015) 0 (2011) 5 0 0 0 0 1 2 42
2020-07-20 18:30 1.64 100 52 (2015) 0 (2011) 5 0 0 0 0 1 2 42
2020-07-20 17:30 1.56 86 52 (2015) 0 (2011) 5 0 0 0 0 1 2 42
2020-07-20 16:30 1.40 63 52 (2015) 0 (2011) 5 0 0 0 0 1 2 42
2020-07-20 15:30 1.45 70 52 (2015) 0 (2011) 5 0 0 0 0 1 2 42
2020-07-20 14:30 1.47 72 52 (2015) 0 (2011) 5 0 0 0 0 1 2 42
2020-07-20 13:30 1.51 78 52 (2015) 0 (2011) 5 0 0 0 0 1 2 42
2020-07-20 12:30 1.48 74 52 (2015) 0 (2011) 5 0 0 0 0 1 2 42
2020-07-20 11:30 1.48 74 52 (2015) 0 (2011) 5 0 0 0 0 1 2 42
2020-07-20 10:30 1.46 71 52 (2015) 0 (2011) 5 0 0 0 0 1 2 42
2020-07-20 09:30 1.49 75 52 (2015) 0 (2011) 5 0 0 0 0 1 2 42
2020-07-20 02:30 1.34 55 52 (2015) 0 (2011) 5 0 0 0 0 1 2 42
2020-07-20 01:30 1.33 54 52 (2015) 0 (2011) 5 0 0 0 0 1 2 42
2020-07-20 00:30 1.33 54 52 (2015) 0 (2011) 5 0 0 0 0 1 2 42
2020-07-19 23:30 1.33 54 14 (2015) 0 (2011) 2 0 0 0 0 1 3 12
2020-07-19 22:30 1.33 54 14 (2015) 0 (2011) 2 0 0 0 0 1 3 12
2020-07-19 21:30 1.32 53 14 (2015) 0 (2011) 2 0 0 0 0 1 3 12
2020-07-19 20:30 1.33 54 14 (2015) 0 (2011) 2 0 0 0 0 1 3 12
2020-07-19 19:30 1.34 55 14 (2015) 0 (2011) 2 0 0 0 0 1 3 12
2020-07-19 18:30 1.32 53 14 (2015) 0 (2011) 2 0 0 0 0 1 3 12
2020-07-19 17:30 1.32 53 14 (2015) 0 (2011) 2 0 0 0 0 1 3 12
2020-07-19 16:30 1.33 54 14 (2015) 0 (2011) 2 0 0 0 0 1 3 12
2020-07-19 15:30 1.33 54 14 (2015) 0 (2011) 2 0 0 0 0 1 3 12
2020-07-19 14:30 1.33 54 14 (2015) 0 (2011) 2 0 0 0 0 1 3 12
2020-07-19 13:30 1.33 54 14 (2015) 0 (2011) 2 0 0 0 0 1 3 12
2020-07-19 12:30 1.34 55 14 (2015) 0 (2011) 2 0 0 0 0 1 3 12
2020-07-19 11:30 1.34 55 14 (2015) 0 (2011) 2 0 0 0 0 1 3 12
2020-07-19 10:30 1.35 56 14 (2015) 0 (2011) 2 0 0 0 0 1 3 12
2020-07-19 09:30 1.35 56 14 (2015) 0 (2011) 2 0 0 0 0 1 3 12
2020-07-19 08:30 1.35 56 14 (2015) 0 (2011) 2 0 0 0 0 1 3 12
2020-07-19 07:30 1.35 56 14 (2015) 0 (2011) 2 0 0 0 0 1 3 12
2020-07-19 06:30 1.35 56 14 (2015) 0 (2011) 2 0 0 0 0 1 3 12
2020-07-19 05:30 1.35 56 14 (2015) 0 (2011) 2 0 0 0 0 1 3 12
2020-07-19 04:30 1.36 58 14 (2015) 0 (2011) 2 0 0 0 0 1 3 12
2020-07-19 03:30 1.35 56 14 (2015) 0 (2011) 2 0 0 0 0 1 3 12
2020-07-19 02:30 1.35 56 14 (2015) 0 (2011) 2 0 0 0 0 1 3 12
2020-07-19 01:30 1.35 56 14 (2015) 0 (2011) 2 0 0 0 0 1 3 12
2020-07-19 00:30 1.35 56 14 (2015) 0 (2011) 2 0 0 0 0 1 3 12
2020-07-18 23:30 1.35 56 28 (2015) 0 (2011) 3 0 0 0 0 2 3 23
2020-07-18 22:30 1.34 55 28 (2015) 0 (2011) 3 0 0 0 0 2 3 23
2020-07-18 21:30 1.34 55 28 (2015) 0 (2011) 3 0 0 0 0 2 3 23
2020-07-18 20:30 1.34 55 28 (2015) 0 (2011) 3 0 0 0 0 2 3 23
2020-07-18 19:30 1.34 55 28 (2015) 0 (2011) 3 0 0 0 0 2 3 23
2020-07-18 18:30 1.34 55 28 (2015) 0 (2011) 3 0 0 0 0 2 3 23
2020-07-18 17:30 1.34 55 28 (2015) 0 (2011) 3 0 0 0 0 2 3 23
2020-07-18 16:30 1.36 58 28 (2015) 0 (2011) 3 0 0 0 0 2 3 23
2020-07-18 15:30 1.34 55 28 (2015) 0 (2011) 3 0 0 0 0 2 3 23
2020-07-18 14:30 1.28 48 28 (2015) 0 (2011) 3 0 0 0 0 2 3 23
2020-07-18 13:30 1.30 50 28 (2015) 0 (2011) 3 0 0 0 0 2 3 23
2020-07-18 12:30 1.29 49 28 (2015) 0 (2011) 3 0 0 0 0 2 3 23
2020-07-18 11:30 1.29 49 28 (2015) 0 (2011) 3 0 0 0 0 2 3 23
2020-07-18 10:30 1.29 49 28 (2015) 0 (2011) 3 0 0 0 0 2 3 23
2020-07-18 09:30 1.29 49 28 (2015) 0 (2011) 3 0 0 0 0 2 3 23
2020-07-18 08:30 1.28 48 28 (2015) 0 (2011) 3 0 0 0 0 2 3 23
2020-07-18 07:30 1.28 48 28 (2015) 0 (2011) 3 0 0 0 0 2 3 23
2020-07-18 06:30 1.28 48 28 (2015) 0 (2011) 3 0 0 0 0 2 3 23
2020-07-18 05:30 1.27 47 28 (2015) 0 (2011) 3 0 0 0 0 2 3 23
2020-07-18 04:30 1.28 48 28 (2015) 0 (2011) 3 0 0 0 0 2 3 23
2020-07-18 03:30 1.28 48 28 (2015) 0 (2011) 3 0 0 0 0 2 3 23
2020-07-18 02:30 1.28 48 28 (2015) 0 (2011) 3 0 0 0 0 2 3 23
2020-07-18 01:30 1.28 48 28 (2015) 0 (2011) 3 0 0 0 0 2 3 23
2020-07-18 00:30 1.29 49 28 (2015) 0 (2011) 3 0 0 0 0 2 3 23
2020-07-17 23:30 1.29 49 51 (2015) 0 (2011) 5 0 0 0 0 2 3 41
2020-07-17 22:30 1.29 49 51 (2015) 0 (2011) 5 0 0 0 0 2 3 41
2020-07-17 21:30 1.30 50 51 (2015) 0 (2011) 5 0 0 0 0 2 3 41
2020-07-17 20:30 1.30 50 51 (2015) 0 (2011) 5 0 0 0 0 2 3 41
2020-07-17 19:30 1.30 50 51 (2015) 0 (2011) 5 0 0 0 0 2 3 41
2020-07-17 18:30 1.30 50 51 (2015) 0 (2011) 5 0 0 0 0 2 3 41
2020-07-17 17:30 1.30 50 51 (2015) 0 (2011) 5 0 0 0 0 2 3 41
2020-07-17 16:30 1.29 49 51 (2015) 0 (2011) 5 0 0 0 0 2 3 41
2020-07-17 15:30 1.30 50 51 (2015) 0 (2011) 5 0 0 0 0 2 3 41
2020-07-17 14:30 1.30 50 51 (2015) 0 (2011) 5 0 0 0 0 2 3 41
2020-07-17 13:30 1.30 50 51 (2015) 0 (2011) 5 0 0 0 0 2 3 41
2020-07-17 12:30 1.30 50 51 (2015) 0 (2011) 5 0 0 0 0 2 3 41
2020-07-17 11:30 1.30 50 51 (2015) 0 (2011) 5 0 0 0 0 2 3 41
2020-07-17 10:30 1.29 49 51 (2015) 0 (2011) 5 0 0 0 0 2 3 41
2020-07-17 09:30 1.28 48 51 (2015) 0 (2011) 5 0 0 0 0 2 3 41
2020-07-17 08:30 1.28 48 51 (2015) 0 (2011) 5 0 0 0 0 2 3 41
2020-07-17 07:30 1.28 48 51 (2015) 0 (2011) 5 0 0 0 0 2 3 41
2020-07-17 06:30 1.27 47 51 (2015) 0 (2011) 5 0 0 0 0 2 3 41
2020-07-17 05:30 1.27 47 51 (2015) 0 (2011) 5 0 0 0 0 2 3 41
2020-07-17 04:30 1.28 48 51 (2015) 0 (2011) 5 0 0 0 0 2 3 41
2020-07-17 03:30 1.28 48 51 (2015) 0 (2011) 5 0 0 0 0 2 3 41
2020-07-17 02:30 1.29 49 51 (2015) 0 (2011) 5 0 0 0 0 2 3 41
2020-07-17 01:30 1.28 48 51 (2015) 0 (2011) 5 0 0 0 0 2 3 41
2020-07-17 00:30 1.29 49 51 (2015) 0 (2011) 5 0 0 0 0 2 3 41
2020-07-16 23:30 1.29 49 88 (2015) 0 (2011) 9 0 0 0 0 2 3 71
2020-07-16 22:30 1.29 49 88 (2015) 0 (2011) 9 0 0 0 0 2 3 71
2020-07-16 21:30 1.29 49 88 (2015) 0 (2011) 9 0 0 0 0 2 3 71
2020-07-16 20:30 1.29 49 88 (2015) 0 (2011) 9 0 0 0 0 2 3 71
2020-07-16 19:30 1.29 49 88 (2015) 0 (2011) 9 0 0 0 0 2 3 71
2020-07-16 18:30 1.30 50 88 (2015) 0 (2011) 9 0 0 0 0 2 3 71
2020-07-16 17:30 1.28 48 88 (2015) 0 (2011) 9 0 0 0 0 2 3 71
2020-07-16 16:30 1.29 49 88 (2015) 0 (2011) 9 0 0 0 0 2 3 71
2020-07-16 15:30 1.28 48 88 (2015) 0 (2011) 9 0 0 0 0 2 3 71
2020-07-16 14:30 1.29 49 88 (2015) 0 (2011) 9 0 0 0 0 2 3 71
2020-07-16 13:30 1.30 50 88 (2015) 0 (2011) 9 0 0 0 0 2 3 71
2020-07-16 12:30 1.30 50 88 (2015) 0 (2011) 9 0 0 0 0 2 3 71
2020-07-16 11:30 1.29 49 88 (2015) 0 (2011) 9 0 0 0 0 2 3 71
2020-07-16 10:30 1.29 49 88 (2015) 0 (2011) 9 0 0 0 0 2 3 71
2020-07-16 09:30 1.28 48 88 (2015) 0 (2011) 9 0 0 0 0 2 3 71
2020-07-16 08:30 1.29 49 88 (2015) 0 (2011) 9 0 0 0 0 2 3 71
2020-07-16 07:30 1.29 49 88 (2015) 0 (2011) 9 0 0 0 0 2 3 71
2020-07-16 06:30 1.29 49 88 (2015) 0 (2011) 9 0 0 0 0 2 3 71
2020-07-16 05:30 1.29 49 88 (2015) 0 (2011) 9 0 0 0 0 2 3 71
2020-07-16 04:30 1.29 49 88 (2015) 0 (2011) 9 0 0 0 0 2 3 71
2020-07-16 03:30 1.29 49 88 (2015) 0 (2011) 9 0 0 0 0 2 3 71
2020-07-16 02:30 1.30 50 88 (2015) 0 (2011) 9 0 0 0 0 2 3 71
2020-07-16 01:30 1.30 50 88 (2015) 0 (2011) 9 0 0 0 0 2 3 71
2020-07-16 00:30 1.30 50 88 (2015) 0 (2011) 9 0 0 0 0 2 3 71
2020-07-15 23:30 1.29 49 151 (2015) 0 (2011) 15 0 0 0 0 4 4 122
2020-07-15 22:30 1.29 49 151 (2015) 0 (2011) 15 0 0 0 0 4 4 122
2020-07-15 21:30 1.30 50 151 (2015) 0 (2011) 15 0 0 0 0 4 4 122
2020-07-15 20:30 1.29 49 151 (2015) 0 (2011) 15 0 0 0 0 4 4 122
2020-07-15 19:30 1.30 50 151 (2015) 0 (2011) 15 0 0 0 0 4 4 122
2020-07-15 18:30 1.29 49 151 (2015) 0 (2011) 15 0 0 0 0 4 4 122
2020-07-15 17:30 1.29 49 151 (2015) 0 (2011) 15 0 0 0 0 4 4 122
2020-07-15 16:30 1.28 48 151 (2015) 0 (2011) 15 0 0 0 0 4 4 122
2020-07-15 15:30 1.28 48 151 (2015) 0 (2011) 15 0 0 0 0 4 4 122
2020-07-15 14:30 1.28 48 151 (2015) 0 (2011) 15 0 0 0 0 4 4 122
2020-07-15 13:30 1.28 48 151 (2015) 0 (2011) 15 0 0 0 0 4 4 122
2020-07-15 12:30 1.27 47 151 (2015) 0 (2011) 15 0 0 0 0 4 4 122
2020-07-15 11:30 1.27 47 151 (2015) 0 (2011) 15 0 0 0 0 4 4 122
2020-07-15 10:30 1.26 46 151 (2015) 0 (2011) 15 0 0 0 0 4 4 122
2020-07-15 09:30 1.25 45 151 (2015) 0 (2011) 15 0 0 0 0 4 4 122
2020-07-15 08:30 1.25 45 151 (2015) 0 (2011) 15 0 0 0 0 4 4 122
2020-07-15 07:30 1.24 44 151 (2015) 0 (2011) 15 0 0 0 0 4 4 122
2020-07-15 06:30 1.25 45 151 (2015) 0 (2011) 15 0 0 0 0 4 4 122
2020-07-15 05:30 1.24 44 151 (2015) 0 (2011) 15 0 0 0 0 4 4 122
2020-07-15 04:30 1.25 45 151 (2015) 0 (2011) 15 0 0 0 0 4 4 122
2020-07-15 03:30 1.26 46 151 (2015) 0 (2011) 15 0 0 0 0 4 4 122
2020-07-15 02:30 1.26 46 151 (2015) 0 (2011) 15 0 0 0 0 4 4 122
2020-07-15 01:30 1.26 46 151 (2015) 0 (2011) 15 0 0 0 0 4 4 122
2020-07-15 00:30 1.27 47 151 (2015) 0 (2011) 15 0 0 0 0 4 4 122
2020-07-14 23:30 1.27 47 282 (2015) 0 (2011) 27 0 0 0 0 4 7 228
2020-07-14 22:30 1.28 48 282 (2015) 0 (2011) 27 0 0 0 0 4 7 228
2020-07-14 21:30 1.28 48 282 (2015) 0 (2011) 27 0 0 0 0 4 7 228
2020-07-14 20:30 1.28 48 282 (2015) 0 (2011) 27 0 0 0 0 4 7 228
2020-07-14 19:30 1.27 47 282 (2015) 0 (2011) 27 0 0 0 0 4 7 228
2020-07-14 18:30 1.28 48 282 (2015) 0 (2011) 27 0 0 0 0 4 7 228
2020-07-14 17:30 1.28 48 282 (2015) 0 (2011) 27 0 0 0 0 4 7 228
2020-07-14 16:30 1.27 47 282 (2015) 0 (2011) 27 0 0 0 0 4 7 228
2020-07-14 15:30 1.28 48 282 (2015) 0 (2011) 27 0 0 0 0 4 7 228
2020-07-14 14:30 1.26 46 282 (2015) 0 (2011) 27 0 0 0 0 4 7 228
2020-07-14 13:30 1.27 47 282 (2015) 0 (2011) 27 0 0 0 0 4 7 228
2020-07-14 12:30 1.26 46 282 (2015) 0 (2011) 27 0 0 0 0 4 7 228
2020-07-14 11:30 1.27 47 282 (2015) 0 (2011) 27 0 0 0 0 4 7 228
2020-07-14 10:30 1.28 48 282 (2015) 0 (2011) 27 0 0 0 0 4 7 228
2020-07-14 09:30 1.27 47 282 (2015) 0 (2011) 27 0 0 0 0 4 7 228
2020-07-14 08:30 1.27 47 282 (2015) 0 (2011) 27 0 0 0 0 4 7 228
2020-07-14 07:30 1.26 46 282 (2015) 0 (2011) 27 0 0 0 0 4 7 228
2020-07-14 06:30 1.27 47 282 (2015) 0 (2011) 27 0 0 0 0 4 7 228
2020-07-14 05:30 1.27 47 282 (2015) 0 (2011) 27 0 0 0 0 4 7 228
2020-07-14 04:30 1.27 47 282 (2015) 0 (2011) 27 0 0 0 0 4 7 228
2020-07-14 03:30 1.29 49 282 (2015) 0 (2011) 27 0 0 0 0 4 7 228
2020-07-14 02:30 1.30 50 282 (2015) 0 (2011) 27 0 0 0 0 4 7 228
2020-07-14 01:30 1.31 52 282 (2015) 0 (2011) 27 0 0 0 0 4 7 228
2020-07-14 00:30 1.31 52 282 (2015) 0 (2011) 27 0 0 0 0 4 7 228
2020-07-13 23:30 1.31 52 554 (2015) 0 (2011) 53 0 0 0 0 3 11 446
2020-07-13 22:30 1.32 53 554 (2015) 0 (2011) 53 0 0 0 0 3 11 446
2020-07-13 21:30 1.33 54 554 (2015) 0 (2011) 53 0 0 0 0 3 11 446
2020-07-13 20:30 1.33 54 554 (2015) 0 (2011) 53 0 0 0 0 3 11 446
2020-07-13 19:30 1.32 53 554 (2015) 0 (2011) 53 0 0 0 0 3 11 446
2020-07-13 18:30 1.32 53 554 (2015) 0 (2011) 53 0 0 0 0 3 11 446
2020-07-13 17:30 1.32 53 554 (2015) 0 (2011) 53 0 0 0 0 3 11 446
2020-07-13 16:30 1.31 52 554 (2015) 0 (2011) 53 0 0 0 0 3 11 446
2020-07-13 15:30 1.30 50 554 (2015) 0 (2011) 53 0 0 0 0 3 11 446
2020-07-13 14:30 1.31 52 554 (2015) 0 (2011) 53 0 0 0 0 3 11 446
2020-07-13 13:30 1.30 50 554 (2015) 0 (2011) 53 0 0 0 0 3 11 446
2020-07-13 12:30 1.29 49 554 (2015) 0 (2011) 53 0 0 0 0 3 11 446
2020-07-13 11:30 1.29 49 554 (2015) 0 (2011) 53 0 0 0 0 3 11 446
2020-07-13 10:30 1.29 49 554 (2015) 0 (2011) 53 0 0 0 0 3 11 446
2020-07-13 09:30 1.27 47 554 (2015) 0 (2011) 53 0 0 0 0 3 11 446
2020-07-13 08:30 1.27 47 554 (2015) 0 (2011) 53 0 0 0 0 3 11 446
2020-07-13 07:30 1.28 48 554 (2015) 0 (2011) 53 0 0 0 0 3 11 446
2020-07-13 06:30 1.28 48 554 (2015) 0 (2011) 53 0 0 0 0 3 11 446
2020-07-13 05:30 1.28 48 554 (2015) 0 (2011) 53 0 0 0 0 3 11 446
2020-07-13 04:30 1.28 48 554 (2015) 0 (2011) 53 0 0 0 0 3 11 446
2020-07-13 03:30 1.29 49 554 (2015) 0 (2011) 53 0 0 0 0 3 11 446
2020-07-13 02:30 1.29 49 554 (2015) 0 (2011) 53 0 0 0 0 3 11 446
2020-07-13 01:30 1.30 50 554 (2015) 0 (2011) 53 0 0 0 0 3 11 446
2020-07-13 00:30 1.30 50 554 (2015) 0 (2011) 53 0 0 0 0 3 11 446
2020-07-12 23:30 1.30 50 1070 (2015) 0 (2011) 101 0 0 0 0 4 18 861
2020-07-12 22:30 1.31 52 1070 (2015) 0 (2011) 101 0 0 0 0 4 18 861
2020-07-12 21:30 1.32 53 1070 (2015) 0 (2011) 101 0 0 0 0 4 18 861
2020-07-12 20:30 1.33 54 1070 (2015) 0 (2011) 101 0 0 0 0 4 18 861
2020-07-12 19:30 1.32 53 1070 (2015) 0 (2011) 101 0 0 0 0 4 18 861
2020-07-12 18:30 1.32 53 1070 (2015) 0 (2011) 101 0 0 0 0 4 18 861
2020-07-12 17:30 1.31 52 1070 (2015) 0 (2011) 101 0 0 0 0 4 18 861
2020-07-12 16:30 1.30 50 1070 (2015) 0 (2011) 101 0 0 0 0 4 18 861
2020-07-12 15:30 1.28 48 1070 (2015) 0 (2011) 101 0 0 0 0 4 18 861
2020-07-12 14:30 1.30 50 1070 (2015) 0 (2011) 101 0 0 0 0 4 18 861
2020-07-12 13:30 1.29 49 1070 (2015) 0 (2011) 101 0 0 0 0 4 18 861
2020-07-12 12:30 1.42 65 1070 (2015) 0 (2011) 101 0 0 0 0 4 18 861
2020-07-12 11:30 1.42 65 1070 (2015) 0 (2011) 101 0 0 0 0 4 18 861
2020-07-12 10:30 1.43 67 1070 (2015) 0 (2011) 101 0 0 0 0 4 18 861
2020-07-12 09:30 1.42 65 1070 (2015) 0 (2011) 101 0 0 0 0 4 18 861
2020-07-12 08:30 1.41 64 1070 (2015) 0 (2011) 101 0 0 0 0 4 18 861
2020-07-12 07:30 1.41 64 1070 (2015) 0 (2011) 101 0 0 0 0 4 18 861
2020-07-12 06:30 1.41 64 1070 (2015) 0 (2011) 101 0 0 0 0 4 18 861
2020-07-12 05:30 1.41 64 1070 (2015) 0 (2011) 101 0 0 0 0 4 18 861
2020-07-12 04:30 1.42 65 1070 (2015) 0 (2011) 101 0 0 0 0 4 18 861
2020-07-12 03:30 1.42 65 1070 (2015) 0 (2011) 101 0 0 0 0 4 18 861
2020-07-12 02:30 1.42 65 1070 (2015) 0 (2011) 101 0 0 0 0 4 18 861
2020-07-12 01:30 1.42 65 1070 (2015) 0 (2011) 101 0 0 0 0 4 18 861
2020-07-12 00:30 1.42 65 1070 (2015) 0 (2011) 101 0 0 0 0 4 18 861
2020-07-11 23:30 1.43 67 2570 (2015) 0 (2011) 240 0 0 0 0 6 39 2070
2020-07-11 22:30 1.43 67 2570 (2015) 0 (2011) 240 0 0 0 0 6 39 2070
2020-07-11 21:30 1.43 67 2570 (2015) 0 (2011) 240 0 0 0 0 6 39 2070
2020-07-11 20:30 1.43 67 2570 (2015) 0 (2011) 240 0 0 0 0 6 39 2070
2020-07-11 19:30 1.43 67 2570 (2015) 0 (2011) 240 0 0 0 0 6 39 2070
2020-07-11 18:30 1.44 68 2570 (2015) 0 (2011) 240 0 0 0 0 6 39 2070
2020-07-11 17:30 1.44 68 2570 (2015) 0 (2011) 240 0 0 0 0 6 39 2070
2020-07-11 16:30 1.45 70 2570 (2015) 0 (2011) 240 0 0 0 0 6 39 2070
2020-07-11 15:30 1.46 71 2570 (2015) 0 (2011) 240 0 0 0 0 6 39 2070
2020-07-11 14:30 1.45 70 2570 (2015) 0 (2011) 240 0 0 0 0 6 39 2070
2020-07-11 13:30 1.45 70 2570 (2015) 0 (2011) 240 0 0 0 0 6 39 2070
2020-07-11 12:30 1.44 68 2570 (2015) 0 (2011) 240 0 0 0 0 6 39 2070
2020-07-11 11:30 1.44 68 2570 (2015) 0 (2011) 240 0 0 0 0 6 39 2070
2020-07-11 10:30 1.44 68 2570 (2015) 0 (2011) 240 0 0 0 0 6 39 2070
2020-07-11 09:30 1.43 67 2570 (2015) 0 (2011) 240 0 0 0 0 6 39 2070
2020-07-11 08:30 1.43 67 2570 (2015) 0 (2011) 240 0 0 0 0 6 39 2070
2020-07-11 07:30 1.42 65 2570 (2015) 0 (2011) 240 0 0 0 0 6 39 2070
2020-07-11 06:30 1.43 67 2570 (2015) 0 (2011) 240 0 0 0 0 6 39 2070
2020-07-11 05:30 1.42 65 2570 (2015) 0 (2011) 240 0 0 0 0 6 39 2070
2020-07-11 04:30 1.42 65 2570 (2015) 0 (2011) 240 0 0 0 0 6 39 2070
2020-07-11 03:30 1.42 65 2570 (2015) 0 (2011) 240 0 0 0 0 6 39 2070
2020-07-11 02:30 1.42 65 2570 (2015) 0 (2011) 240 0 0 0 0 6 39 2070
2020-07-11 01:30 1.42 65 2570 (2015) 0 (2011) 240 0 0 0 0 6 39 2070
2020-07-11 00:30 1.42 65 2570 (2015) 0 (2011) 240 0 0 0 0 6 39 2070
2020-07-10 23:30 1.42 65 3710 (2015) 0 (2012) 346 0 0 0 0 14 53 2980
2020-07-10 22:30 1.43 67 3710 (2015) 0 (2012) 346 0 0 0 0 14 53 2980
2020-07-10 21:30 1.43 67 3710 (2015) 0 (2012) 346 0 0 0 0 14 53 2980
2020-07-10 20:30 1.44 68 3710 (2015) 0 (2012) 346 0 0 0 0 14 53 2980
2020-07-10 19:30 1.44 68 3710 (2015) 0 (2012) 346 0 0 0 0 14 53 2980
2020-07-10 18:30 1.44 68 3710 (2015) 0 (2012) 346 0 0 0 0 14 53 2980
2020-07-10 17:30 1.45 70 3710 (2015) 0 (2012) 346 0 0 0 0 14 53 2980
2020-07-10 16:30 1.46 71 3710 (2015) 0 (2012) 346 0 0 0 0 14 53 2980
2020-07-10 15:30 1.46 71 3710 (2015) 0 (2012) 346 0 0 0 0 14 53 2980
2020-07-10 14:30 1.45 70 3710 (2015) 0 (2012) 346 0 0 0 0 14 53 2980
2020-07-10 13:30 1.44 68 3710 (2015) 0 (2012) 346 0 0 0 0 14 53 2980
2020-07-10 12:30 1.45 70 3710 (2015) 0 (2012) 346 0 0 0 0 14 53 2980
2020-07-10 11:30 1.45 70 3710 (2015) 0 (2012) 346 0 0 0 0 14 53 2980
2020-07-10 10:30 1.45 70 3710 (2015) 0 (2012) 346 0 0 0 0 14 53 2980
2020-07-10 09:30 1.45 70 3710 (2015) 0 (2012) 346 0 0 0 0 14 53 2980
2020-07-10 08:30 1.46 71 3710 (2015) 0 (2012) 346 0 0 0 0 14 53 2980
2020-07-10 07:30 1.45 70 3710 (2015) 0 (2012) 346 0 0 0 0 14 53 2980
2020-07-10 06:30 1.45 70 3710 (2015) 0 (2012) 346 0 0 0 0 14 53 2980
2020-07-10 05:30 1.45 70 3710 (2015) 0 (2012) 346 0 0 0 0 14 53 2980
2020-07-10 04:30 1.44 68 3710 (2015) 0 (2012) 346 0 0 0 0 14 53 2980
2020-07-10 03:30 1.44 68 3710 (2015) 0 (2012) 346 0 0 0 0 14 53 2980
2020-07-10 02:30 1.43 67 3710 (2015) 0 (2012) 346 0 0 0 0 14 53 2980
2020-07-10 01:30 1.43 67 3710 (2015) 0 (2012) 346 0 0 0 0 14 53 2980
2020-07-10 00:30 1.44 68 3710 (2015) 0 (2012) 346 0 0 0 0 14 53 2980
2020-07-09 23:30 1.44 68 2240 (2015) 0 (2012) 210 0 0 0 0 30 33 1800
2020-07-09 22:30 1.45 70 2240 (2015) 0 (2012) 210 0 0 0 0 30 33 1800
2020-07-09 21:30 1.46 71 2240 (2015) 0 (2012) 210 0 0 0 0 30 33 1800
2020-07-09 20:30 1.46 71 2240 (2015) 0 (2012) 210 0 0 0 0 30 33 1800
2020-07-09 19:30 1.46 71 2240 (2015) 0 (2012) 210 0 0 0 0 30 33 1800
2020-07-09 18:30 1.47 72 2240 (2015) 0 (2012) 210 0 0 0 0 30 33 1800
2020-07-09 17:30 1.47 72 2240 (2015) 0 (2012) 210 0 0 0 0 30 33 1800
2020-07-09 16:30 1.48 74 2240 (2015) 0 (2012) 210 0 0 0 0 30 33 1800
2020-07-09 15:30 1.49 75 2240 (2015) 0 (2012) 210 0 0 0 0 30 33 1800
2020-07-09 14:30 1.49 75 2240 (2015) 0 (2012) 210 0 0 0 0 30 33 1800
2020-07-09 13:30 1.50 77 2240 (2015) 0 (2012) 210 0 0 0 0 30 33 1800
2020-07-09 12:30 1.50 77 2240 (2015) 0 (2012) 210 0 0 0 0 30 33 1800
2020-07-09 11:30 1.50 77 2240 (2015) 0 (2012) 210 0 0 0 0 30 33 1800
2020-07-09 10:30 1.51 78 2240 (2015) 0 (2012) 210 0 0 0 0 30 33 1800
2020-07-09 09:30 1.52 80 2240 (2015) 0 (2012) 210 0 0 0 0 30 33 1800
2020-07-09 08:30 1.50 77 2240 (2015) 0 (2012) 210 0 0 0 0 30 33 1800
2020-07-09 07:30 1.49 75 2240 (2015) 0 (2012) 210 0 0 0 0 30 33 1800
2020-07-09 06:30 1.48 74 2240 (2015) 0 (2012) 210 0 0 0 0 30 33 1800
2020-07-09 05:30 1.48 74 2240 (2015) 0 (2012) 210 0 0 0 0 30 33 1800
2020-07-09 04:30 1.48 74 2240 (2015) 0 (2012) 210 0 0 0 0 30 33 1800
2020-07-09 03:30 1.49 75 2240 (2015) 0 (2012) 210 0 0 0 0 30 33 1800
2020-07-09 02:30 1.49 75 2240 (2015) 0 (2012) 210 0 0 0 0 30 33 1800
2020-07-09 01:30 1.50 77 2240 (2015) 0 (2012) 210 0 0 0 0 30 33 1800
2020-07-09 00:30 1.49 75 2240 (2015) 0 (2012) 210 0 0 0 0 30 33 1800
2020-07-08 23:30 1.50 77 3030 (2015) 0 (2011) 281 0 0 0 0 6 34 2430
2020-07-08 22:30 1.49 75 3030 (2015) 0 (2011) 281 0 0 0 0 6 34 2430
2020-07-08 21:30 1.50 77 3030 (2015) 0 (2011) 281 0 0 0 0 6 34 2430
2020-07-08 20:30 1.50 77 3030 (2015) 0 (2011) 281 0 0 0 0 6 34 2430
2020-07-08 19:30 1.50 77 3030 (2015) 0 (2011) 281 0 0 0 0 6 34 2430
2020-07-08 18:30 1.51 78 3030 (2015) 0 (2011) 281 0 0 0 0 6 34 2430
2020-07-08 17:30 1.52 80 3030 (2015) 0 (2011) 281 0 0 0 0 6 34 2430
2020-07-08 16:30 1.51 78 3030 (2015) 0 (2011) 281 0 0 0 0 6 34 2430
2020-07-08 15:30 1.50 77 3030 (2015) 0 (2011) 281 0 0 0 0 6 34 2430
2020-07-08 14:30 1.52 80 3030 (2015) 0 (2011) 281 0 0 0 0 6 34 2430
2020-07-08 13:30 1.51 78 3030 (2015) 0 (2011) 281 0 0 0 0 6 34 2430
2020-07-08 12:30 1.51 78 3030 (2015) 0 (2011) 281 0 0 0 0 6 34 2430
2020-07-08 11:30 1.49 75 3030 (2015) 0 (2011) 281 0 0 0 0 6 34 2430
2020-07-08 10:30 1.46 71 3030 (2015) 0 (2011) 281 0 0 0 0 6 34 2430
2020-07-08 09:30 1.43 67 3030 (2015) 0 (2011) 281 0 0 0 0 6 34 2430
2020-07-08 08:30 1.42 65 3030 (2015) 0 (2011) 281 0 0 0 0 6 34 2430
2020-07-08 07:30 1.41 64 3030 (2015) 0 (2011) 281 0 0 0 0 6 34 2430
2020-07-08 06:30 1.41 64 3030 (2015) 0 (2011) 281 0 0 0 0 6 34 2430
2020-07-08 05:30 1.42 65 3030 (2015) 0 (2011) 281 0 0 0 0 6 34 2430
2020-07-08 04:30 1.42 65 3030 (2015) 0 (2011) 281 0 0 0 0 6 34 2430
2020-07-08 03:30 1.42 65 3030 (2015) 0 (2011) 281 0 0 0 0 6 34 2430
2020-07-08 02:30 1.43 67 3030 (2015) 0 (2011) 281 0 0 0 0 6 34 2430
2020-07-08 01:30 1.44 68 3030 (2015) 0 (2011) 281 0 0 0 0 6 34 2430
2020-07-08 00:30 1.43 67 3030 (2015) 0 (2011) 281 0 0 0 0 6 34 2430
2020-07-07 23:30 1.43 67 3580 (2015) 0 (2011) 332 0 0 0 1 5 42 2880
2020-07-07 22:30 1.45 70 3580 (2015) 0 (2011) 332 0 0 0 1 5 42 2880
2020-07-07 21:30 1.46 71 3580 (2015) 0 (2011) 332 0 0 0 1 5 42 2880
2020-07-07 20:30 1.48 74 3580 (2015) 0 (2011) 332 0 0 0 1 5 42 2880
2020-07-07 19:30 1.49 75 3580 (2015) 0 (2011) 332 0 0 0 1 5 42 2880
2020-07-07 18:30 1.47 72 3580 (2015) 0 (2011) 332 0 0 0 1 5 42 2880
2020-07-07 17:30 1.45 70 3580 (2015) 0 (2011) 332 0 0 0 1 5 42 2880
2020-07-07 16:30 1.50 77 3580 (2015) 0 (2011) 332 0 0 0 1 5 42 2880
2020-07-07 15:30 1.42 65 3580 (2015) 0 (2011) 332 0 0 0 1 5 42 2880
2020-07-07 14:30 1.41 64 3580 (2015) 0 (2011) 332 0 0 0 1 5 42 2880
2020-07-07 13:30 1.42 65 3580 (2015) 0 (2011) 332 0 0 0 1 5 42 2880
2020-07-07 12:30 1.42 65 3580 (2015) 0 (2011) 332 0 0 0 1 5 42 2880
2020-07-07 11:30 1.42 65 3580 (2015) 0 (2011) 332 0 0 0 1 5 42 2880
2020-07-07 10:30 1.42 65 3580 (2015) 0 (2011) 332 0 0 0 1 5 42 2880
2020-07-07 09:30 1.43 67 3580 (2015) 0 (2011) 332 0 0 0 1 5 42 2880
2020-07-07 08:30 1.42 65 3580 (2015) 0 (2011) 332 0 0 0 1 5 42 2880
2020-07-07 07:30 1.43 67 3580 (2015) 0 (2011) 332 0 0 0 1 5 42 2880
2020-07-07 06:30 1.42 65 3580 (2015) 0 (2011) 332 0 0 0 1 5 42 2880
2020-07-07 05:30 1.42 65 3580 (2015) 0 (2011) 332 0 0 0 1 5 42 2880
2020-07-07 04:30 1.42 65 3580 (2015) 0 (2011) 332 0 0 0 1 5 42 2880
2020-07-07 03:30 1.42 65 3580 (2015) 0 (2011) 332 0 0 0 1 5 42 2880
2020-07-07 02:30 1.41 64 3580 (2015) 0 (2011) 332 0 0 0 1 5 42 2880
2020-07-07 01:30 1.41 64 3580 (2015) 0 (2011) 332 0 0 0 1 5 42 2880
2020-07-07 00:30 1.41 64 3580 (2015) 0 (2011) 332 0 0 0 1 5 42 2880
2020-07-06 23:30 1.40 63 230 (2015) 0 (2011) 33 0 0 0 1 5 76 209
2020-07-06 22:30 1.40 63 230 (2015) 0 (2011) 33 0 0 0 1 5 76 209
2020-07-06 21:30 1.41 64 230 (2015) 0 (2011) 33 0 0 0 1 5 76 209
2020-07-06 20:30 1.41 64 230 (2015) 0 (2011) 33 0 0 0 1 5 76 209
2020-07-06 19:30 1.40 63 230 (2015) 0 (2011) 33 0 0 0 1 5 76 209
2020-07-06 18:30 1.40 63 230 (2015) 0 (2011) 33 0 0 0 1 5 76 209
2020-07-06 17:30 1.41 64 230 (2015) 0 (2011) 33 0 0 0 1 5 76 209
2020-07-06 16:30 1.42 65 230 (2015) 0 (2011) 33 0 0 0 1 5 76 209
2020-07-06 15:30 1.46 71 230 (2015) 0 (2011) 33 0 0 0 1 5 76 209
2020-07-06 14:30 1.46 71 230 (2015) 0 (2011) 33 0 0 0 1 5 76 209
2020-07-06 13:30 1.46 71 230 (2015) 0 (2011) 33 0 0 0 1 5 76 209
2020-07-06 12:30 1.45 70 230 (2015) 0 (2011) 33 0 0 0 1 5 76 209
2020-07-06 11:30 1.45 70 230 (2015) 0 (2011) 33 0 0 0 1 5 76 209
2020-07-06 10:30 1.46 71 230 (2015) 0 (2011) 33 0 0 0 1 5 76 209
2020-07-06 09:30 1.47 72 230 (2015) 0 (2011) 33 0 0 0 1 5 76 209
2020-07-06 08:30 1.45 70 230 (2015) 0 (2011) 33 0 0 0 1 5 76 209
2020-07-06 07:30 1.44 68 230 (2015) 0 (2011) 33 0 0 0 1 5 76 209
2020-07-06 06:30 1.44 68 230 (2015) 0 (2011) 33 0 0 0 1 5 76 209
2020-07-06 05:30 1.44 68 230 (2015) 0 (2011) 33 0 0 0 1 5 76 209
2020-07-06 04:30 1.44 68 230 (2015) 0 (2011) 33 0 0 0 1 5 76 209
2020-07-06 03:30 1.44 68 230 (2015) 0 (2011) 33 0 0 0 1 5 76 209
2020-07-06 02:30 1.43 67 230 (2015) 0 (2011) 33 0 0 0 1 5 76 209
2020-07-06 01:30 1.43 67 230 (2015) 0 (2011) 33 0 0 0 1 5 76 209
2020-07-06 00:30 1.43 67 230 (2015) 0 (2011) 33 0 0 0 1 5 76 209
2020-07-05 23:30 1.44 68 572 (2016) 0 (2012) 96 0 0 0 1 5 287 553
2020-07-05 22:30 1.44 68 572 (2016) 0 (2012) 96 0 0 0 1 5 287 553
2020-07-05 21:30 1.45 70 572 (2016) 0 (2012) 96 0 0 0 1 5 287 553
2020-07-05 20:30 1.45 70 572 (2016) 0 (2012) 96 0 0 0 1 5 287 553
2020-07-05 19:30 1.46 71 572 (2016) 0 (2012) 96 0 0 0 1 5 287 553
2020-07-05 18:30 1.47 72 572 (2016) 0 (2012) 96 0 0 0 1 5 287 553
2020-07-05 17:30 1.57 88 572 (2016) 0 (2012) 96 0 0 0 1 5 287 553
2020-07-05 16:30 1.57 88 572 (2016) 0 (2012) 96 0 0 0 1 5 287 553
2020-07-05 15:30 1.55 85 572 (2016) 0 (2012) 96 0 0 0 1 5 287 553
2020-07-05 14:30 1.52 80 572 (2016) 0 (2012) 96 0 0 0 1 5 287 553
2020-07-05 13:30 1.52 80 572 (2016) 0 (2012) 96 0 0 0 1 5 287 553
2020-07-05 12:30 1.51 78 572 (2016) 0 (2012) 96 0 0 0 1 5 287 553
2020-07-05 11:30 1.50 77 572 (2016) 0 (2012) 96 0 0 0 1 5 287 553
2020-07-05 10:30 1.49 75 572 (2016) 0 (2012) 96 0 0 0 1 5 287 553
2020-07-05 09:30 1.49 75 572 (2016) 0 (2012) 96 0 0 0 1 5 287 553
2020-07-05 08:30 1.48 74 572 (2016) 0 (2012) 96 0 0 0 1 5 287 553
2020-07-05 07:30 1.49 75 572 (2016) 0 (2012) 96 0 0 0 1 5 287 553
2020-07-05 06:30 1.49 75 572 (2016) 0 (2012) 96 0 0 0 1 5 287 553
2020-07-05 05:30 1.49 75 572 (2016) 0 (2012) 96 0 0 0 1 5 287 553
2020-07-05 04:30 1.48 74 572 (2016) 0 (2012) 96 0 0 0 1 5 287 553
2020-07-05 03:30 1.50 77 572 (2016) 0 (2012) 96 0 0 0 1 5 287 553
2020-07-05 02:30 1.49 75 572 (2016) 0 (2012) 96 0 0 0 1 5 287 553
2020-07-05 01:30 1.50 77 572 (2016) 0 (2012) 96 0 0 0 1 5 287 553
2020-07-05 00:30 1.49 75 572 (2016) 0 (2012) 96 0 0 0 1 5 287 553
2020-07-04 23:30 1.50 77 954 (2015) 0 (2012) 88 0 0 0 1 5 6 765
2020-07-04 22:30 1.50 77 954 (2015) 0 (2012) 88 0 0 0 1 5 6 765
2020-07-04 21:30 1.49 75 954 (2015) 0 (2012) 88 0 0 0 1 5 6 765
2020-07-04 20:30 1.50 77 954 (2015) 0 (2012) 88 0 0 0 1 5 6 765
2020-07-04 19:30 1.50 77 954 (2015) 0 (2012) 88 0 0 0 1 5 6 765
2020-07-04 18:30 1.48 74 954 (2015) 0 (2012) 88 0 0 0 1 5 6 765
2020-07-04 17:30 1.48 74 954 (2015) 0 (2012) 88 0 0 0 1 5 6 765
2020-07-04 16:30 1.48 74 954 (2015) 0 (2012) 88 0 0 0 1 5 6 765
2020-07-04 15:30 1.47 72 954 (2015) 0 (2012) 88 0 0 0 1 5 6 765
2020-07-04 14:30 1.48 74 954 (2015) 0 (2012) 88 0 0 0 1 5 6 765
2020-07-04 13:30 1.47 72 954 (2015) 0 (2012) 88 0 0 0 1 5 6 765
2020-07-04 12:30 1.50 77 954 (2015) 0 (2012) 88 0 0 0 1 5 6 765
2020-07-04 11:30 1.48 74 954 (2015) 0 (2012) 88 0 0 0 1 5 6 765
2020-07-04 10:30 1.47 72 954 (2015) 0 (2012) 88 0 0 0 1 5 6 765
2020-07-04 09:30 1.48 74 954 (2015) 0 (2012) 88 0 0 0 1 5 6 765
2020-07-04 08:30 1.48 74 954 (2015) 0 (2012) 88 0 0 0 1 5 6 765
2020-07-04 07:30 1.49 75 954 (2015) 0 (2012) 88 0 0 0 1 5 6 765
2020-07-04 06:30 1.49 75 954 (2015) 0 (2012) 88 0 0 0 1 5 6 765
2020-07-04 05:30 1.50 77 954 (2015) 0 (2012) 88 0 0 0 1 5 6 765
2020-07-04 04:30 1.49 75 954 (2015) 0 (2012) 88 0 0 0 1 5 6 765
2020-07-04 03:30 1.49 75 954 (2015) 0 (2012) 88 0 0 0 1 5 6 765
2020-07-04 02:30 1.50 77 954 (2015) 0 (2012) 88 0 0 0 1 5 6 765
2020-07-04 01:30 1.50 77 954 (2015) 0 (2012) 88 0 0 0 1 5 6 765
2020-07-04 00:30 1.50 77 954 (2015) 0 (2012) 88 0 0 0 1 5 6 765
2020-07-03 23:30 1.50 77 2030 (2015) 0 (2012) 186 0 0 0 0 4 5 1630
2020-07-03 22:30 1.50 77 2030 (2015) 0 (2012) 186 0 0 0 0 4 5 1630
2020-07-03 21:30 1.50 77 2030 (2015) 0 (2012) 186 0 0 0 0 4 5 1630
2020-07-03 20:30 1.40 63 2030 (2015) 0 (2012) 186 0 0 0 0 4 5 1630
2020-07-03 19:30 1.36 58 2030 (2015) 0 (2012) 186 0 0 0 0 4 5 1630
2020-07-03 18:30 1.35 56 2030 (2015) 0 (2012) 186 0 0 0 0 4 5 1630
2020-07-03 17:30 1.32 53 2030 (2015) 0 (2012) 186 0 0 0 0 4 5 1630
2020-07-03 16:30 1.34 55 2030 (2015) 0 (2012) 186 0 0 0 0 4 5 1630
2020-07-03 15:30 1.48 74 2030 (2015) 0 (2012) 186 0 0 0 0 4 5 1630
2020-07-03 14:30 1.49 75 2030 (2015) 0 (2012) 186 0 0 0 0 4 5 1630
2020-07-03 13:30 1.47 72 2030 (2015) 0 (2012) 186 0 0 0 0 4 5 1630
2020-07-03 12:30 1.52 80 2030 (2015) 0 (2012) 186 0 0 0 0 4 5 1630
2020-07-03 11:30 1.10 31 2030 (2015) 0 (2012) 186 0 0 0 0 4 5 1630
2020-07-03 10:30 1.13 34 2030 (2015) 0 (2012) 186 0 0 0 0 4 5 1630
2020-07-03 09:30 1.13 34 2030 (2015) 0 (2012) 186 0 0 0 0 4 5 1630
2020-07-03 08:30 1.19 39 2030 (2015) 0 (2012) 186 0 0 0 0 4 5 1630
2020-07-03 07:30 1.27 47 2030 (2015) 0 (2012) 186 0 0 0 0 4 5 1630
2020-07-03 06:30 1.29 49 2030 (2015) 0 (2012) 186 0 0 0 0 4 5 1630
2020-07-03 05:30 1.28 48 2030 (2015) 0 (2012) 186 0 0 0 0 4 5 1630
2020-07-03 04:30 1.34 55 2030 (2015) 0 (2012) 186 0 0 0 0 4 5 1630
2020-07-03 03:30 1.33 54 2030 (2015) 0 (2012) 186 0 0 0 0 4 5 1630
2020-07-03 02:30 1.45 70 2030 (2015) 0 (2012) 186 0 0 0 0 4 5 1630
2020-07-03 01:30 1.41 64 2030 (2015) 0 (2012) 186 0 0 0 0 4 5 1630
2020-07-03 00:30 1.47 72 2030 (2015) 0 (2012) 186 0 0 0 0 4 5 1630
2020-07-02 23:30 1.30 50 4440 (2015) 0 (2012) 405 0 0 0 0 3 4 3550
2020-07-02 22:30 1.27 47 4440 (2015) 0 (2012) 405 0 0 0 0 3 4 3550
2020-07-02 21:30 1.30 50 4440 (2015) 0 (2012) 405 0 0 0 0 3 4 3550
2020-07-02 20:30 1.09 30 4440 (2015) 0 (2012) 405 0 0 0 0 3 4 3550
2020-07-02 19:30 1.13 34 4440 (2015) 0 (2012) 405 0 0 0 0 3 4 3550
2020-07-02 18:30 1.14 34 4440 (2015) 0 (2012) 405 0 0 0 0 3 4 3550
2020-07-02 17:30 1.13 34 4440 (2015) 0 (2012) 405 0 0 0 0 3 4 3550
2020-07-02 16:30 1.09 30 4440 (2015) 0 (2012) 405 0 0 0 0 3 4 3550
2020-07-02 15:30 1.12 33 4440 (2015) 0 (2012) 405 0 0 0 0 3 4 3550
2020-07-02 14:30 1.45 70 4440 (2015) 0 (2012) 405 0 0 0 0 3 4 3550
2020-07-02 13:30 1.46 71 4440 (2015) 0 (2012) 405 0 0 0 0 3 4 3550
2020-07-02 12:30 1.47 72 4440 (2015) 0 (2012) 405 0 0 0 0 3 4 3550
2020-07-02 11:30 1.48 74 4440 (2015) 0 (2012) 405 0 0 0 0 3 4 3550
2020-07-02 10:30 1.46 71 4440 (2015) 0 (2012) 405 0 0 0 0 3 4 3550
2020-07-02 09:30 1.50 77 4440 (2015) 0 (2012) 405 0 0 0 0 3 4 3550
2020-07-02 08:30 1.54 83 4440 (2015) 0 (2012) 405 0 0 0 0 3 4 3550
2020-07-02 07:30 1.58 90 4440 (2015) 0 (2012) 405 0 0 0 0 3 4 3550
2020-07-02 06:30 1.57 88 4440 (2015) 0 (2012) 405 0 0 0 0 3 4 3550
2020-07-02 05:30 1.56 86 4440 (2015) 0 (2012) 405 0 0 0 0 3 4 3550
2020-07-02 04:30 1.55 85 4440 (2015) 0 (2012) 405 0 0 0 0 3 4 3550
2020-07-02 03:30 1.55 85 4440 (2015) 0 (2012) 405 0 0 0 0 3 4 3550
2020-07-02 02:30 1.57 88 4440 (2015) 0 (2012) 405 0 0 0 0 3 4 3550
2020-07-02 01:30 1.55 85 4440 (2015) 0 (2012) 405 0 0 0 0 3 4 3550
2020-07-02 00:30 1.56 86 4440 (2015) 0 (2012) 405 0 0 0 0 3 4 3550
2020-07-01 23:30 1.54 83 1120 (2015) 0 (2012) 103 0 0 0 0 3 5 897
2020-07-01 22:30 1.54 83 1120 (2015) 0 (2012) 103 0 0 0 0 3 5 897
2020-07-01 21:30 1.52 80 1120 (2015) 0 (2012) 103 0 0 0 0 3 5 897
2020-07-01 20:30 1.52 80 1120 (2015) 0 (2012) 103 0 0 0 0 3 5 897
2020-07-01 19:30 1.52 80 1120 (2015) 0 (2012) 103 0 0 0 0 3 5 897
2020-07-01 18:30 1.53 82 1120 (2015) 0 (2012) 103 0 0 0 0 3 5 897
2020-07-01 17:30 1.58 90 1120 (2015) 0 (2012) 103 0 0 0 0 3 5 897
2020-07-01 16:30 1.57 88 1120 (2015) 0 (2012) 103 0 0 0 0 3 5 897
2020-07-01 15:30 1.72 116 1120 (2015) 0 (2012) 103 0 0 0 0 3 5 897
2020-07-01 14:30 1.03 26 1120 (2015) 0 (2012) 103 0 0 0 0 3 5 897
2020-07-01 13:30 1.02 25 1120 (2015) 0 (2012) 103 0 0 0 0 3 5 897
2020-07-01 12:30 1.03 26 1120 (2015) 0 (2012) 103 0 0 0 0 3 5 897
2020-07-01 11:30 0.98 22 1120 (2015) 0 (2012) 103 0 0 0 0 3 5 897
2020-07-01 10:30 1.06 28 1120 (2015) 0 (2012) 103 0 0 0 0 3 5 897
2020-07-01 09:30 0.91 18 1120 (2015) 0 (2012) 103 0 0 0 0 3 5 897
2020-07-01 08:30 1.39 61 1120 (2015) 0 (2012) 103 0 0 0 0 3 5 897
2020-07-01 07:30 1.40 63 1120 (2015) 0 (2012) 103 0 0 0 0 3 5 897
2020-07-01 06:30 1.41 64 1120 (2015) 0 (2012) 103 0 0 0 0 3 5 897
2020-07-01 05:30 1.40 63 1120 (2015) 0 (2012) 103 0 0 0 0 3 5 897
2020-07-01 04:30 1.40 63 1120 (2015) 0 (2012) 103 0 0 0 0 3 5 897
2020-07-01 03:30 1.39 61 1120 (2015) 0 (2012) 103 0 0 0 0 3 5 897
2020-07-01 02:30 1.39 61 1120 (2015) 0 (2012) 103 0 0 0 0 3 5 897
2020-07-01 01:30 1.39 61 1120 (2015) 0 (2012) 103 0 0 0 0 3 5 897
2020-07-01 00:30 1.39 61 1120 (2015) 0 (2012) 103 0 0 0 0 3 5 897
2020-06-30 23:30 1.39 61 40 (2015) 0 (2012) 5 0 0 0 0 3 5 33
2020-06-30 22:30 1.39 61 40 (2015) 0 (2012) 5 0 0 0 0 3 5 33
2020-06-30 21:30 1.39 61 40 (2015) 0 (2012) 5 0 0 0 0 3 5 33
2020-06-30 20:30 1.39 61 40 (2015) 0 (2012) 5 0 0 0 0 3 5 33
2020-06-30 19:30 1.38 60 40 (2015) 0 (2012) 5 0 0 0 0 3 5 33
2020-06-30 18:30 1.38 60 40 (2015) 0 (2012) 5 0 0 0 0 3 5 33
2020-06-30 17:30 1.39 61 40 (2015) 0 (2012) 5 0 0 0 0 3 5 33
2020-06-30 16:30 1.39 61 40 (2015) 0 (2012) 5 0 0 0 0 3 5 33
2020-06-30 15:30 1.40 63 40 (2015) 0 (2012) 5 0 0 0 0 3 5 33
2020-06-30 14:30 1.40 63 40 (2015) 0 (2012) 5 0 0 0 0 3 5 33
2020-06-30 13:30 1.41 64 40 (2015) 0 (2012) 5 0 0 0 0 3 5 33
2020-06-30 12:30 1.40 63 40 (2015) 0 (2012) 5 0 0 0 0 3 5 33
2020-06-30 11:30 1.40 63 40 (2015) 0 (2012) 5 0 0 0 0 3 5 33
2020-06-30 10:30 1.40 63 40 (2015) 0 (2012) 5 0 0 0 0 3 5 33
2020-06-30 09:30 1.39 61 40 (2015) 0 (2012) 5 0 0 0 0 3 5 33
2020-06-30 08:30 1.39 61 40 (2015) 0 (2012) 5 0 0 0 0 3 5 33
2020-06-30 07:30 1.41 64 40 (2015) 0 (2012) 5 0 0 0 0 3 5 33
2020-06-30 06:30 1.39 61 40 (2015) 0 (2012) 5 0 0 0 0 3 5 33
2020-06-30 05:30 1.41 64 40 (2015) 0 (2012) 5 0 0 0 0 3 5 33
2020-06-30 04:30 1.40 63 40 (2015) 0 (2012) 5 0 0 0 0 3 5 33
2020-06-30 03:30 1.40 63 40 (2015) 0 (2012) 5 0 0 0 0 3 5 33
2020-06-30 02:30 1.40 63 40 (2015) 0 (2012) 5 0 0 0 0 3 5 33
2020-06-30 01:30 1.41 64 40 (2015) 0 (2012) 5 0 0 0 0 3 5 33
2020-06-30 00:30 1.40 63 40 (2015) 0 (2012) 5 0 0 0 0 3 5 33
2020-06-29 23:30 1.40 63 47 (2015) 0 (2012) 6 0 0 0 1 4 7 39
2020-06-29 22:30 1.40 63 47 (2015) 0 (2012) 6 0 0 0 1 4 7 39
2020-06-29 21:30 1.40 63 47 (2015) 0 (2012) 6 0 0 0 1 4 7 39
2020-06-29 20:30 1.40 63 47 (2015) 0 (2012) 6 0 0 0 1 4 7 39
2020-06-29 19:30 1.40 63 47 (2015) 0 (2012) 6 0 0 0 1 4 7 39
2020-06-29 18:30 1.40 63 47 (2015) 0 (2012) 6 0 0 0 1 4 7 39
2020-06-29 17:30 1.41 64 47 (2015) 0 (2012) 6 0 0 0 1 4 7 39
2020-06-29 16:30 1.40 63 47 (2015) 0 (2012) 6 0 0 0 1 4 7 39
2020-06-29 15:30 1.39 61 47 (2015) 0 (2012) 6 0 0 0 1 4 7 39
2020-06-29 14:30 1.40 63 47 (2015) 0 (2012) 6 0 0 0 1 4 7 39
2020-06-29 13:30 1.40 63 47 (2015) 0 (2012) 6 0 0 0 1 4 7 39
2020-06-29 12:30 1.40 63 47 (2015) 0 (2012) 6 0 0 0 1 4 7 39
2020-06-29 11:30 1.40 63 47 (2015) 0 (2012) 6 0 0 0 1 4 7 39
2020-06-29 10:30 1.39 61 47 (2015) 0 (2012) 6 0 0 0 1 4 7 39
2020-06-29 09:30 1.40 63 47 (2015) 0 (2012) 6 0 0 0 1 4 7 39
2020-06-29 08:30 1.40 63 47 (2015) 0 (2012) 6 0 0 0 1 4 7 39
2020-06-29 07:30 1.40 63 47 (2015) 0 (2012) 6 0 0 0 1 4 7 39
2020-06-29 06:30 1.41 64 47 (2015) 0 (2012) 6 0 0 0 1 4 7 39
2020-06-29 05:30 1.40 63 47 (2015) 0 (2012) 6 0 0 0 1 4 7 39
2020-06-29 04:30 1.40 63 47 (2015) 0 (2012) 6 0 0 0 1 4 7 39
2020-06-29 03:30 1.40 63 47 (2015) 0 (2012) 6 0 0 0 1 4 7 39
2020-06-29 02:30 1.40 63 47 (2015) 0 (2012) 6 0 0 0 1 4 7 39
2020-06-29 01:30 1.40 63 47 (2015) 0 (2012) 6 0 0 0 1 4 7 39
2020-06-29 00:30 1.39 61 47 (2015) 0 (2012) 6 0 0 0 1 4 7 39
2020-06-28 23:30 1.39 61 67 (2015) 0 (2012) 9 0 0 0 2 7 13 57
2020-06-28 22:30 1.39 61 67 (2015) 0 (2012) 9 0 0 0 2 7 13 57
2020-06-28 21:30 1.40 63 67 (2015) 0 (2012) 9 0 0 0 2 7 13 57
2020-06-28 20:30 1.39 61 67 (2015) 0 (2012) 9 0 0 0 2 7 13 57
2020-06-28 19:30 1.40 63 67 (2015) 0 (2012) 9 0 0 0 2 7 13 57
2020-06-28 18:30 1.39 61 67 (2015) 0 (2012) 9 0 0 0 2 7 13 57
2020-06-28 17:30 1.39 61 67 (2015) 0 (2012) 9 0 0 0 2 7 13 57
2020-06-28 16:30 1.40 63 67 (2015) 0 (2012) 9 0 0 0 2 7 13 57
2020-06-28 15:30 1.41 64 67 (2015) 0 (2012) 9 0 0 0 2 7 13 57
2020-06-28 14:30 1.41 64 67 (2015) 0 (2012) 9 0 0 0 2 7 13 57
2020-06-28 13:30 1.51 78 67 (2015) 0 (2012) 9 0 0 0 2 7 13 57
2020-06-28 12:30 1.25 45 67 (2015) 0 (2012) 9 0 0 0 2 7 13 57
2020-06-28 11:30 1.54 83 67 (2015) 0 (2012) 9 0 0 0 2 7 13 57
2020-06-28 10:30 1.81 135 67 (2015) 0 (2012) 9 0 0 0 2 7 13 57
2020-06-28 09:30 1.88 152 67 (2015) 0 (2012) 9 0 0 0 2 7 13 57
2020-06-28 08:30 1.79 131 67 (2015) 0 (2012) 9 0 0 0 2 7 13 57
2020-06-28 07:30 1.77 126 67 (2015) 0 (2012) 9 0 0 0 2 7 13 57
2020-06-28 06:30 1.78 129 67 (2015) 0 (2012) 9 0 0 0 2 7 13 57
2020-06-28 05:30 1.78 129 67 (2015) 0 (2012) 9 0 0 0 2 7 13 57
2020-06-28 04:30 1.79 131 67 (2015) 0 (2012) 9 0 0 0 2 7 13 57
2020-06-28 03:30 1.80 133 67 (2015) 0 (2012) 9 0 0 0 2 7 13 57
2020-06-28 02:30 1.80 133 67 (2015) 0 (2012) 9 0 0 0 2 7 13 57
2020-06-28 01:30 1.79 131 67 (2015) 0 (2012) 9 0 0 0 2 7 13 57
2020-06-28 00:30 1.80 133 67 (2015) 0 (2012) 9 0 0 0 2 7 13 57
2020-06-27 23:30 1.79 131 102 (2015) 0 (2012) 14 0 0 0 1 4 24 89
2020-06-27 22:30 1.79 131 102 (2015) 0 (2012) 14 0 0 0 1 4 24 89
2020-06-27 21:30 1.79 131 102 (2015) 0 (2012) 14 0 0 0 1 4 24 89
2020-06-27 20:30 1.75 122 102 (2015) 0 (2012) 14 0 0 0 1 4 24 89
2020-06-27 19:30 1.69 110 102 (2015) 0 (2012) 14 0 0 0 1 4 24 89
2020-06-27 18:30 1.23 43 102 (2015) 0 (2012) 14 0 0 0 1 4 24 89
2020-06-27 17:30 1.23 43 102 (2015) 0 (2012) 14 0 0 0 1 4 24 89
2020-06-27 16:30 1.23 43 102 (2015) 0 (2012) 14 0 0 0 1 4 24 89
2020-06-27 15:30 1.21 41 102 (2015) 0 (2012) 14 0 0 0 1 4 24 89
2020-06-27 14:30 1.21 41 102 (2015) 0 (2012) 14 0 0 0 1 4 24 89
2020-06-27 13:30 1.32 53 102 (2015) 0 (2012) 14 0 0 0 1 4 24 89
2020-06-27 12:30 1.12 33 102 (2015) 0 (2012) 14 0 0 0 1 4 24 89
2020-06-27 11:30 1.12 33 102 (2015) 0 (2012) 14 0 0 0 1 4 24 89
2020-06-27 10:30 1.13 34 102 (2015) 0 (2012) 14 0 0 0 1 4 24 89
2020-06-27 09:30 1.09 30 102 (2015) 0 (2012) 14 0 0 0 1 4 24 89
2020-06-27 08:30 1.09 30 102 (2015) 0 (2012) 14 0 0 0 1 4 24 89
2020-06-27 07:30 1.05 27 102 (2015) 0 (2012) 14 0 0 0 1 4 24 89
2020-06-27 06:30 1.02 25 102 (2015) 0 (2012) 14 0 0 0 1 4 24 89
2020-06-27 05:30 1.01 24 102 (2015) 0 (2012) 14 0 0 0 1 4 24 89
2020-06-27 04:30 1.02 25 102 (2015) 0 (2012) 14 0 0 0 1 4 24 89
2020-06-27 03:30 1.03 26 102 (2015) 0 (2012) 14 0 0 0 1 4 24 89
2020-06-27 02:30 1.05 27 102 (2015) 0 (2012) 14 0 0 0 1 4 24 89
2020-06-27 01:30 1.05 27 102 (2015) 0 (2012) 14 0 0 0 1 4 24 89
2020-06-27 00:30 1.06 28 102 (2015) 0 (2012) 14 0 0 0 1 4 24 89
2020-06-26 23:30 1.07 29 141 (2015) 0 (2012) 22 0 0 0 1 5 53 130
2020-06-26 22:30 1.08 29 141 (2015) 0 (2012) 22 0 0 0 1 5 53 130
2020-06-26 21:30 1.11 32 141 (2015) 0 (2012) 22 0 0 0 1 5 53 130
2020-06-26 20:30 1.17 37 141 (2015) 0 (2012) 22 0 0 0 1 5 53 130
2020-06-26 19:30 1.19 39 141 (2015) 0 (2012) 22 0 0 0 1 5 53 130
2020-06-26 18:30 1.21 41 141 (2015) 0 (2012) 22 0 0 0 1 5 53 130
2020-06-26 17:30 1.20 40 141 (2015) 0 (2012) 22 0 0 0 1 5 53 130
2020-06-26 16:30 1.20 40 141 (2015) 0 (2012) 22 0 0 0 1 5 53 130
2020-06-26 15:30 1.16 36 141 (2015) 0 (2012) 22 0 0 0 1 5 53 130
2020-06-26 14:30 1.14 34 141 (2015) 0 (2012) 22 0 0 0 1 5 53 130
2020-06-26 13:30 1.14 34 141 (2015) 0 (2012) 22 0 0 0 1 5 53 130
2020-06-26 12:30 1.11 32 141 (2015) 0 (2012) 22 0 0 0 1 5 53 130
2020-06-26 11:30 1.12 33 141 (2015) 0 (2012) 22 0 0 0 1 5 53 130
2020-06-26 10:30 1.12 33 141 (2015) 0 (2012) 22 0 0 0 1 5 53 130
2020-06-26 09:30 1.10 31 141 (2015) 0 (2012) 22 0 0 0 1 5 53 130
2020-06-26 08:30 1.08 29 141 (2015) 0 (2012) 22 0 0 0 1 5 53 130
2020-06-26 07:30 1.09 30 141 (2015) 0 (2012) 22 0 0 0 1 5 53 130
2020-06-26 06:30 1.08 29 141 (2015) 0 (2012) 22 0 0 0 1 5 53 130
2020-06-26 05:30 1.09 30 141 (2015) 0 (2012) 22 0 0 0 1 5 53 130
2020-06-26 04:30 1.09 30 141 (2015) 0 (2012) 22 0 0 0 1 5 53 130
2020-06-26 03:30 1.08 29 141 (2015) 0 (2012) 22 0 0 0 1 5 53 130
2020-06-26 02:30 1.07 29 141 (2015) 0 (2012) 22 0 0 0 1 5 53 130
2020-06-26 01:30 1.10 31 141 (2015) 0 (2012) 22 0 0 0 1 5 53 130
2020-06-26 00:30 1.08 29 141 (2015) 0 (2012) 22 0 0 0 1 5 53 130
2020-06-25 23:30 1.08 29 251 (2019) 0 (2012) 44 0 0 0 1 7 136 245
2020-06-25 22:30 1.09 30 251 (2019) 0 (2012) 44 0 0 0 1 7 136 245
2020-06-25 21:30 1.10 31 251 (2019) 0 (2012) 44 0 0 0 1 7 136 245
2020-06-25 20:30 1.15 35 251 (2019) 0 (2012) 44 0 0 0 1 7 136 245
2020-06-25 19:30 1.19 39 251 (2019) 0 (2012) 44 0 0 0 1 7 136 245
2020-06-25 18:30 1.18 38 251 (2019) 0 (2012) 44 0 0 0 1 7 136 245
2020-06-25 17:30 1.19 39 251 (2019) 0 (2012) 44 0 0 0 1 7 136 245
2020-06-25 16:30 1.20 40 251 (2019) 0 (2012) 44 0 0 0 1 7 136 245
2020-06-25 15:30 1.17 37 251 (2019) 0 (2012) 44 0 0 0 1 7 136 245
2020-06-25 14:30 1.17 37 251 (2019) 0 (2012) 44 0 0 0 1 7 136 245
2020-06-25 13:30 1.16 36 251 (2019) 0 (2012) 44 0 0 0 1 7 136 245
2020-06-25 12:30 1.34 55 251 (2019) 0 (2012) 44 0 0 0 1 7 136 245
2020-06-25 11:30 1.34 55 251 (2019) 0 (2012) 44 0 0 0 1 7 136 245
2020-06-25 10:30 1.35 56 251 (2019) 0 (2012) 44 0 0 0 1 7 136 245
2020-06-25 09:30 1.36 58 251 (2019) 0 (2012) 44 0 0 0 1 7 136 245
2020-06-25 08:30 1.35 56 251 (2019) 0 (2012) 44 0 0 0 1 7 136 245
2020-06-25 07:30 1.34 55 251 (2019) 0 (2012) 44 0 0 0 1 7 136 245
2020-06-25 06:30 1.34 55 251 (2019) 0 (2012) 44 0 0 0 1 7 136 245
2020-06-25 05:30 1.33 54 251 (2019) 0 (2012) 44 0 0 0 1 7 136 245
2020-06-25 04:30 1.33 54 251 (2019) 0 (2012) 44 0 0 0 1 7 136 245
2020-06-25 03:30 1.35 56 251 (2019) 0 (2012) 44 0 0 0 1 7 136 245
2020-06-25 02:30 1.35 56 251 (2019) 0 (2012) 44 0 0 0 1 7 136 245
2020-06-25 01:30 1.35 56 251 (2019) 0 (2012) 44 0 0 0 1 7 136 245
2020-06-25 00:30 1.35 56 251 (2019) 0 (2012) 44 0 0 0 1 7 136 245
2020-06-24 23:30 1.34 55 623 (2019) 0 (2012) 90 0 0 0 0 11 217 569
2020-06-24 22:30 1.32 53 623 (2019) 0 (2012) 90 0 0 0 0 11 217 569
2020-06-24 21:30 1.31 52 623 (2019) 0 (2012) 90 0 0 0 0 11 217 569
2020-06-24 20:30 1.29 49 623 (2019) 0 (2012) 90 0 0 0 0 11 217 569
2020-06-24 19:30 1.24 44 623 (2019) 0 (2012) 90 0 0 0 0 11 217 569
2020-06-24 18:30 1.23 43 623 (2019) 0 (2012) 90 0 0 0 0 11 217 569
2020-06-24 17:30 1.22 42 623 (2019) 0 (2012) 90 0 0 0 0 11 217 569
2020-06-24 16:30 1.25 45 623 (2019) 0 (2012) 90 0 0 0 0 11 217 569
2020-06-24 15:30 1.28 48 623 (2019) 0 (2012) 90 0 0 0 0 11 217 569
2020-06-24 14:30 1.32 53 623 (2019) 0 (2012) 90 0 0 0 0 11 217 569
2020-06-24 13:30 1.40 63 623 (2019) 0 (2012) 90 0 0 0 0 11 217 569
2020-06-24 12:30 1.41 64 623 (2019) 0 (2012) 90 0 0 0 0 11 217 569
2020-06-24 11:30 1.39 61 623 (2019) 0 (2012) 90 0 0 0 0 11 217 569
2020-06-24 10:30 1.40 63 623 (2019) 0 (2012) 90 0 0 0 0 11 217 569
2020-06-24 09:30 1.39 61 623 (2019) 0 (2012) 90 0 0 0 0 11 217 569
2020-06-24 08:30 1.39 61 623 (2019) 0 (2012) 90 0 0 0 0 11 217 569
2020-06-24 07:30 1.40 63 623 (2019) 0 (2012) 90 0 0 0 0 11 217 569
2020-06-24 06:30 1.40 63 623 (2019) 0 (2012) 90 0 0 0 0 11 217 569
2020-06-24 05:30 1.41 64 623 (2019) 0 (2012) 90 0 0 0 0 11 217 569
2020-06-24 04:30 1.39 61 623 (2019) 0 (2012) 90 0 0 0 0 11 217 569
2020-06-24 03:30 1.39 61 623 (2019) 0 (2012) 90 0 0 0 0 11 217 569
2020-06-24 02:30 1.36 58 623 (2019) 0 (2012) 90 0 0 0 0 11 217 569
2020-06-24 01:30 1.38 60 623 (2019) 0 (2012) 90 0 0 0 0 11 217 569
2020-06-24 00:30 1.37 59 623 (2019) 0 (2012) 90 0 0 0 0 11 217 569
2020-06-23 23:30 1.34 55 585 (2015) 0 (2012) 57 0 0 0 0 12 19 473
2020-06-23 22:30 1.34 55 585 (2015) 0 (2012) 57 0 0 0 0 12 19 473
2020-06-23 21:30 1.32 53 585 (2015) 0 (2012) 57 0 0 0 0 12 19 473
2020-06-23 20:30 1.29 49 585 (2015) 0 (2012) 57 0 0 0 0 12 19 473
2020-06-23 19:30 1.28 48 585 (2015) 0 (2012) 57 0 0 0 0 12 19 473
2020-06-23 18:30 1.28 48 585 (2015) 0 (2012) 57 0 0 0 0 12 19 473
2020-06-23 17:30 1.26 46 585 (2015) 0 (2012) 57 0 0 0 0 12 19 473
2020-06-23 16:30 1.68 108 585 (2015) 0 (2012) 57 0 0 0 0 12 19 473
2020-06-23 15:30 1.65 102 585 (2015) 0 (2012) 57 0 0 0 0 12 19 473
2020-06-23 14:30 1.53 82 585 (2015) 0 (2012) 57 0 0 0 0 12 19 473
2020-06-23 13:30 1.54 83 585 (2015) 0 (2012) 57 0 0 0 0 12 19 473
2020-06-23 12:30 1.53 82 585 (2015) 0 (2012) 57 0 0 0 0 12 19 473
2020-06-23 11:30 1.53 82 585 (2015) 0 (2012) 57 0 0 0 0 12 19 473
2020-06-23 10:30 1.53 82 585 (2015) 0 (2012) 57 0 0 0 0 12 19 473
2020-06-23 09:30 1.52 80 585 (2015) 0 (2012) 57 0 0 0 0 12 19 473
2020-06-23 08:30 1.52 80 585 (2015) 0 (2012) 57 0 0 0 0 12 19 473
2020-06-23 07:30 1.52 80 585 (2015) 0 (2012) 57 0 0 0 0 12 19 473
2020-06-23 06:30 1.53 82 585 (2015) 0 (2012) 57 0 0 0 0 12 19 473
2020-06-23 05:30 1.53 82 585 (2015) 0 (2012) 57 0 0 0 0 12 19 473
2020-06-23 04:30 1.53 82 585 (2015) 0 (2012) 57 0 0 0 0 12 19 473
2020-06-23 03:30 1.52 80 585 (2015) 0 (2012) 57 0 0 0 0 12 19 473
2020-06-23 02:30 1.52 80 585 (2015) 0 (2012) 57 0 0 0 0 12 19 473
2020-06-23 01:30 1.52 80 585 (2015) 0 (2012) 57 0 0 0 0 12 19 473
2020-06-23 00:30 1.52 80 585 (2015) 0 (2012) 57 0 0 0 0 12 19 473
2020-06-22 23:30 1.52 80 940 (2015) 0 (2014) 91 0 0 0 0 10 30 761
2020-06-22 22:30 1.53 82 940 (2015) 0 (2014) 91 0 0 0 0 10 30 761
2020-06-22 21:30 1.52 80 940 (2015) 0 (2014) 91 0 0 0 0 10 30 761
2020-06-22 20:30 1.53 82 940 (2015) 0 (2014) 91 0 0 0 0 10 30 761
2020-06-22 19:30 1.52 80 940 (2015) 0 (2014) 91 0 0 0 0 10 30 761
2020-06-22 18:30 1.53 82 940 (2015) 0 (2014) 91 0 0 0 0 10 30 761
2020-06-22 17:30 1.54 83 940 (2015) 0 (2014) 91 0 0 0 0 10 30 761
2020-06-22 16:30 1.52 80 940 (2015) 0 (2014) 91 0 0 0 0 10 30 761
2020-06-22 15:30 1.51 78 940 (2015) 0 (2014) 91 0 0 0 0 10 30 761
2020-06-22 14:30 1.51 78 940 (2015) 0 (2014) 91 0 0 0 0 10 30 761
2020-06-22 13:30 1.51 78 940 (2015) 0 (2014) 91 0 0 0 0 10 30 761
2020-06-22 12:30 1.50 77 940 (2015) 0 (2014) 91 0 0 0 0 10 30 761
2020-06-22 11:30 1.52 80 940 (2015) 0 (2014) 91 0 0 0 0 10 30 761
2020-06-22 10:30 1.52 80 940 (2015) 0 (2014) 91 0 0 0 0 10 30 761
2020-06-22 09:30 1.53 82 940 (2015) 0 (2014) 91 0 0 0 0 10 30 761
2020-06-22 08:30 1.55 85 940 (2015) 0 (2014) 91 0 0 0 0 10 30 761
2020-06-22 07:30 1.54 83 940 (2015) 0 (2014) 91 0 0 0 0 10 30 761
2020-06-22 06:30 1.55 85 940 (2015) 0 (2014) 91 0 0 0 0 10 30 761
2020-06-22 05:30 1.53 82 940 (2015) 0 (2014) 91 0 0 0 0 10 30 761
2020-06-22 04:30 1.53 82 940 (2015) 0 (2014) 91 0 0 0 0 10 30 761
2020-06-22 03:30 1.54 83 940 (2015) 0 (2014) 91 0 0 0 0 10 30 761
2020-06-22 02:30 1.53 82 940 (2015) 0 (2014) 91 0 0 0 0 10 30 761
2020-06-22 01:30 1.53 82 940 (2015) 0 (2014) 91 0 0 0 0 10 30 761
2020-06-22 00:30 1.53 82 940 (2015) 0 (2014) 91 0 0 0 0 10 30 761
2020-06-21 23:30 1.52 80 1580 (2015) 0 (2014) 153 0 0 0 1 13 53 1280
2020-06-21 22:30 1.52 80 1580 (2015) 0 (2014) 153 0 0 0 1 13 53 1280
2020-06-21 21:30 1.51 78 1580 (2015) 0 (2014) 153 0 0 0 1 13 53 1280
2020-06-21 20:30 1.51 78 1580 (2015) 0 (2014) 153 0 0 0 1 13 53 1280
2020-06-21 19:30 1.50 77 1580 (2015) 0 (2014) 153 0 0 0 1 13 53 1280
2020-06-21 18:30 1.49 75 1580 (2015) 0 (2014) 153 0 0 0 1 13 53 1280
2020-06-21 17:30 1.51 78 1580 (2015) 0 (2014) 153 0 0 0 1 13 53 1280
2020-06-21 16:30 1.29 49 1580 (2015) 0 (2014) 153 0 0 0 1 13 53 1280
2020-06-21 15:30 1.42 65 1580 (2015) 0 (2014) 153 0 0 0 1 13 53 1280
2020-06-21 14:30 1.60 93 1580 (2015) 0 (2014) 153 0 0 0 1 13 53 1280
2020-06-21 13:30 1.62 97 1580 (2015) 0 (2014) 153 0 0 0 1 13 53 1280
2020-06-21 12:30 1.59 92 1580 (2015) 0 (2014) 153 0 0 0 1 13 53 1280
2020-06-21 11:30 1.57 88 1580 (2015) 0 (2014) 153 0 0 0 1 13 53 1280
2020-06-21 10:30 1.56 86 1580 (2015) 0 (2014) 153 0 0 0 1 13 53 1280
2020-06-21 09:30 1.52 80 1580 (2015) 0 (2014) 153 0 0 0 1 13 53 1280
2020-06-21 08:30 1.46 71 1580 (2015) 0 (2014) 153 0 0 0 1 13 53 1280
2020-06-21 07:30 1.42 65 1580 (2015) 0 (2014) 153 0 0 0 1 13 53 1280
2020-06-21 06:30 1.41 64 1580 (2015) 0 (2014) 153 0 0 0 1 13 53 1280
2020-06-21 05:30 1.41 64 1580 (2015) 0 (2014) 153 0 0 0 1 13 53 1280
2020-06-21 04:30 1.41 64 1580 (2015) 0 (2014) 153 0 0 0 1 13 53 1280
2020-06-21 03:30 1.41 64 1580 (2015) 0 (2014) 153 0 0 0 1 13 53 1280
2020-06-21 02:30 1.43 67 1580 (2015) 0 (2014) 153 0 0 0 1 13 53 1280
2020-06-21 01:30 1.41 64 1580 (2015) 0 (2014) 153 0 0 0 1 13 53 1280
2020-06-21 00:30 1.44 68 1580 (2015) 0 (2014) 153 0 0 0 1 13 53 1280
2020-06-20 23:30 1.46 71 3820 (2015) 0 (2014) 363 0 0 0 1 27 93 3080
2020-06-20 22:30 1.47 72 3820 (2015) 0 (2014) 363 0 0 0 1 27 93 3080
2020-06-20 21:30 1.50 77 3820 (2015) 0 (2014) 363 0 0 0 1 27 93 3080
2020-06-20 20:30 1.51 78 3820 (2015) 0 (2014) 363 0 0 0 1 27 93 3080
2020-06-20 19:30 1.54 83 3820 (2015) 0 (2014) 363 0 0 0 1 27 93 3080
2020-06-20 18:30 1.59 92 3820 (2015) 0 (2014) 363 0 0 0 1 27 93 3080
2020-06-20 17:30 1.57 88 3820 (2015) 0 (2014) 363 0 0 0 1 27 93 3080
2020-06-20 16:30 1.53 82 3820 (2015) 0 (2014) 363 0 0 0 1 27 93 3080
2020-06-20 15:30 1.50 77 3820 (2015) 0 (2014) 363 0 0 0 1 27 93 3080
2020-06-20 14:30 1.48 74 3820 (2015) 0 (2014) 363 0 0 0 1 27 93 3080
2020-06-20 13:30 1.55 85 3820 (2015) 0 (2014) 363 0 0 0 1 27 93 3080
2020-06-20 12:30 1.65 102 3820 (2015) 0 (2014) 363 0 0 0 1 27 93 3080
2020-06-20 11:30 1.69 110 3820 (2015) 0 (2014) 363 0 0 0 1 27 93 3080
2020-06-20 10:30 1.61 95 3820 (2015) 0 (2014) 363 0 0 0 1 27 93 3080
2020-06-20 09:30 1.56 86 3820 (2015) 0 (2014) 363 0 0 0 1 27 93 3080
2020-06-20 08:30 1.46 71 3820 (2015) 0 (2014) 363 0 0 0 1 27 93 3080
2020-06-20 07:30 1.48 74 3820 (2015) 0 (2014) 363 0 0 0 1 27 93 3080
2020-06-20 06:30 1.49 75 3820 (2015) 0 (2014) 363 0 0 0 1 27 93 3080
2020-06-20 05:30 1.50 77 3820 (2015) 0 (2014) 363 0 0 0 1 27 93 3080
2020-06-20 04:30 1.49 75 3820 (2015) 0 (2014) 363 0 0 0 1 27 93 3080
2020-06-20 03:30 1.48 74 3820 (2015) 0 (2014) 363 0 0 0 1 27 93 3080
2020-06-20 02:30 1.47 72 3820 (2015) 0 (2014) 363 0 0 0 1 27 93 3080
2020-06-20 01:30 1.47 72 3820 (2015) 0 (2014) 363 0 0 0 1 27 93 3080
2020-06-20 00:30 1.50 77 3820 (2015) 0 (2014) 363 0 0 0 1 27 93 3080
2020-06-19 23:30 1.51 78 3900 (2015) 0 (2014) 381 0 0 0 1 21 166 3170
2020-06-19 22:30 1.56 86 3900 (2015) 0 (2014) 381 0 0 0 1 21 166 3170
2020-06-19 21:30 1.62 97 3900 (2015) 0 (2014) 381 0 0 0 1 21 166 3170
2020-06-19 20:30 1.66 104 3900 (2015) 0 (2014) 381 0 0 0 1 21 166 3170
2020-06-19 19:30 1.63 99 3900 (2015) 0 (2014) 381 0 0 0 1 21 166 3170
2020-06-19 18:30 1.27 47 3900 (2015) 0 (2014) 381 0 0 0 1 21 166 3170
2020-06-19 17:30 1.63 99 3900 (2015) 0 (2014) 381 0 0 0 1 21 166 3170
2020-06-19 16:30 1.32 53 3900 (2015) 0 (2014) 381 0 0 0 1 21 166 3170
2020-06-19 15:30 1.80 133 3900 (2015) 0 (2014) 381 0 0 0 1 21 166 3170
2020-06-19 14:30 1.81 135 3900 (2015) 0 (2014) 381 0 0 0 1 21 166 3170
2020-06-19 13:30 1.72 116 3900 (2015) 0 (2014) 381 0 0 0 1 21 166 3170
2020-06-19 12:30 1.61 95 3900 (2015) 0 (2014) 381 0 0 0 1 21 166 3170
2020-06-19 11:30 1.59 92 3900 (2015) 0 (2014) 381 0 0 0 1 21 166 3170
2020-06-19 10:30 1.50 77 3900 (2015) 0 (2014) 381 0 0 0 1 21 166 3170
2020-06-19 09:30 1.42 65 3900 (2015) 0 (2014) 381 0 0 0 1 21 166 3170
2020-06-19 08:30 1.45 70 3900 (2015) 0 (2014) 381 0 0 0 1 21 166 3170
2020-06-19 07:30 1.45 70 3900 (2015) 0 (2014) 381 0 0 0 1 21 166 3170
2020-06-19 06:30 1.42 65 3900 (2015) 0 (2014) 381 0 0 0 1 21 166 3170
2020-06-19 05:30 1.42 65 3900 (2015) 0 (2014) 381 0 0 0 1 21 166 3170
2020-06-19 04:30 1.42 65 3900 (2015) 0 (2014) 381 0 0 0 1 21 166 3170
2020-06-19 03:30 1.41 64 3900 (2015) 0 (2014) 381 0 0 0 1 21 166 3170
2020-06-19 02:30 1.43 67 3900 (2015) 0 (2014) 381 0 0 0 1 21 166 3170
2020-06-19 01:30 1.43 67 3900 (2015) 0 (2014) 381 0 0 0 1 21 166 3170
2020-06-19 00:30 1.41 64 3900 (2015) 0 (2014) 381 0 0 0 1 21 166 3170
2020-06-18 23:30 1.43 67 604 (2009) 0 (2011) 78 0 0 0 1 38 138 524
2020-06-18 22:30 1.46 71 604 (2009) 0 (2011) 78 0 0 0 1 38 138 524
2020-06-18 21:30 1.54 83 604 (2009) 0 (2011) 78 0 0 0 1 38 138 524
2020-06-18 20:30 1.60 93 604 (2009) 0 (2011) 78 0 0 0 1 38 138 524
2020-06-18 19:30 1.58 90 604 (2009) 0 (2011) 78 0 0 0 1 38 138 524
2020-06-18 18:30 1.63 99 604 (2009) 0 (2011) 78 0 0 0 1 38 138 524
2020-06-18 17:30 1.62 97 604 (2009) 0 (2011) 78 0 0 0 1 38 138 524
2020-06-18 16:30 1.65 102 604 (2009) 0 (2011) 78 0 0 0 1 38 138 524
2020-06-18 15:30 1.53 82 604 (2009) 0 (2011) 78 0 0 0 1 38 138 524
2020-06-18 14:30 1.53 82 604 (2009) 0 (2011) 78 0 0 0 1 38 138 524
2020-06-18 13:30 1.52 80 604 (2009) 0 (2011) 78 0 0 0 1 38 138 524
2020-06-18 12:30 1.50 77 604 (2009) 0 (2011) 78 0 0 0 1 38 138 524
2020-06-18 11:30 1.50 77 604 (2009) 0 (2011) 78 0 0 0 1 38 138 524
2020-06-18 10:30 1.46 71 604 (2009) 0 (2011) 78 0 0 0 1 38 138 524
2020-06-18 09:30 1.42 65 604 (2009) 0 (2011) 78 0 0 0 1 38 138 524
2020-06-18 08:30 1.38 60 604 (2009) 0 (2011) 78 0 0 0 1 38 138 524
2020-06-18 07:30 1.38 60 604 (2009) 0 (2011) 78 0 0 0 1 38 138 524
2020-06-18 06:30 1.38 60 604 (2009) 0 (2011) 78 0 0 0 1 38 138 524
2020-06-18 05:30 1.37 59 604 (2009) 0 (2011) 78 0 0 0 1 38 138 524
2020-06-18 04:30 1.38 60 604 (2009) 0 (2011) 78 0 0 0 1 38 138 524
2020-06-18 03:30 1.39 61 604 (2009) 0 (2011) 78 0 0 0 1 38 138 524
2020-06-18 02:30 1.39 61 604 (2009) 0 (2011) 78 0 0 0 1 38 138 524
2020-06-18 01:30 1.39 61 604 (2009) 0 (2011) 78 0 0 0 1 38 138 524
2020-06-18 00:30 1.39 61 604 (2009) 0 (2011) 78 0 0 0 1 38 138 524
2020-06-17 23:30 1.40 63 1690 (2009) 0 (2011) 168 0 0 0 0 14 86 1380
2020-06-17 22:30 1.41 64 1690 (2009) 0 (2011) 168 0 0 0 0 14 86 1380
2020-06-17 21:30 1.43 67 1690 (2009) 0 (2011) 168 0 0 0 0 14 86 1380
2020-06-17 20:30 1.43 67 1690 (2009) 0 (2011) 168 0 0 0 0 14 86 1380
2020-06-17 19:30 1.43 67 1690 (2009) 0 (2011) 168 0 0 0 0 14 86 1380
2020-06-17 18:30 1.37 59 1690 (2009) 0 (2011) 168 0 0 0 0 14 86 1380
2020-06-17 17:30 1.50 77 1690 (2009) 0 (2011) 168 0 0 0 0 14 86 1380
2020-06-17 16:30 1.47 72 1690 (2009) 0 (2011) 168 0 0 0 0 14 86 1380
2020-06-17 15:30 1.42 65 1690 (2009) 0 (2011) 168 0 0 0 0 14 86 1380
2020-06-17 14:30 1.45 70 1690 (2009) 0 (2011) 168 0 0 0 0 14 86 1380
2020-06-17 13:30 1.44 68 1690 (2009) 0 (2011) 168 0 0 0 0 14 86 1380
2020-06-17 12:30 1.50 77 1690 (2009) 0 (2011) 168 0 0 0 0 14 86 1380
2020-06-17 11:30 1.43 67 1690 (2009) 0 (2011) 168 0 0 0 0 14 86 1380
2020-06-17 10:30 1.48 74 1690 (2009) 0 (2011) 168 0 0 0 0 14 86 1380
2020-06-17 09:30 1.41 64 1690 (2009) 0 (2011) 168 0 0 0 0 14 86 1380
2020-06-17 08:30 1.42 65 1690 (2009) 0 (2011) 168 0 0 0 0 14 86 1380
2020-06-17 07:30 1.56 86 1690 (2009) 0 (2011) 168 0 0 0 0 14 86 1380
2020-06-17 06:30 1.32 53 1690 (2009) 0 (2011) 168 0 0 0 0 14 86 1380
2020-06-17 05:30 1.44 68 1690 (2009) 0 (2011) 168 0 0 0 0 14 86 1380
2020-06-17 04:30 1.38 60 1690 (2009) 0 (2011) 168 0 0 0 0 14 86 1380
2020-06-17 03:30 1.36 58 1690 (2009) 0 (2011) 168 0 0 0 0 14 86 1380
2020-06-17 02:30 1.36 58 1690 (2009) 0 (2011) 168 0 0 0 0 14 86 1380
2020-06-17 01:30 1.80 133 1690 (2009) 0 (2011) 168 0 0 0 0 14 86 1380
2020-06-17 00:30 1.48 74 1690 (2009) 0 (2011) 168 0 0 0 0 14 86 1380
2020-06-16 23:30 1.53 82 1690 (2009) 0 (2011) 189 0 0 0 0 24 224 1420
2020-06-16 22:30 1.44 68 1690 (2009) 0 (2011) 189 0 0 0 0 24 224 1420
2020-06-16 21:30 1.53 82 1690 (2009) 0 (2011) 189 0 0 0 0 24 224 1420
2020-06-16 20:30 1.44 68 1690 (2009) 0 (2011) 189 0 0 0 0 24 224 1420
2020-06-16 19:30 1.51 78 1690 (2009) 0 (2011) 189 0 0 0 0 24 224 1420
2020-06-16 18:30 1.66 104 1690 (2009) 0 (2011) 189 0 0 0 0 24 224 1420
2020-06-16 17:30 1.68 108 1690 (2009) 0 (2011) 189 0 0 0 0 24 224 1420
2020-06-16 16:30 1.57 88 1690 (2009) 0 (2011) 189 0 0 0 0 24 224 1420
2020-06-16 15:30 1.61 95 1690 (2009) 0 (2011) 189 0 0 0 0 24 224 1420
2020-06-16 14:30 1.63 99 1690 (2009) 0 (2011) 189 0 0 0 0 24 224 1420
2020-06-16 13:30 1.64 100 1690 (2009) 0 (2011) 189 0 0 0 0 24 224 1420
2020-06-16 12:30 1.62 97 1690 (2009) 0 (2011) 189 0 0 0 0 24 224 1420
2020-06-16 11:30 1.67 106 1690 (2009) 0 (2011) 189 0 0 0 0 24 224 1420
2020-06-16 10:30 1.65 102 1690 (2009) 0 (2011) 189 0 0 0 0 24 224 1420
2020-06-16 09:30 1.67 106 1690 (2009) 0 (2011) 189 0 0 0 0 24 224 1420
2020-06-16 08:30 1.67 106 1690 (2009) 0 (2011) 189 0 0 0 0 24 224 1420
2020-06-16 07:30 1.68 108 1690 (2009) 0 (2011) 189 0 0 0 0 24 224 1420
2020-06-16 06:30 1.70 112 1690 (2009) 0 (2011) 189 0 0 0 0 24 224 1420
2020-06-16 05:30 1.70 112 1690 (2009) 0 (2011) 189 0 0 0 0 24 224 1420
2020-06-16 04:30 1.72 116 1690 (2009) 0 (2011) 189 0 0 0 0 24 224 1420
2020-06-16 03:30 1.72 116 1690 (2009) 0 (2011) 189 0 0 0 0 24 224 1420
2020-06-16 02:30 1.74 120 1690 (2009) 0 (2011) 189 0 0 0 0 24 224 1420
2020-06-16 01:30 1.74 120 1690 (2009) 0 (2011) 189 0 0 0 0 24 224 1420
2020-06-16 00:30 1.75 122 1690 (2009) 0 (2011) 189 0 0 0 0 24 224 1420
2020-06-15 23:30 1.76 124 527 (2009) 0 (2011) 53 0 0 0 0 9 30 430
2020-06-15 22:30 1.77 126 527 (2009) 0 (2011) 53 0 0 0 0 9 30 430
2020-06-15 21:30 1.78 129 527 (2009) 0 (2011) 53 0 0 0 0 9 30 430
2020-06-15 20:30 1.79 131 527 (2009) 0 (2011) 53 0 0 0 0 9 30 430
2020-06-15 19:30 1.78 129 527 (2009) 0 (2011) 53 0 0 0 0 9 30 430
2020-06-15 18:30 1.80 133 527 (2009) 0 (2011) 53 0 0 0 0 9 30 430
2020-06-15 17:30 1.81 135 527 (2009) 0 (2011) 53 0 0 0 0 9 30 430
2020-06-15 16:30 1.82 137 527 (2009) 0 (2011) 53 0 0 0 0 9 30 430
2020-06-15 15:30 1.83 140 527 (2009) 0 (2011) 53 0 0 0 0 9 30 430
2020-06-15 14:30 1.83 140 527 (2009) 0 (2011) 53 0 0 0 0 9 30 430
2020-06-15 13:30 1.85 144 527 (2009) 0 (2011) 53 0 0 0 0 9 30 430
2020-06-15 12:30 1.85 144 527 (2009) 0 (2011) 53 0 0 0 0 9 30 430
2020-06-15 11:30 1.86 147 527 (2009) 0 (2011) 53 0 0 0 0 9 30 430
2020-06-15 10:30 1.86 147 527 (2009) 0 (2011) 53 0 0 0 0 9 30 430
2020-06-15 09:30 1.89 154 527 (2009) 0 (2011) 53 0 0 0 0 9 30 430
2020-06-15 08:30 1.87 149 527 (2009) 0 (2011) 53 0 0 0 0 9 30 430
2020-06-15 07:30 1.90 157 527 (2009) 0 (2011) 53 0 0 0 0 9 30 430
2020-06-15 06:30 1.90 157 527 (2009) 0 (2011) 53 0 0 0 0 9 30 430
2020-06-15 05:30 1.92 162 527 (2009) 0 (2011) 53 0 0 0 0 9 30 430
2020-06-15 04:30 1.93 164 527 (2009) 0 (2011) 53 0 0 0 0 9 30 430
2020-06-15 03:30 1.93 164 527 (2009) 0 (2011) 53 0 0 0 0 9 30 430
2020-06-15 02:30 1.95 170 527 (2009) 0 (2011) 53 0 0 0 0 9 30 430
2020-06-15 01:30 1.96 172 527 (2009) 0 (2011) 53 0 0 0 0 9 30 430
2020-06-15 00:30 1.97 175 527 (2009) 0 (2011) 53 0 0 0 0 9 30 430
2020-06-14 23:30 1.98 178 115 (2016) 0 (2012) 17 0 0 0 0 7 35 103
2020-06-14 22:30 2.00 183 115 (2016) 0 (2012) 17 0 0 0 0 7 35 103
2020-06-14 21:30 2.00 183 115 (2016) 0 (2012) 17 0 0 0 0 7 35 103
2020-06-14 20:30 2.01 186 115 (2016) 0 (2012) 17 0 0 0 0 7 35 103
2020-06-14 19:30 2.00 183 115 (2016) 0 (2012) 17 0 0 0 0 7 35 103
2020-06-14 18:30 1.99 180 115 (2016) 0 (2012) 17 0 0 0 0 7 35 103
2020-06-14 17:30 2.03 192 115 (2016) 0 (2012) 17 0 0 0 0 7 35 103
2020-06-14 16:30 2.06 201 115 (2016) 0 (2012) 17 0 0 0 0 7 35 103
2020-06-14 15:30 2.06 201 115 (2016) 0 (2012) 17 0 0 0 0 7 35 103
2020-06-14 14:30 2.07 204 115 (2016) 0 (2012) 17 0 0 0 0 7 35 103
2020-06-14 13:30 2.05 198 115 (2016) 0 (2012) 17 0 0 0 0 7 35 103
2020-06-14 12:30 2.08 207 115 (2016) 0 (2012) 17 0 0 0 0 7 35 103
2020-06-14 11:30 2.09 210 115 (2016) 0 (2012) 17 0 0 0 0 7 35 103
2020-06-14 10:30 2.09 210 115 (2016) 0 (2012) 17 0 0 0 0 7 35 103
2020-06-14 09:30 2.12 219 115 (2016) 0 (2012) 17 0 0 0 0 7 35 103
2020-06-14 08:30 2.13 222 115 (2016) 0 (2012) 17 0 0 0 0 7 35 103
2020-06-14 07:30 2.14 226 115 (2016) 0 (2012) 17 0 0 0 0 7 35 103
2020-06-14 06:30 2.14 226 115 (2016) 0 (2012) 17 0 0 0 0 7 35 103
2020-06-14 05:30 2.15 229 115 (2016) 0 (2012) 17 0 0 0 0 7 35 103
2020-06-14 04:30 2.16 232 115 (2016) 0 (2012) 17 0 0 0 0 7 35 103
2020-06-14 03:30 2.17 235 115 (2016) 0 (2012) 17 0 0 0 0 7 35 103
2020-06-14 02:30 2.18 239 115 (2016) 0 (2012) 17 0 0 0 0 7 35 103
2020-06-14 01:30 2.19 242 115 (2016) 0 (2012) 17 0 0 0 0 7 35 103
2020-06-14 00:30 2.20 246 115 (2016) 0 (2012) 17 0 0 0 0 7 35 103
2020-06-13 23:30 2.19 242 106 (2009) 0 (2012) 13 0 0 0 0 7 15 89
2020-06-13 22:30 2.22 253 106 (2009) 0 (2012) 13 0 0 0 0 7 15 89
2020-06-13 21:30 2.22 253 106 (2009) 0 (2012) 13 0 0 0 0 7 15 89
2020-06-13 20:30 2.23 256 106 (2009) 0 (2012) 13 0 0 0 0 7 15 89
2020-06-13 19:30 2.23 256 106 (2009) 0 (2012) 13 0 0 0 0 7 15 89
2020-06-13 18:30 2.25 263 106 (2009) 0 (2012) 13 0 0 0 0 7 15 89
2020-06-13 17:30 2.28 274 106 (2009) 0 (2012) 13 0 0 0 0 7 15 89
2020-06-13 16:30 2.28 274 106 (2009) 0 (2012) 13 0 0 0 0 7 15 89
2020-06-13 15:30 2.29 278 106 (2009) 0 (2012) 13 0 0 0 0 7 15 89
2020-06-13 14:30 2.29 278 106 (2009) 0 (2012) 13 0 0 0 0 7 15 89
2020-06-13 13:30 2.32 289 106 (2009) 0 (2012) 13 0 0 0 0 7 15 89
2020-06-13 12:30 2.32 289 106 (2009) 0 (2012) 13 0 0 0 0 7 15 89
2020-06-13 11:30 2.34 297 106 (2009) 0 (2012) 13 0 0 0 0 7 15 89
2020-06-13 10:30 2.36 305 106 (2009) 0 (2012) 13 0 0 0 0 7 15 89
2020-06-13 09:30 2.35 301 106 (2009) 0 (2012) 13 0 0 0 0 7 15 89
2020-06-13 08:30 2.37 309 106 (2009) 0 (2012) 13 0 0 0 0 7 15 89
2020-06-13 07:30 2.38 313 106 (2009) 0 (2012) 13 0 0 0 0 7 15 89
2020-06-13 06:30 2.40 321 106 (2009) 0 (2012) 13 0 0 0 0 7 15 89
2020-06-13 05:30 2.40 321 106 (2009) 0 (2012) 13 0 0 0 0 7 15 89
2020-06-13 04:30 2.41 326 106 (2009) 0 (2012) 13 0 0 0 0 7 15 89
2020-06-13 03:30 2.43 334 106 (2009) 0 (2012) 13 0 0 0 0 7 15 89
2020-06-13 02:30 2.44 338 106 (2009) 0 (2012) 13 0 0 0 0 7 15 89
2020-06-13 01:30 2.45 343 106 (2009) 0 (2012) 13 0 0 0 0 7 15 89
2020-06-13 00:30 2.48 356 106 (2009) 0 (2012) 13 0 0 0 0 7 15 89
2020-06-12 23:30 2.47 351 228 (2009) 0 (2011) 24 0 0 0 0 10 11 185
2020-06-12 22:30 2.49 360 228 (2009) 0 (2011) 24 0 0 0 0 10 11 185
2020-06-12 21:30 2.51 369 228 (2009) 0 (2011) 24 0 0 0 0 10 11 185
2020-06-12 20:30 2.52 374 228 (2009) 0 (2011) 24 0 0 0 0 10 11 185
2020-06-12 19:30 2.54 383 228 (2009) 0 (2011) 24 0 0 0 0 10 11 185
2020-06-12 18:30 2.55 388 228 (2009) 0 (2011) 24 0 0 0 0 10 11 185
2020-06-12 17:30 2.55 388 228 (2009) 0 (2011) 24 0 0 0 0 10 11 185
2020-06-12 16:30 2.57 398 228 (2009) 0 (2011) 24 0 0 0 0 10 11 185
2020-06-12 15:30 2.58 402 228 (2009) 0 (2011) 24 0 0 0 0 10 11 185
2020-06-12 14:30 2.61 417 228 (2009) 0 (2011) 24 0 0 0 0 10 11 185
2020-06-12 13:30 2.63 427 228 (2009) 0 (2011) 24 0 0 0 0 10 11 185
2020-06-12 12:30 2.64 432 228 (2009) 0 (2011) 24 0 0 0 0 10 11 185
2020-06-12 11:30 2.67 448 228 (2009) 0 (2011) 24 0 0 0 0 10 11 185
2020-06-12 10:30 2.67 448 228 (2009) 0 (2011) 24 0 0 0 0 10 11 185
2020-06-12 09:30 2.67 448 228 (2009) 0 (2011) 24 0 0 0 0 10 11 185
2020-06-12 08:30 2.70 464 228 (2009) 0 (2011) 24 0 0 0 0 10 11 185
2020-06-12 07:30 2.72 475 228 (2009) 0 (2011) 24 0 0 0 0 10 11 185
2020-06-12 06:30 2.73 480 228 (2009) 0 (2011) 24 0 0 0 0 10 11 185
2020-06-12 05:30 2.73 480 228 (2009) 0 (2011) 24 0 0 0 0 10 11 185
2020-06-12 04:30 2.79 514 228 (2009) 0 (2011) 24 0 0 0 0 10 11 185
2020-06-12 03:30 2.80 520 228 (2009) 0 (2011) 24 0 0 0 0 10 11 185
2020-06-12 02:30 2.83 537 228 (2009) 0 (2011) 24 0 0 0 0 10 11 185
2020-06-12 01:30 2.84 543 228 (2009) 0 (2011) 24 0 0 0 0 10 11 185
2020-06-12 00:30 2.87 562 228 (2009) 0 (2011) 24 0 0 0 0 10 11 185
2020-06-11 23:30 2.88 568 374 (2009) 0 (2011) 37 0 0 0 0 11 14 303
2020-06-11 22:30 2.91 587 374 (2009) 0 (2011) 37 0 0 0 0 11 14 303
2020-06-11 21:30 2.92 593 374 (2009) 0 (2011) 37 0 0 0 0 11 14 303
2020-06-11 20:30 2.96 619 374 (2009) 0 (2011) 37 0 0 0 0 11 14 303
2020-06-11 19:30 2.98 632 374 (2009) 0 (2011) 37 0 0 0 0 11 14 303
2020-06-11 18:30 3.01 652 374 (2009) 0 (2011) 37 0 0 0 0 11 14 303
2020-06-11 17:30 3.03 666 374 (2009) 0 (2011) 37 0 0 0 0 11 14 303
2020-06-11 16:30 3.09 708 374 (2009) 0 (2011) 37 0 0 0 0 11 14 303
2020-06-11 15:30 3.10 716 374 (2009) 0 (2011) 37 0 0 0 0 11 14 303
2020-06-11 14:30 3.14 745 374 (2009) 0 (2011) 37 0 0 0 0 11 14 303
2020-06-11 13:30 3.17 768 374 (2009) 0 (2011) 37 0 0 0 0 11 14 303
2020-06-11 12:30 3.20 791 374 (2009) 0 (2011) 37 0 0 0 0 11 14 303
2020-06-11 11:30 3.21 799 374 (2009) 0 (2011) 37 0 0 0 0 11 14 303
2020-06-11 10:30 3.24 823 374 (2009) 0 (2011) 37 0 0 0 0 11 14 303
2020-06-11 09:30 3.26 839 374 (2009) 0 (2011) 37 0 0 0 0 11 14 303
2020-06-11 08:30 3.31 880 374 (2009) 0 (2011) 37 0 0 0 0 11 14 303
2020-06-11 07:30 3.35 914 374 (2009) 0 (2011) 37 0 0 0 0 11 14 303
2020-06-11 06:30 3.37 932 374 (2009) 0 (2011) 37 0 0 0 0 11 14 303
2020-06-11 05:30 3.42 976 374 (2009) 0 (2011) 37 0 0 0 0 11 14 303
2020-06-11 04:30 3.43 985 374 (2009) 0 (2011) 37 0 0 0 0 11 14 303
2020-06-11 03:30 3.51 1060 374 (2009) 0 (2011) 37 0 0 0 0 11 14 303
2020-06-11 02:30 3.56 1110 374 (2009) 0 (2011) 37 0 0 0 0 11 14 303
2020-06-11 01:30 3.58 1130 374 (2009) 0 (2011) 37 0 0 0 0 11 14 303
2020-06-11 00:30 3.64 1190 374 (2009) 0 (2011) 37 0 0 0 0 11 14 303
2020-06-10 23:30 3.70 1250 210 (2009) 0 (2011) 25 0 0 0 5 17 22 173
2020-06-10 22:30 3.77 1320 210 (2009) 0 (2011) 25 0 0 0 5 17 22 173
2020-06-10 21:30 3.81 1370 210 (2009) 0 (2011) 25 0 0 0 5 17 22 173
2020-06-10 20:30 3.85 1410 210 (2009) 0 (2011) 25 0 0 0 5 17 22 173
2020-06-10 19:30 3.87 1430 210 (2009) 0 (2011) 25 0 0 0 5 17 22 173
2020-06-10 18:30 3.97 1540 210 (2009) 0 (2011) 25 0 0 0 5 17 22 173
2020-06-10 17:30 4.03 1600 210 (2009) 0 (2011) 25 0 0 0 5 17 22 173
2020-06-10 16:30 4.13 1700 210 (2009) 0 (2011) 25 0 0 0 5 17 22 173
2020-06-10 15:30 4.19 1760 210 (2009) 0 (2011) 25 0 0 0 5 17 22 173
2020-06-10 14:30 4.22 1790 210 (2009) 0 (2011) 25 0 0 0 5 17 22 173
2020-06-10 13:30 4.34 1920 210 (2009) 0 (2011) 25 0 0 0 5 17 22 173
2020-06-10 12:30 4.43 2010 210 (2009) 0 (2011) 25 0 0 0 5 17 22 173
2020-06-10 11:30 4.56 2160 210 (2009) 0 (2011) 25 0 0 0 5 17 22 173
2020-06-10 10:30 4.69 2310 210 (2009) 0 (2011) 25 0 0 0 5 17 22 173
2020-06-10 09:30 4.88 2540 210 (2009) 0 (2011) 25 0 0 0 5 17 22 173
2020-06-10 08:30 5.05 2750 210 (2009) 0 (2011) 25 0 0 0 5 17 22 173
2020-06-10 07:30 5.30 3050 210 (2009) 0 (2011) 25 0 0 0 5 17 22 173
2020-06-10 06:30 5.55 3350 210 (2009) 0 (2011) 25 0 0 0 5 17 22 173
2020-06-10 05:30 5.90 3800 210 (2009) 0 (2011) 25 0 0 0 5 17 22 173
2020-06-10 04:30 6.26 4240 210 (2009) 0 (2011) 25 0 0 0 5 17 22 173
2020-06-10 03:30 6.76 4880 210 (2009) 0 (2011) 25 0 0 0 5 17 22 173
2020-06-10 02:30 7.30 5590 210 (2009) 0 (2011) 25 0 0 0 5 17 22 173
2020-06-10 01:30 7.78 6260 210 (2009) 0 (2011) 25 0 0 0 5 17 22 173
2020-06-10 00:30 8.12 6760 210 (2009) 0 (2011) 25 0 0 0 5 17 22 173
2020-06-09 23:30 8.20 6890 40 (2016) 0 (2011) 11 0 0 0 8 15 26 38
2020-06-09 22:30 8.27 7010 40 (2016) 0 (2011) 11 0 0 0 8 15 26 38
2020-06-09 21:30 8.12 6760 40 (2016) 0 (2011) 11 0 0 0 8 15 26 38
2020-06-09 20:30 8.02 6600 40 (2016) 0 (2011) 11 0 0 0 8 15 26 38
2020-06-09 19:30 7.78 6260 40 (2016) 0 (2011) 11 0 0 0 8 15 26 38
2020-06-09 18:30 7.55 5930 40 (2016) 0 (2011) 11 0 0 0 8 15 26 38
2020-06-09 17:30 7.30 5590 40 (2016) 0 (2011) 11 0 0 0 8 15 26 38
2020-06-09 16:30 6.96 5140 40 (2016) 0 (2011) 11 0 0 0 8 15 26 38
2020-06-09 15:30 6.66 4750 40 (2016) 0 (2011) 11 0 0 0 8 15 26 38
2020-06-09 14:30 6.35 4350 40 (2016) 0 (2011) 11 0 0 0 8 15 26 38
2020-06-09 13:30 6.06 4000 40 (2016) 0 (2011) 11 0 0 0 8 15 26 38
2020-06-09 12:30 5.70 3540 40 (2016) 0 (2011) 11 0 0 0 8 15 26 38
2020-06-09 11:30 5.26 3000 40 (2016) 0 (2011) 11 0 0 0 8 15 26 38
2020-06-09 10:30 4.80 2440 40 (2016) 0 (2011) 11 0 0 0 8 15 26 38
2020-06-09 09:30 4.65 2260 40 (2016) 0 (2011) 11 0 0 0 8 15 26 38
2020-06-09 08:30 4.66 2270 40 (2016) 0 (2011) 11 0 0 0 8 15 26 38
2020-06-09 07:30 4.45 2040 40 (2016) 0 (2011) 11 0 0 0 8 15 26 38
2020-06-09 06:30 3.64 1190 40 (2016) 0 (2011) 11 0 0 0 8 15 26 38
2020-06-09 05:30 2.58 402 40 (2016) 0 (2011) 11 0 0 0 8 15 26 38
2020-06-09 04:30 2.14 226 40 (2016) 0 (2011) 11 0 0 0 8 15 26 38
2020-06-09 03:30 1.82 137 40 (2016) 0 (2011) 11 0 0 0 8 15 26 38
2020-06-09 02:30 1.77 126 40 (2016) 0 (2011) 11 0 0 0 8 15 26 38
2020-06-09 01:30 1.73 118 40 (2016) 0 (2011) 11 0 0 0 8 15 26 38
2020-06-09 00:30 1.70 112 40 (2016) 0 (2011) 11 0 0 0 8 15 26 38
2020-06-08 23:30 1.71 114 65 (2016) 0 (2011) 20 0 0 0 2 43 51 63
2020-06-08 22:30 1.71 114 65 (2016) 0 (2011) 20 0 0 0 2 43 51 63
2020-06-08 21:30 1.69 110 65 (2016) 0 (2011) 20 0 0 0 2 43 51 63
2020-06-08 20:30 1.70 112 65 (2016) 0 (2011) 20 0 0 0 2 43 51 63
2020-06-08 19:30 1.72 116 65 (2016) 0 (2011) 20 0 0 0 2 43 51 63
2020-06-08 18:30 1.72 116 65 (2016) 0 (2011) 20 0 0 0 2 43 51 63
2020-06-08 17:30 1.73 118 65 (2016) 0 (2011) 20 0 0 0 2 43 51 63
2020-06-08 16:30 1.75 122 65 (2016) 0 (2011) 20 0 0 0 2 43 51 63
2020-06-08 15:30 1.76 124 65 (2016) 0 (2011) 20 0 0 0 2 43 51 63
2020-06-08 14:30 1.79 131 65 (2016) 0 (2011) 20 0 0 0 2 43 51 63
2020-06-08 13:30 1.79 131 65 (2016) 0 (2011) 20 0 0 0 2 43 51 63
2020-06-08 12:30 1.78 129 65 (2016) 0 (2011) 20 0 0 0 2 43 51 63
2020-06-08 11:30 1.77 126 65 (2016) 0 (2011) 20 0 0 0 2 43 51 63
2020-06-08 10:30 1.81 135 65 (2016) 0 (2011) 20 0 0 0 2 43 51 63
2020-06-08 09:30 1.83 140 65 (2016) 0 (2011) 20 0 0 0 2 43 51 63
2020-06-08 08:30 1.83 140 65 (2016) 0 (2011) 20 0 0 0 2 43 51 63
2020-06-08 07:30 1.85 144 65 (2016) 0 (2011) 20 0 0 0 2 43 51 63
2020-06-08 06:30 1.88 152 65 (2016) 0 (2011) 20 0 0 0 2 43 51 63
2020-06-08 05:30 1.89 154 65 (2016) 0 (2011) 20 0 0 0 2 43 51 63
2020-06-08 04:30 1.90 157 65 (2016) 0 (2011) 20 0 0 0 2 43 51 63
2020-06-08 03:30 1.92 162 65 (2016) 0 (2011) 20 0 0 0 2 43 51 63
2020-06-08 02:30 1.93 164 65 (2016) 0 (2011) 20 0 0 0 2 43 51 63
2020-06-08 01:30 1.96 172 65 (2016) 0 (2011) 20 0 0 0 2 43 51 63
2020-06-08 00:30 1.96 172 65 (2016) 0 (2011) 20 0 0 0 2 43 51 63
2020-06-07 23:30 1.97 175 197 (2015) 0 (2011) 45 0 0 0 3 103 111 181
2020-06-07 22:30 2.00 183 197 (2015) 0 (2011) 45 0 0 0 3 103 111 181
2020-06-07 21:30 2.01 186 197 (2015) 0 (2011) 45 0 0 0 3 103 111 181
2020-06-07 20:30 2.02 189 197 (2015) 0 (2011) 45 0 0 0 3 103 111 181
2020-06-07 19:30 2.04 195 197 (2015) 0 (2011) 45 0 0 0 3 103 111 181
2020-06-07 18:30 2.05 198 197 (2015) 0 (2011) 45 0 0 0 3 103 111 181
2020-06-07 17:30 2.05 198 197 (2015) 0 (2011) 45 0 0 0 3 103 111 181
2020-06-07 16:30 2.08 207 197 (2015) 0 (2011) 45 0 0 0 3 103 111 181
2020-06-07 15:30 2.10 213 197 (2015) 0 (2011) 45 0 0 0 3 103 111 181
2020-06-07 14:30 2.12 219 197 (2015) 0 (2011) 45 0 0 0 3 103 111 181
2020-06-07 13:30 2.13 222 197 (2015) 0 (2011) 45 0 0 0 3 103 111 181
2020-06-07 12:30 2.15 229 197 (2015) 0 (2011) 45 0 0 0 3 103 111 181
2020-06-07 11:30 2.15 229 197 (2015) 0 (2011) 45 0 0 0 3 103 111 181
2020-06-07 10:30 2.16 232 197 (2015) 0 (2011) 45 0 0 0 3 103 111 181
2020-06-07 09:30 2.17 235 197 (2015) 0 (2011) 45 0 0 0 3 103 111 181
2020-06-07 08:30 2.18 239 197 (2015) 0 (2011) 45 0 0 0 3 103 111 181
2020-06-07 07:30 2.19 242 197 (2015) 0 (2011) 45 0 0 0 3 103 111 181
2020-06-07 06:30 2.22 253 197 (2015) 0 (2011) 45 0 0 0 3 103 111 181
2020-06-07 05:30 2.24 260 197 (2015) 0 (2011) 45 0 0 0 3 103 111 181
2020-06-07 04:30 2.26 267 197 (2015) 0 (2011) 45 0 0 0 3 103 111 181
2020-06-07 03:30 2.27 270 197 (2015) 0 (2011) 45 0 0 0 3 103 111 181
2020-06-07 02:30 2.29 278 197 (2015) 0 (2011) 45 0 0 0 3 103 111 181
2020-06-07 01:30 2.31 285 197 (2015) 0 (2011) 45 0 0 0 3 103 111 181
2020-06-07 00:30 2.30 282 197 (2015) 0 (2011) 45 0 0 0 3 103 111 181
2020-06-06 23:30 2.33 293 255 (2016) 0 (2012) 68 0 0 0 9 166 166 237
2020-06-06 22:30 2.37 309 255 (2016) 0 (2012) 68 0 0 0 9 166 166 237
2020-06-06 21:30 2.39 317 255 (2016) 0 (2012) 68 0 0 0 9 166 166 237
2020-06-06 20:30 2.40 321 255 (2016) 0 (2012) 68 0 0 0 9 166 166 237
2020-06-06 19:30 2.42 330 255 (2016) 0 (2012) 68 0 0 0 9 166 166 237
2020-06-06 18:30 2.44 338 255 (2016) 0 (2012) 68 0 0 0 9 166 166 237
2020-06-06 17:30 2.47 351 255 (2016) 0 (2012) 68 0 0 0 9 166 166 237
2020-06-06 16:30 2.47 351 255 (2016) 0 (2012) 68 0 0 0 9 166 166 237
2020-06-06 15:30 2.49 360 255 (2016) 0 (2012) 68 0 0 0 9 166 166 237
2020-06-06 14:30 2.51 369 255 (2016) 0 (2012) 68 0 0 0 9 166 166 237
2020-06-06 13:30 2.54 383 255 (2016) 0 (2012) 68 0 0 0 9 166 166 237
2020-06-06 12:30 2.54 383 255 (2016) 0 (2012) 68 0 0 0 9 166 166 237
2020-06-06 11:30 2.57 398 255 (2016) 0 (2012) 68 0 0 0 9 166 166 237
2020-06-06 10:30 2.56 393 255 (2016) 0 (2012) 68 0 0 0 9 166 166 237
2020-06-06 09:30 2.62 422 255 (2016) 0 (2012) 68 0 0 0 9 166 166 237
2020-06-06 08:30 2.62 422 255 (2016) 0 (2012) 68 0 0 0 9 166 166 237
2020-06-06 07:30 2.64 432 255 (2016) 0 (2012) 68 0 0 0 9 166 166 237
2020-06-06 06:30 2.68 453 255 (2016) 0 (2012) 68 0 0 0 9 166 166 237
2020-06-06 05:30 2.69 458 255 (2016) 0 (2012) 68 0 0 0 9 166 166 237
2020-06-06 04:30 2.70 464 255 (2016) 0 (2012) 68 0 0 0 9 166 166 237
2020-06-06 03:30 2.75 491 255 (2016) 0 (2012) 68 0 0 0 9 166 166 237
2020-06-06 02:30 2.75 491 255 (2016) 0 (2012) 68 0 0 0 9 166 166 237
2020-06-06 01:30 2.78 508 255 (2016) 0 (2012) 68 0 0 0 9 166 166 237
2020-06-06 00:30 2.81 526 255 (2016) 0 (2012) 68 0 0 0 9 166 166 237
2020-06-05 23:30 2.83 537 756 (2016) 0 (2012) 135 0 0 0 30 240 249 656
2020-06-05 22:30 2.87 562 756 (2016) 0 (2012) 135 0 0 0 30 240 249 656
2020-06-05 21:30 2.92 593 756 (2016) 0 (2012) 135 0 0 0 30 240 249 656
2020-06-05 20:30 2.97 625 756 (2016) 0 (2012) 135 0 0 0 30 240 249 656
2020-06-05 19:30 2.99 639 756 (2016) 0 (2012) 135 0 0 0 30 240 249 656
2020-06-05 18:30 3.05 680 756 (2016) 0 (2012) 135 0 0 0 30 240 249 656
2020-06-05 17:30 3.07 694 756 (2016) 0 (2012) 135 0 0 0 30 240 249 656
2020-06-05 16:30 3.11 723 756 (2016) 0 (2012) 135 0 0 0 30 240 249 656
2020-06-05 15:30 3.20 791 756 (2016) 0 (2012) 135 0 0 0 30 240 249 656
2020-06-05 14:30 3.24 823 756 (2016) 0 (2012) 135 0 0 0 30 240 249 656
2020-06-05 13:30 3.31 880 756 (2016) 0 (2012) 135 0 0 0 30 240 249 656
2020-06-05 12:30 3.37 932 756 (2016) 0 (2012) 135 0 0 0 30 240 249 656
2020-06-05 11:30 3.45 1000 756 (2016) 0 (2012) 135 0 0 0 30 240 249 656
2020-06-05 10:30 3.56 1110 756 (2016) 0 (2012) 135 0 0 0 30 240 249 656
2020-06-05 09:30 3.67 1220 756 (2016) 0 (2012) 135 0 0 0 30 240 249 656
2020-06-05 08:30 3.76 1310 756 (2016) 0 (2012) 135 0 0 0 30 240 249 656
2020-06-05 07:30 3.92 1490 756 (2016) 0 (2012) 135 0 0 0 30 240 249 656
2020-06-05 06:30 4.02 1590 756 (2016) 0 (2012) 135 0 0 0 30 240 249 656
2020-06-05 05:30 4.20 1770 756 (2016) 0 (2012) 135 0 0 0 30 240 249 656
2020-06-05 04:30 4.44 2030 756 (2016) 0 (2012) 135 0 0 0 30 240 249 656
2020-06-05 03:30 4.64 2250 756 (2016) 0 (2012) 135 0 0 0 30 240 249 656
2020-06-05 02:30 4.77 2400 756 (2016) 0 (2012) 135 0 0 0 30 240 249 656
2020-06-05 01:30 4.76 2390 756 (2016) 0 (2012) 135 0 0 0 30 240 249 656
2020-06-05 00:30 4.48 2070 756 (2016) 0 (2012) 135 0 0 0 30 240 249 656
2020-06-04 23:30 3.95 1520 837 (2010) 0 (2014) 151 0 0 1 6 306 338 742
2020-06-04 22:30 3.13 738 837 (2010) 0 (2014) 151 0 0 1 6 306 338 742
2020-06-04 21:30 2.60 412 837 (2010) 0 (2014) 151 0 0 1 6 306 338 742
2020-06-04 20:30 2.48 356 837 (2010) 0 (2014) 151 0 0 1 6 306 338 742
2020-06-04 19:30 2.41 326 837 (2010) 0 (2014) 151 0 0 1 6 306 338 742
2020-06-04 18:30 2.37 309 837 (2010) 0 (2014) 151 0 0 1 6 306 338 742
2020-06-04 17:30 2.29 278 837 (2010) 0 (2014) 151 0 0 1 6 306 338 742
2020-06-04 16:30 2.23 256 837 (2010) 0 (2014) 151 0 0 1 6 306 338 742
2020-06-04 15:30 2.17 235 837 (2010) 0 (2014) 151 0 0 1 6 306 338 742
2020-06-04 14:30 2.16 232 837 (2010) 0 (2014) 151 0 0 1 6 306 338 742
2020-06-04 13:30 2.12 219 837 (2010) 0 (2014) 151 0 0 1 6 306 338 742
2020-06-04 12:30 1.97 175 837 (2010) 0 (2014) 151 0 0 1 6 306 338 742
2020-06-04 11:30 1.83 140 837 (2010) 0 (2014) 151 0 0 1 6 306 338 742
2020-06-04 10:30 1.82 137 837 (2010) 0 (2014) 151 0 0 1 6 306 338 742
2020-06-04 09:30 1.63 99 837 (2010) 0 (2014) 151 0 0 1 6 306 338 742
2020-06-04 08:30 1.61 95 837 (2010) 0 (2014) 151 0 0 1 6 306 338 742
2020-06-04 07:30 1.59 92 837 (2010) 0 (2014) 151 0 0 1 6 306 338 742
2020-06-04 06:30 1.52 80 837 (2010) 0 (2014) 151 0 0 1 6 306 338 742
2020-06-04 05:30 1.47 72 837 (2010) 0 (2014) 151 0 0 1 6 306 338 742
2020-06-04 04:30 1.49 75 837 (2010) 0 (2014) 151 0 0 1 6 306 338 742
2020-06-04 03:30 1.51 78 837 (2010) 0 (2014) 151 0 0 1 6 306 338 742
2020-06-04 02:30 1.43 67 837 (2010) 0 (2014) 151 0 0 1 6 306 338 742
2020-06-04 01:30 1.39 61 837 (2010) 0 (2014) 151 0 0 1 6 306 338 742
2020-06-04 00:30 1.47 72 837 (2010) 0 (2014) 151 0 0 1 6 306 338 742
2020-06-03 23:30 1.48 74 2310 (2010) 0 (2012) 337 0 0 1 7 600 604 1970
2020-06-03 22:30 1.49 75 2310 (2010) 0 (2012) 337 0 0 1 7 600 604 1970
2020-06-03 21:30 1.50 77 2310 (2010) 0 (2012) 337 0 0 1 7 600 604 1970
2020-06-03 20:30 1.51 78 2310 (2010) 0 (2012) 337 0 0 1 7 600 604 1970
2020-06-03 19:30 1.52 80 2310 (2010) 0 (2012) 337 0 0 1 7 600 604 1970
2020-06-03 18:30 1.50 77 2310 (2010) 0 (2012) 337 0 0 1 7 600 604 1970
2020-06-03 17:30 1.54 83 2310 (2010) 0 (2012) 337 0 0 1 7 600 604 1970
2020-06-03 16:30 1.55 85 2310 (2010) 0 (2012) 337 0 0 1 7 600 604 1970
2020-06-03 15:30 1.57 88 2310 (2010) 0 (2012) 337 0 0 1 7 600 604 1970
2020-06-03 14:30 1.58 90 2310 (2010) 0 (2012) 337 0 0 1 7 600 604 1970
2020-06-03 13:30 1.58 90 2310 (2010) 0 (2012) 337 0 0 1 7 600 604 1970
2020-06-03 12:30 1.59 92 2310 (2010) 0 (2012) 337 0 0 1 7 600 604 1970
2020-06-03 11:30 1.60 93 2310 (2010) 0 (2012) 337 0 0 1 7 600 604 1970
2020-06-03 10:30 1.61 95 2310 (2010) 0 (2012) 337 0 0 1 7 600 604 1970
2020-06-03 09:30 1.59 92 2310 (2010) 0 (2012) 337 0 0 1 7 600 604 1970
2020-06-03 08:30 1.62 97 2310 (2010) 0 (2012) 337 0 0 1 7 600 604 1970
2020-06-03 07:30 1.63 99 2310 (2010) 0 (2012) 337 0 0 1 7 600 604 1970
2020-06-03 06:30 1.65 102 2310 (2010) 0 (2012) 337 0 0 1 7 600 604 1970
2020-06-03 05:30 1.65 102 2310 (2010) 0 (2012) 337 0 0 1 7 600 604 1970
2020-06-03 04:30 1.66 104 2310 (2010) 0 (2012) 337 0 0 1 7 600 604 1970
2020-06-03 03:30 1.67 106 2310 (2010) 0 (2012) 337 0 0 1 7 600 604 1970
2020-06-03 02:30 1.68 108 2310 (2010) 0 (2012) 337 0 0 1 7 600 604 1970
2020-06-03 01:30 1.69 110 2310 (2010) 0 (2012) 337 0 0 1 7 600 604 1970
2020-06-03 00:30 1.70 112 2310 (2010) 0 (2012) 337 0 0 1 7 600 604 1970
2020-06-02 23:30 1.70 112 2110 (2013) 0 (2012) 241 0 0 1 12 113 272 1760
2020-06-02 22:30 1.71 114 2110 (2013) 0 (2012) 241 0 0 1 12 113 272 1760
2020-06-02 21:30 1.72 116 2110 (2013) 0 (2012) 241 0 0 1 12 113 272 1760
2020-06-02 20:30 1.73 118 2110 (2013) 0 (2012) 241 0 0 1 12 113 272 1760
2020-06-02 19:30 1.74 120 2110 (2013) 0 (2012) 241 0 0 1 12 113 272 1760
2020-06-02 18:30 1.75 122 2110 (2013) 0 (2012) 241 0 0 1 12 113 272 1760
2020-06-02 17:30 1.78 129 2110 (2013) 0 (2012) 241 0 0 1 12 113 272 1760
2020-06-02 16:30 1.78 129 2110 (2013) 0 (2012) 241 0 0 1 12 113 272 1760
2020-06-02 15:30 1.80 133 2110 (2013) 0 (2012) 241 0 0 1 12 113 272 1760
2020-06-02 14:30 1.76 124 2110 (2013) 0 (2012) 241 0 0 1 12 113 272 1760
2020-06-02 13:30 1.76 124 2110 (2013) 0 (2012) 241 0 0 1 12 113 272 1760
2020-06-02 12:30 1.78 129 2110 (2013) 0 (2012) 241 0 0 1 12 113 272 1760
2020-06-02 11:30 1.81 135 2110 (2013) 0 (2012) 241 0 0 1 12 113 272 1760
2020-06-02 10:30 1.83 140 2110 (2013) 0 (2012) 241 0 0 1 12 113 272 1760
2020-06-02 09:30 1.84 142 2110 (2013) 0 (2012) 241 0 0 1 12 113 272 1760
2020-06-02 08:30 1.85 144 2110 (2013) 0 (2012) 241 0 0 1 12 113 272 1760
2020-06-02 07:30 1.86 147 2110 (2013) 0 (2012) 241 0 0 1 12 113 272 1760
2020-06-02 06:30 1.86 147 2110 (2013) 0 (2012) 241 0 0 1 12 113 272 1760
2020-06-02 05:30 1.88 152 2110 (2013) 0 (2012) 241 0 0 1 12 113 272 1760
2020-06-02 04:30 1.89 154 2110 (2013) 0 (2012) 241 0 0 1 12 113 272 1760
2020-06-02 03:30 1.90 157 2110 (2013) 0 (2012) 241 0 0 1 12 113 272 1760
2020-06-02 02:30 1.92 162 2110 (2013) 0 (2012) 241 0 0 1 12 113 272 1760
2020-06-02 01:30 1.92 162 2110 (2013) 0 (2012) 241 0 0 1 12 113 272 1760
2020-06-02 00:30 1.94 167 2110 (2013) 0 (2012) 241 0 0 1 12 113 272 1760
2020-06-01 23:30 1.96 172 1710 (2013) 0 (2012) 262 0 1 1 20 270 594 1530
2020-06-01 22:30 1.97 175 1710 (2013) 0 (2012) 262 0 1 1 20 270 594 1530
2020-06-01 21:30 1.97 175 1710 (2013) 0 (2012) 262 0 1 1 20 270 594 1530
2020-06-01 20:30 1.98 178 1710 (2013) 0 (2012) 262 0 1 1 20 270 594 1530
2020-06-01 19:30 1.99 180 1710 (2013) 0 (2012) 262 0 1 1 20 270 594 1530
2020-06-01 18:30 2.00 183 1710 (2013) 0 (2012) 262 0 1 1 20 270 594 1530
2020-06-01 17:30 2.03 192 1710 (2013) 0 (2012) 262 0 1 1 20 270 594 1530
2020-06-01 16:30 2.02 189 1710 (2013) 0 (2012) 262 0 1 1 20 270 594 1530
2020-06-01 15:30 2.03 192 1710 (2013) 0 (2012) 262 0 1 1 20 270 594 1530
2020-06-01 14:30 2.04 195 1710 (2013) 0 (2012) 262 0 1 1 20 270 594 1530
2020-06-01 13:30 2.07 204 1710 (2013) 0 (2012) 262 0 1 1 20 270 594 1530
2020-06-01 12:30 2.07 204 1710 (2013) 0 (2012) 262 0 1 1 20 270 594 1530
2020-06-01 11:30 2.08 207 1710 (2013) 0 (2012) 262 0 1 1 20 270 594 1530
2020-06-01 10:30 2.10 213 1710 (2013) 0 (2012) 262 0 1 1 20 270 594 1530
2020-06-01 09:30 2.09 210 1710 (2013) 0 (2012) 262 0 1 1 20 270 594 1530
2020-06-01 08:30 2.11 216 1710 (2013) 0 (2012) 262 0 1 1 20 270 594 1530
2020-06-01 07:30 2.12 219 1710 (2013) 0 (2012) 262 0 1 1 20 270 594 1530
2020-06-01 06:30 2.11 216 1710 (2013) 0 (2012) 262 0 1 1 20 270 594 1530
2020-06-01 05:30 2.13 222 1710 (2013) 0 (2012) 262 0 1 1 20 270 594 1530
2020-06-01 04:30 2.15 229 1710 (2013) 0 (2012) 262 0 1 1 20 270 594 1530
2020-06-01 03:30 2.14 226 1710 (2013) 0 (2012) 262 0 1 1 20 270 594 1530
2020-06-01 02:30 2.15 229 1710 (2013) 0 (2012) 262 0 1 1 20 270 594 1530
2020-06-01 01:30 2.15 229 1710 (2013) 0 (2012) 262 0 1 1 20 270 594 1530
2020-06-01 00:30 2.18 239 1710 (2013) 0 (2012) 262 0 1 1 20 270 594 1530
2020-05-31 23:30 2.19 242 2240 (2015) 0 (2012) 267 0 1 1 31 173 276 1860
2020-05-31 22:30 2.20 246 2240 (2015) 0 (2012) 267 0 1 1 31 173 276 1860
2020-05-31 21:30 2.20 246 2240 (2015) 0 (2012) 267 0 1 1 31 173 276 1860
2020-05-31 20:30 2.21 249 2240 (2015) 0 (2012) 267 0 1 1 31 173 276 1860
2020-05-31 19:30 2.23 256 2240 (2015) 0 (2012) 267 0 1 1 31 173 276 1860
2020-05-31 18:30 2.24 260 2240 (2015) 0 (2012) 267 0 1 1 31 173 276 1860
2020-05-31 17:30 2.26 267 2240 (2015) 0 (2012) 267 0 1 1 31 173 276 1860
2020-05-31 16:30 2.30 282 2240 (2015) 0 (2012) 267 0 1 1 31 173 276 1860
2020-05-31 15:30 2.31 285 2240 (2015) 0 (2012) 267 0 1 1 31 173 276 1860
2020-05-31 14:30 2.31 285 2240 (2015) 0 (2012) 267 0 1 1 31 173 276 1860
2020-05-31 13:30 2.31 285 2240 (2015) 0 (2012) 267 0 1 1 31 173 276 1860
2020-05-31 12:30 2.32 289 2240 (2015) 0 (2012) 267 0 1 1 31 173 276 1860
2020-05-31 11:30 2.35 301 2240 (2015) 0 (2012) 267 0 1 1 31 173 276 1860
2020-05-31 10:30 2.36 305 2240 (2015) 0 (2012) 267 0 1 1 31 173 276 1860
2020-05-31 09:30 2.39 317 2240 (2015) 0 (2012) 267 0 1 1 31 173 276 1860
2020-05-31 08:30 2.36 305 2240 (2015) 0 (2012) 267 0 1 1 31 173 276 1860
2020-05-31 07:30 2.40 321 2240 (2015) 0 (2012) 267 0 1 1 31 173 276 1860
2020-05-31 06:30 2.41 326 2240 (2015) 0 (2012) 267 0 1 1 31 173 276 1860
2020-05-31 05:30 2.43 334 2240 (2015) 0 (2012) 267 0 1 1 31 173 276 1860
2020-05-31 04:30 2.45 343 2240 (2015) 0 (2012) 267 0 1 1 31 173 276 1860
2020-05-31 03:30 2.45 343 2240 (2015) 0 (2012) 267 0 1 1 31 173 276 1860
2020-05-31 02:30 2.47 351 2240 (2015) 0 (2012) 267 0 1 1 31 173 276 1860
2020-05-31 01:30 2.47 351 2240 (2015) 0 (2012) 267 0 1 1 31 173 276 1860
2020-05-31 00:30 2.47 351 2240 (2015) 0 (2012) 267 0 1 1 31 173 276 1860
2020-05-30 23:30 2.49 360 2630 (2015) 0 (2012) 295 0 0 1 41 135 214 2160
2020-05-30 22:30 2.50 365 2630 (2015) 0 (2012) 295 0 0 1 41 135 214 2160
2020-05-30 21:30 2.53 379 2630 (2015) 0 (2012) 295 0 0 1 41 135 214 2160
2020-05-30 20:30 2.53 379 2630 (2015) 0 (2012) 295 0 0 1 41 135 214 2160
2020-05-30 19:30 2.57 398 2630 (2015) 0 (2012) 295 0 0 1 41 135 214 2160
2020-05-30 18:30 2.58 402 2630 (2015) 0 (2012) 295 0 0 1 41 135 214 2160
2020-05-30 17:30 2.59 407 2630 (2015) 0 (2012) 295 0 0 1 41 135 214 2160
2020-05-30 16:30 2.62 422 2630 (2015) 0 (2012) 295 0 0 1 41 135 214 2160
2020-05-30 15:30 2.63 427 2630 (2015) 0 (2012) 295 0 0 1 41 135 214 2160
2020-05-30 14:30 2.66 443 2630 (2015) 0 (2012) 295 0 0 1 41 135 214 2160
2020-05-30 13:30 2.68 453 2630 (2015) 0 (2012) 295 0 0 1 41 135 214 2160
2020-05-30 12:30 2.71 469 2630 (2015) 0 (2012) 295 0 0 1 41 135 214 2160
2020-05-30 11:30 2.71 469 2630 (2015) 0 (2012) 295 0 0 1 41 135 214 2160
2020-05-30 10:30 2.72 475 2630 (2015) 0 (2012) 295 0 0 1 41 135 214 2160
2020-05-30 09:30 2.77 502 2630 (2015) 0 (2012) 295 0 0 1 41 135 214 2160
2020-05-30 08:30 2.77 502 2630 (2015) 0 (2012) 295 0 0 1 41 135 214 2160
2020-05-30 07:30 2.80 520 2630 (2015) 0 (2012) 295 0 0 1 41 135 214 2160
2020-05-30 06:30 2.84 543 2630 (2015) 0 (2012) 295 0 0 1 41 135 214 2160
2020-05-30 05:30 2.85 549 2630 (2015) 0 (2012) 295 0 0 1 41 135 214 2160
2020-05-30 04:30 2.90 580 2630 (2015) 0 (2012) 295 0 0 1 41 135 214 2160
2020-05-30 03:30 2.91 587 2630 (2015) 0 (2012) 295 0 0 1 41 135 214 2160
2020-05-30 02:30 2.95 612 2630 (2015) 0 (2012) 295 0 0 1 41 135 214 2160
2020-05-30 01:30 2.97 625 2630 (2015) 0 (2012) 295 0 0 1 41 135 214 2160
2020-05-30 00:30 3.00 645 2630 (2015) 0 (2012) 295 0 0 1 41 135 214 2160
2020-05-29 23:30 3.02 659 504 (2016) 0 (2012) 109 0 0 1 40 222 247 456
2020-05-29 22:30 3.05 680 504 (2016) 0 (2012) 109 0 0 1 40 222 247 456
2020-05-29 21:30 3.09 708 504 (2016) 0 (2012) 109 0 0 1 40 222 247 456
2020-05-29 20:30 3.12 730 504 (2016) 0 (2012) 109 0 0 1 40 222 247 456
2020-05-29 19:30 3.17 768 504 (2016) 0 (2012) 109 0 0 1 40 222 247 456
2020-05-29 18:30 3.20 791 504 (2016) 0 (2012) 109 0 0 1 40 222 247 456
2020-05-29 17:30 3.24 823 504 (2016) 0 (2012) 109 0 0 1 40 222 247 456
2020-05-29 16:30 3.26 839 504 (2016) 0 (2012) 109 0 0 1 40 222 247 456
2020-05-29 15:30 3.33 897 504 (2016) 0 (2012) 109 0 0 1 40 222 247 456
2020-05-29 14:30 3.35 914 504 (2016) 0 (2012) 109 0 0 1 40 222 247 456
2020-05-29 13:30 3.36 923 504 (2016) 0 (2012) 109 0 0 1 40 222 247 456
2020-05-29 12:30 3.41 967 504 (2016) 0 (2012) 109 0 0 1 40 222 247 456
2020-05-29 11:30 3.45 1000 504 (2016) 0 (2012) 109 0 0 1 40 222 247 456
2020-05-29 10:30 3.51 1060 504 (2016) 0 (2012) 109 0 0 1 40 222 247 456
2020-05-29 09:30 3.56 1110 504 (2016) 0 (2012) 109 0 0 1 40 222 247 456
2020-05-29 08:30 3.62 1170 504 (2016) 0 (2012) 109 0 0 1 40 222 247 456
2020-05-29 07:30 3.67 1220 504 (2016) 0 (2012) 109 0 0 1 40 222 247 456
2020-05-29 06:30 3.73 1280 504 (2016) 0 (2012) 109 0 0 1 40 222 247 456
2020-05-29 05:30 3.78 1330 504 (2016) 0 (2012) 109 0 0 1 40 222 247 456
2020-05-29 04:30 3.89 1460 504 (2016) 0 (2012) 109 0 0 1 40 222 247 456
2020-05-29 03:30 3.98 1550 504 (2016) 0 (2012) 109 0 0 1 40 222 247 456
2020-05-29 02:30 4.10 1670 504 (2016) 0 (2012) 109 0 0 1 40 222 247 456
2020-05-29 01:30 4.16 1730 504 (2016) 0 (2012) 109 0 0 1 40 222 247 456
2020-05-29 00:30 4.14 1710 504 (2016) 0 (2012) 109 0 0 1 40 222 247 456
2020-05-28 23:30 3.96 1530 717 (2016) 0 (2012) 174 0 0 1 29 456 510 683
2020-05-28 22:30 3.72 1270 717 (2016) 0 (2012) 174 0 0 1 29 456 510 683
2020-05-28 21:30 3.60 1150 717 (2016) 0 (2012) 174 0 0 1 29 456 510 683
2020-05-28 20:30 3.67 1220 717 (2016) 0 (2012) 174 0 0 1 29 456 510 683
2020-05-28 19:30 3.77 1320 717 (2016) 0 (2012) 174 0 0 1 29 456 510 683
2020-05-28 18:30 3.86 1420 717 (2016) 0 (2012) 174 0 0 1 29 456 510 683
2020-05-28 17:30 3.78 1330 717 (2016) 0 (2012) 174 0 0 1 29 456 510 683
2020-05-28 16:30 3.74 1290 717 (2016) 0 (2012) 174 0 0 1 29 456 510 683
2020-05-28 15:30 3.73 1280 717 (2016) 0 (2012) 174 0 0 1 29 456 510 683
2020-05-28 14:30 3.82 1380 717 (2016) 0 (2012) 174 0 0 1 29 456 510 683
2020-05-28 13:30 3.90 1470 717 (2016) 0 (2012) 174 0 0 1 29 456 510 683
2020-05-28 12:30 4.01 1590 717 (2016) 0 (2012) 174 0 0 1 29 456 510 683
2020-05-28 11:30 4.15 1720 717 (2016) 0 (2012) 174 0 0 1 29 456 510 683
2020-05-28 10:30 4.31 1880 717 (2016) 0 (2012) 174 0 0 1 29 456 510 683
2020-05-28 09:30 4.43 2010 717 (2016) 0 (2012) 174 0 0 1 29 456 510 683
2020-05-28 08:30 4.47 2060 717 (2016) 0 (2012) 174 0 0 1 29 456 510 683
2020-05-28 07:30 4.30 1870 717 (2016) 0 (2012) 174 0 0 1 29 456 510 683
2020-05-28 06:30 3.98 1550 717 (2016) 0 (2012) 174 0 0 1 29 456 510 683
2020-05-28 05:30 3.52 1070 717 (2016) 0 (2012) 174 0 0 1 29 456 510 683
2020-05-28 04:30 3.14 745 717 (2016) 0 (2012) 174 0 0 1 29 456 510 683
2020-05-28 03:30 3.05 680 717 (2016) 0 (2012) 174 0 0 1 29 456 510 683
2020-05-28 02:30 3.00 645 717 (2016) 0 (2012) 174 0 0 1 29 456 510 683
2020-05-28 01:30 2.99 639 717 (2016) 0 (2012) 174 0 0 1 29 456 510 683
2020-05-28 00:30 2.96 619 717 (2016) 0 (2012) 174 0 0 1 29 456 510 683
2020-05-27 23:30 2.97 625 840 (2011) 0 (2012) 134 0 0 1 37 159 220 724
2020-05-27 22:30 2.95 612 840 (2011) 0 (2012) 134 0 0 1 37 159 220 724
2020-05-27 21:30 2.96 619 840 (2011) 0 (2012) 134 0 0 1 37 159 220 724
2020-05-27 20:30 2.98 632 840 (2011) 0 (2012) 134 0 0 1 37 159 220 724
2020-05-27 19:30 3.02 659 840 (2011) 0 (2012) 134 0 0 1 37 159 220 724
2020-05-27 18:30 3.02 659 840 (2011) 0 (2012) 134 0 0 1 37 159 220 724
2020-05-27 17:30 3.08 701 840 (2011) 0 (2012) 134 0 0 1 37 159 220 724
2020-05-27 16:30 2.95 612 840 (2011) 0 (2012) 134 0 0 1 37 159 220 724
2020-05-27 15:30 2.89 574 840 (2011) 0 (2012) 134 0 0 1 37 159 220 724
2020-05-27 14:30 2.39 317 840 (2011) 0 (2012) 134 0 0 1 37 159 220 724
2020-05-27 13:30 2.39 317 840 (2011) 0 (2012) 134 0 0 1 37 159 220 724
2020-05-27 12:30 2.34 297 840 (2011) 0 (2012) 134 0 0 1 37 159 220 724
2020-05-27 11:30 2.34 297 840 (2011) 0 (2012) 134 0 0 1 37 159 220 724
2020-05-27 10:30 2.34 297 840 (2011) 0 (2012) 134 0 0 1 37 159 220 724
2020-05-27 09:30 2.33 293 840 (2011) 0 (2012) 134 0 0 1 37 159 220 724
2020-05-27 08:30 2.30 282 840 (2011) 0 (2012) 134 0 0 1 37 159 220 724
2020-05-27 07:30 2.27 270 840 (2011) 0 (2012) 134 0 0 1 37 159 220 724
2020-05-27 06:30 2.27 270 840 (2011) 0 (2012) 134 0 0 1 37 159 220 724
2020-05-27 05:30 2.27 270 840 (2011) 0 (2012) 134 0 0 1 37 159 220 724
2020-05-27 04:30 2.27 270 840 (2011) 0 (2012) 134 0 0 1 37 159 220 724
2020-05-27 03:30 2.27 270 840 (2011) 0 (2012) 134 0 0 1 37 159 220 724
2020-05-27 02:30 2.25 263 840 (2011) 0 (2012) 134 0 0 1 37 159 220 724
2020-05-27 01:30 2.26 267 840 (2011) 0 (2012) 134 0 0 1 37 159 220 724
2020-05-27 00:30 2.26 267 840 (2011) 0 (2012) 134 0 0 1 37 159 220 724
2020-05-26 23:30 2.27 270 2500 (2011) 0 (2012) 279 0 0 1 31 114 214 2060
2020-05-26 22:30 2.28 274 2500 (2011) 0 (2012) 279 0 0 1 31 114 214 2060
2020-05-26 21:30 2.27 270 2500 (2011) 0 (2012) 279 0 0 1 31 114 214 2060
2020-05-26 20:30 2.30 282 2500 (2011) 0 (2012) 279 0 0 1 31 114 214 2060
2020-05-26 19:30 2.31 285 2500 (2011) 0 (2012) 279 0 0 1 31 114 214 2060
2020-05-26 18:30 2.30 282 2500 (2011) 0 (2012) 279 0 0 1 31 114 214 2060
2020-05-26 17:30 2.33 293 2500 (2011) 0 (2012) 279 0 0 1 31 114 214 2060
2020-05-26 16:30 2.35 301 2500 (2011) 0 (2012) 279 0 0 1 31 114 214 2060
2020-05-26 15:30 2.35 301 2500 (2011) 0 (2012) 279 0 0 1 31 114 214 2060
2020-05-26 14:30 2.38 313 2500 (2011) 0 (2012) 279 0 0 1 31 114 214 2060
2020-05-26 13:30 2.38 313 2500 (2011) 0 (2012) 279 0 0 1 31 114 214 2060
2020-05-26 12:30 2.40 321 2500 (2011) 0 (2012) 279 0 0 1 31 114 214 2060
2020-05-26 11:30 2.40 321 2500 (2011) 0 (2012) 279 0 0 1 31 114 214 2060
2020-05-26 10:30 2.43 334 2500 (2011) 0 (2012) 279 0 0 1 31 114 214 2060
2020-05-26 09:30 2.43 334 2500 (2011) 0 (2012) 279 0 0 1 31 114 214 2060
2020-05-26 08:30 2.46 347 2500 (2011) 0 (2012) 279 0 0 1 31 114 214 2060
2020-05-26 07:30 2.47 351 2500 (2011) 0 (2012) 279 0 0 1 31 114 214 2060
2020-05-26 06:30 2.47 351 2500 (2011) 0 (2012) 279 0 0 1 31 114 214 2060
2020-05-26 05:30 2.49 360 2500 (2011) 0 (2012) 279 0 0 1 31 114 214 2060
2020-05-26 04:30 2.50 365 2500 (2011) 0 (2012) 279 0 0 1 31 114 214 2060
2020-05-26 03:30 2.53 379 2500 (2011) 0 (2012) 279 0 0 1 31 114 214 2060
2020-05-26 02:30 2.51 369 2500 (2011) 0 (2012) 279 0 0 1 31 114 214 2060
2020-05-26 01:30 2.54 383 2500 (2011) 0 (2012) 279 0 0 1 31 114 214 2060
2020-05-26 00:30 2.56 393 2500 (2011) 0 (2012) 279 0 0 1 31 114 214 2060
2020-05-25 23:30 2.56 393 1090 (2011) 0 (2012) 179 0 0 0 24 172 418 988
2020-05-25 22:30 2.57 398 1090 (2011) 0 (2012) 179 0 0 0 24 172 418 988
2020-05-25 21:30 2.49 360 1090 (2011) 0 (2012) 179 0 0 0 24 172 418 988
2020-05-25 20:30 2.41 326 1090 (2011) 0 (2012) 179 0 0 0 24 172 418 988
2020-05-25 19:30 2.30 282 1090 (2011) 0 (2012) 179 0 0 0 24 172 418 988
2020-05-25 18:30 2.23 256 1090 (2011) 0 (2012) 179 0 0 0 24 172 418 988
2020-05-25 17:30 2.18 239 1090 (2011) 0 (2012) 179 0 0 0 24 172 418 988
2020-05-25 16:30 2.17 235 1090 (2011) 0 (2012) 179 0 0 0 24 172 418 988
2020-05-25 15:30 2.16 232 1090 (2011) 0 (2012) 179 0 0 0 24 172 418 988
2020-05-25 14:30 2.16 232 1090 (2011) 0 (2012) 179 0 0 0 24 172 418 988
2020-05-25 13:30 2.17 235 1090 (2011) 0 (2012) 179 0 0 0 24 172 418 988
2020-05-25 12:30 2.18 239 1090 (2011) 0 (2012) 179 0 0 0 24 172 418 988
2020-05-25 11:30 2.18 239 1090 (2011) 0 (2012) 179 0 0 0 24 172 418 988
2020-05-25 10:30 2.18 239 1090 (2011) 0 (2012) 179 0 0 0 24 172 418 988
2020-05-25 09:30 2.19 242 1090 (2011) 0 (2012) 179 0 0 0 24 172 418 988
2020-05-25 08:30 2.20 246 1090 (2011) 0 (2012) 179 0 0 0 24 172 418 988
2020-05-25 07:30 2.20 246 1090 (2011) 0 (2012) 179 0 0 0 24 172 418 988
2020-05-25 06:30 2.21 249 1090 (2011) 0 (2012) 179 0 0 0 24 172 418 988
2020-05-25 05:30 2.21 249 1090 (2011) 0 (2012) 179 0 0 0 24 172 418 988
2020-05-25 04:30 2.22 253 1090 (2011) 0 (2012) 179 0 0 0 24 172 418 988
2020-05-25 03:30 2.23 256 1090 (2011) 0 (2012) 179 0 0 0 24 172 418 988
2020-05-25 02:30 2.24 260 1090 (2011) 0 (2012) 179 0 0 0 24 172 418 988
2020-05-25 01:30 2.25 263 1090 (2011) 0 (2012) 179 0 0 0 24 172 418 988
2020-05-25 00:30 2.26 267 1090 (2011) 0 (2012) 179 0 0 0 24 172 418 988
2020-05-24 23:30 2.28 274 1420 (2019) 0 (2012) 203 0 0 0 25 302 325 1200
2020-05-24 22:30 2.28 274 1420 (2019) 0 (2012) 203 0 0 0 25 302 325 1200
2020-05-24 21:30 2.28 274 1420 (2019) 0 (2012) 203 0 0 0 25 302 325 1200
2020-05-24 20:30 2.31 285 1420 (2019) 0 (2012) 203 0 0 0 25 302 325 1200
2020-05-24 19:30 2.32 289 1420 (2019) 0 (2012) 203 0 0 0 25 302 325 1200
2020-05-24 18:30 2.32 289 1420 (2019) 0 (2012) 203 0 0 0 25 302 325 1200
2020-05-24 17:30 2.33 293 1420 (2019) 0 (2012) 203 0 0 0 25 302 325 1200
2020-05-24 16:30 2.35 301 1420 (2019) 0 (2012) 203 0 0 0 25 302 325 1200
2020-05-24 15:30 2.36 305 1420 (2019) 0 (2012) 203 0 0 0 25 302 325 1200
2020-05-24 14:30 2.37 309 1420 (2019) 0 (2012) 203 0 0 0 25 302 325 1200
2020-05-24 13:30 2.39 317 1420 (2019) 0 (2012) 203 0 0 0 25 302 325 1200
2020-05-24 12:30 2.41 326 1420 (2019) 0 (2012) 203 0 0 0 25 302 325 1200
2020-05-24 11:30 2.43 334 1420 (2019) 0 (2012) 203 0 0 0 25 302 325 1200
2020-05-24 10:30 2.43 334 1420 (2019) 0 (2012) 203 0 0 0 25 302 325 1200
2020-05-24 09:30 2.43 334 1420 (2019) 0 (2012) 203 0 0 0 25 302 325 1200
2020-05-24 08:30 2.45 343 1420 (2019) 0 (2012) 203 0 0 0 25 302 325 1200
2020-05-24 07:30 2.48 356 1420 (2019) 0 (2012) 203 0 0 0 25 302 325 1200
2020-05-24 06:30 2.48 356 1420 (2019) 0 (2012) 203 0 0 0 25 302 325 1200
2020-05-24 05:30 2.48 356 1420 (2019) 0 (2012) 203 0 0 0 25 302 325 1200
2020-05-24 04:30 2.50 365 1420 (2019) 0 (2012) 203 0 0 0 25 302 325 1200
2020-05-24 03:30 2.49 360 1420 (2019) 0 (2012) 203 0 0 0 25 302 325 1200
2020-05-24 02:30 2.49 360 1420 (2019) 0 (2012) 203 0 0 0 25 302 325 1200
2020-05-24 01:30 2.53 379 1420 (2019) 0 (2012) 203 0 0 0 25 302 325 1200
2020-05-24 00:30 2.52 374 1420 (2019) 0 (2012) 203 0 0 0 25 302 325 1200
2020-05-23 23:30 2.55 388 1850 (2019) 0 (2012) 282 0 0 0 37 298 462 1590
2020-05-23 22:30 2.56 393 1850 (2019) 0 (2012) 282 0 0 0 37 298 462 1590
2020-05-23 21:30 2.58 402 1850 (2019) 0 (2012) 282 0 0 0 37 298 462 1590
2020-05-23 20:30 2.59 407 1850 (2019) 0 (2012) 282 0 0 0 37 298 462 1590
2020-05-23 19:30 2.61 417 1850 (2019) 0 (2012) 282 0 0 0 37 298 462 1590
2020-05-23 18:30 2.62 422 1850 (2019) 0 (2012) 282 0 0 0 37 298 462 1590
2020-05-23 17:30 2.61 417 1850 (2019) 0 (2012) 282 0 0 0 37 298 462 1590
2020-05-23 16:30 2.55 388 1850 (2019) 0 (2012) 282 0 0 0 37 298 462 1590
2020-05-23 15:30 2.50 365 1850 (2019) 0 (2012) 282 0 0 0 37 298 462 1590
2020-05-23 14:30 2.45 343 1850 (2019) 0 (2012) 282 0 0 0 37 298 462 1590
2020-05-23 13:30 2.41 326 1850 (2019) 0 (2012) 282 0 0 0 37 298 462 1590
2020-05-23 12:30 2.41 326 1850 (2019) 0 (2012) 282 0 0 0 37 298 462 1590
2020-05-23 11:30 2.39 317 1850 (2019) 0 (2012) 282 0 0 0 37 298 462 1590
2020-05-23 10:30 2.38 313 1850 (2019) 0 (2012) 282 0 0 0 37 298 462 1590
2020-05-23 09:30 2.36 305 1850 (2019) 0 (2012) 282 0 0 0 37 298 462 1590
2020-05-23 08:30 2.35 301 1850 (2019) 0 (2012) 282 0 0 0 37 298 462 1590
2020-05-23 07:30 2.34 297 1850 (2019) 0 (2012) 282 0 0 0 37 298 462 1590
2020-05-23 06:30 2.36 305 1850 (2019) 0 (2012) 282 0 0 0 37 298 462 1590
2020-05-23 05:30 2.35 301 1850 (2019) 0 (2012) 282 0 0 0 37 298 462 1590
2020-05-23 04:30 2.36 305 1850 (2019) 0 (2012) 282 0 0 0 37 298 462 1590
2020-05-23 03:30 2.35 301 1850 (2019) 0 (2012) 282 0 0 0 37 298 462 1590
2020-05-23 02:30 2.35 301 1850 (2019) 0 (2012) 282 0 0 0 37 298 462 1590
2020-05-23 01:30 2.36 305 1850 (2019) 0 (2012) 282 0 0 0 37 298 462 1590
2020-05-23 00:30 2.36 305 1850 (2019) 0 (2012) 282 0 0 0 37 298 462 1590
2020-05-22 23:30 2.36 305 3750 (2019) 0 (2012) 598 0 0 0 63 675 948 3230
2020-05-22 22:30 2.36 305 3750 (2019) 0 (2012) 598 0 0 0 63 675 948 3230
2020-05-22 21:30 2.37 309 3750 (2019) 0 (2012) 598 0 0 0 63 675 948 3230
2020-05-22 20:30 2.38 313 3750 (2019) 0 (2012) 598 0 0 0 63 675 948 3230
2020-05-22 19:30 2.38 313 3750 (2019) 0 (2012) 598 0 0 0 63 675 948 3230
2020-05-22 18:30 2.38 313 3750 (2019) 0 (2012) 598 0 0 0 63 675 948 3230
2020-05-22 17:30 2.40 321 3750 (2019) 0 (2012) 598 0 0 0 63 675 948 3230
2020-05-22 16:30 2.40 321 3750 (2019) 0 (2012) 598 0 0 0 63 675 948 3230
2020-05-22 15:30 2.40 321 3750 (2019) 0 (2012) 598 0 0 0 63 675 948 3230
2020-05-22 14:30 2.41 326 3750 (2019) 0 (2012) 598 0 0 0 63 675 948 3230
2020-05-22 13:30 2.41 326 3750 (2019) 0 (2012) 598 0 0 0 63 675 948 3230
2020-05-22 12:30 2.42 330 3750 (2019) 0 (2012) 598 0 0 0 63 675 948 3230
2020-05-22 11:30 2.43 334 3750 (2019) 0 (2012) 598 0 0 0 63 675 948 3230
2020-05-22 10:30 2.46 347 3750 (2019) 0 (2012) 598 0 0 0 63 675 948 3230
2020-05-22 09:30 2.45 343 3750 (2019) 0 (2012) 598 0 0 0 63 675 948 3230
2020-05-22 08:30 2.46 347 3750 (2019) 0 (2012) 598 0 0 0 63 675 948 3230
2020-05-22 07:30 2.49 360 3750 (2019) 0 (2012) 598 0 0 0 63 675 948 3230
2020-05-22 06:30 2.48 356 3750 (2019) 0 (2012) 598 0 0 0 63 675 948 3230
2020-05-22 05:30 2.50 365 3750 (2019) 0 (2012) 598 0 0 0 63 675 948 3230
2020-05-22 04:30 2.51 369 3750 (2019) 0 (2012) 598 0 0 0 63 675 948 3230
2020-05-22 03:30 2.51 369 3750 (2019) 0 (2012) 598 0 0 0 63 675 948 3230
2020-05-22 02:30 2.52 374 3750 (2019) 0 (2012) 598 0 0 0 63 675 948 3230
2020-05-22 01:30 2.54 383 3750 (2019) 0 (2012) 598 0 0 0 63 675 948 3230
2020-05-22 00:30 2.54 383 3750 (2019) 0 (2012) 598 0 0 0 63 675 948 3230
2020-05-21 23:30 2.55 388 3440 (2019) 0 (2012) 814 0 0 0 110 1160 1860 3220
2020-05-21 22:30 2.56 393 3440 (2019) 0 (2012) 814 0 0 0 110 1160 1860 3220
2020-05-21 21:30 2.56 393 3440 (2019) 0 (2012) 814 0 0 0 110 1160 1860 3220
2020-05-21 20:30 2.59 407 3440 (2019) 0 (2012) 814 0 0 0 110 1160 1860 3220
2020-05-21 19:30 2.58 402 3440 (2019) 0 (2012) 814 0 0 0 110 1160 1860 3220
2020-05-21 18:30 2.58 402 3440 (2019) 0 (2012) 814 0 0 0 110 1160 1860 3220
2020-05-21 17:30 2.59 407 3440 (2019) 0 (2012) 814 0 0 0 110 1160 1860 3220
2020-05-21 16:30 2.61 417 3440 (2019) 0 (2012) 814 0 0 0 110 1160 1860 3220
2020-05-21 15:30 2.64 432 3440 (2019) 0 (2012) 814 0 0 0 110 1160 1860 3220
2020-05-21 14:30 2.62 422 3440 (2019) 0 (2012) 814 0 0 0 110 1160 1860 3220
2020-05-21 13:30 2.66 443 3440 (2019) 0 (2012) 814 0 0 0 110 1160 1860 3220
2020-05-21 12:30 2.65 438 3440 (2019) 0 (2012) 814 0 0 0 110 1160 1860 3220
2020-05-21 11:30 2.68 453 3440 (2019) 0 (2012) 814 0 0 0 110 1160 1860 3220
2020-05-21 10:30 2.70 464 3440 (2019) 0 (2012) 814 0 0 0 110 1160 1860 3220
2020-05-21 09:30 2.70 464 3440 (2019) 0 (2012) 814 0 0 0 110 1160 1860 3220
2020-05-21 08:30 2.72 475 3440 (2019) 0 (2012) 814 0 0 0 110 1160 1860 3220
2020-05-21 07:30 2.73 480 3440 (2019) 0 (2012) 814 0 0 0 110 1160 1860 3220
2020-05-21 06:30 2.75 491 3440 (2019) 0 (2012) 814 0 0 0 110 1160 1860 3220
2020-05-21 05:30 2.77 502 3440 (2019) 0 (2012) 814 0 0 0 110 1160 1860 3220
2020-05-21 04:30 2.76 497 3440 (2019) 0 (2012) 814 0 0 0 110 1160 1860 3220
2020-05-21 03:30 2.78 508 3440 (2019) 0 (2012) 814 0 0 0 110 1160 1860 3220
2020-05-21 02:30 2.80 520 3440 (2019) 0 (2012) 814 0 0 0 110 1160 1860 3220
2020-05-21 01:30 2.82 531 3440 (2019) 0 (2012) 814 0 0 0 110 1160 1860 3220
2020-05-21 00:30 2.84 543 3440 (2019) 0 (2012) 814 0 0 0 110 1160 1860 3220
2020-05-20 23:30 2.84 543 1390 (2010) 0 (2012) 231 0 0 1 43 215 465 1240
2020-05-20 22:30 2.88 568 1390 (2010) 0 (2012) 231 0 0 1 43 215 465 1240
2020-05-20 21:30 2.86 555 1390 (2010) 0 (2012) 231 0 0 1 43 215 465 1240
2020-05-20 20:30 2.88 568 1390 (2010) 0 (2012) 231 0 0 1 43 215 465 1240
2020-05-20 19:30 2.91 587 1390 (2010) 0 (2012) 231 0 0 1 43 215 465 1240
2020-05-20 18:30 2.93 599 1390 (2010) 0 (2012) 231 0 0 1 43 215 465 1240
2020-05-20 17:30 2.95 612 1390 (2010) 0 (2012) 231 0 0 1 43 215 465 1240
2020-05-20 16:30 2.96 619 1390 (2010) 0 (2012) 231 0 0 1 43 215 465 1240
2020-05-20 15:30 3.00 645 1390 (2010) 0 (2012) 231 0 0 1 43 215 465 1240
2020-05-20 14:30 2.99 639 1390 (2010) 0 (2012) 231 0 0 1 43 215 465 1240
2020-05-20 13:30 3.03 666 1390 (2010) 0 (2012) 231 0 0 1 43 215 465 1240
2020-05-20 12:30 3.04 673 1390 (2010) 0 (2012) 231 0 0 1 43 215 465 1240
2020-05-20 11:30 3.06 687 1390 (2010) 0 (2012) 231 0 0 1 43 215 465 1240
2020-05-20 10:30 3.07 694 1390 (2010) 0 (2012) 231 0 0 1 43 215 465 1240
2020-05-20 09:30 3.10 716 1390 (2010) 0 (2012) 231 0 0 1 43 215 465 1240
2020-05-20 08:30 3.11 723 1390 (2010) 0 (2012) 231 0 0 1 43 215 465 1240
2020-05-20 07:30 3.13 738 1390 (2010) 0 (2012) 231 0 0 1 43 215 465 1240
2020-05-20 06:30 3.16 760 1390 (2010) 0 (2012) 231 0 0 1 43 215 465 1240
2020-05-20 05:30 3.20 791 1390 (2010) 0 (2012) 231 0 0 1 43 215 465 1240
2020-05-20 04:30 3.21 799 1390 (2010) 0 (2012) 231 0 0 1 43 215 465 1240
2020-05-20 03:30 3.23 815 1390 (2010) 0 (2012) 231 0 0 1 43 215 465 1240
2020-05-20 02:30 3.25 831 1390 (2010) 0 (2012) 231 0 0 1 43 215 465 1240
2020-05-20 01:30 3.26 839 1390 (2010) 0 (2012) 231 0 0 1 43 215 465 1240
2020-05-20 00:30 3.29 864 1390 (2010) 0 (2012) 231 0 0 1 43 215 465 1240
2020-05-19 23:30 3.30 872 594 (2016) 0 (2012) 113 0 0 1 16 116 276 552
2020-05-19 22:30 3.34 906 594 (2016) 0 (2012) 113 0 0 1 16 116 276 552
2020-05-19 21:30 3.38 941 594 (2016) 0 (2012) 113 0 0 1 16 116 276 552
2020-05-19 20:30 3.39 949 594 (2016) 0 (2012) 113 0 0 1 16 116 276 552
2020-05-19 19:30 3.41 967 594 (2016) 0 (2012) 113 0 0 1 16 116 276 552
2020-05-19 18:30 3.44 994 594 (2016) 0 (2012) 113 0 0 1 16 116 276 552
2020-05-19 17:30 3.48 1030 594 (2016) 0 (2012) 113 0 0 1 16 116 276 552
2020-05-19 16:30 3.51 1060 594 (2016) 0 (2012) 113 0 0 1 16 116 276 552
2020-05-19 15:30 3.53 1080 594 (2016) 0 (2012) 113 0 0 1 16 116 276 552
2020-05-19 14:30 3.57 1120 594 (2016) 0 (2012) 113 0 0 1 16 116 276 552
2020-05-19 13:30 3.60 1150 594 (2016) 0 (2012) 113 0 0 1 16 116 276 552
2020-05-19 12:30 3.62 1170 594 (2016) 0 (2012) 113 0 0 1 16 116 276 552
2020-05-19 11:30 3.63 1180 594 (2016) 0 (2012) 113 0 0 1 16 116 276 552
2020-05-19 10:30 3.71 1260 594 (2016) 0 (2012) 113 0 0 1 16 116 276 552
2020-05-19 09:30 3.73 1280 594 (2016) 0 (2012) 113 0 0 1 16 116 276 552
2020-05-19 08:30 3.78 1330 594 (2016) 0 (2012) 113 0 0 1 16 116 276 552
2020-05-19 07:30 3.81 1370 594 (2016) 0 (2012) 113 0 0 1 16 116 276 552
2020-05-19 06:30 3.83 1390 594 (2016) 0 (2012) 113 0 0 1 16 116 276 552
2020-05-19 05:30 3.90 1470 594 (2016) 0 (2012) 113 0 0 1 16 116 276 552
2020-05-19 04:30 3.94 1510 594 (2016) 0 (2012) 113 0 0 1 16 116 276 552
2020-05-19 03:30 3.98 1550 594 (2016) 0 (2012) 113 0 0 1 16 116 276 552
2020-05-19 02:30 4.03 1600 594 (2016) 0 (2012) 113 0 0 1 16 116 276 552
2020-05-19 01:30 4.08 1650 594 (2016) 0 (2012) 113 0 0 1 16 116 276 552
2020-05-19 00:30 4.10 1670 594 (2016) 0 (2012) 113 0 0 1 16 116 276 552
2020-05-18 23:30 4.12 1690 1830 (2016) 0 (2012) 267 0 0 1 27 183 522 1610
2020-05-18 22:30 4.17 1740 1830 (2016) 0 (2012) 267 0 0 1 27 183 522 1610
2020-05-18 21:30 4.21 1780 1830 (2016) 0 (2012) 267 0 0 1 27 183 522 1610
2020-05-18 20:30 4.34 1920 1830 (2016) 0 (2012) 267 0 0 1 27 183 522 1610
2020-05-18 19:30 4.41 1990 1830 (2016) 0 (2012) 267 0 0 1 27 183 522 1610
2020-05-18 18:30 4.43 2010 1830 (2016) 0 (2012) 267 0 0 1 27 183 522 1610
2020-05-18 17:30 4.51 2100 1830 (2016) 0 (2012) 267 0 0 1 27 183 522 1610
2020-05-18 16:30 4.66 2270 1830 (2016) 0 (2012) 267 0 0 1 27 183 522 1610
2020-05-18 15:30 4.71 2330 1830 (2016) 0 (2012) 267 0 0 1 27 183 522 1610
2020-05-18 14:30 4.79 2430 1830 (2016) 0 (2012) 267 0 0 1 27 183 522 1610
2020-05-18 13:30 4.86 2510 1830 (2016) 0 (2012) 267 0 0 1 27 183 522 1610
2020-05-18 12:30 5.00 2690 1830 (2016) 0 (2012) 267 0 0 1 27 183 522 1610
2020-05-18 11:30 5.15 2870 1830 (2016) 0 (2012) 267 0 0 1 27 183 522 1610
2020-05-18 10:30 5.33 3080 1830 (2016) 0 (2012) 267 0 0 1 27 183 522 1610
2020-05-18 09:30 5.55 3350 1830 (2016) 0 (2012) 267 0 0 1 27 183 522 1610
2020-05-18 08:30 5.70 3540 1830 (2016) 0 (2012) 267 0 0 1 27 183 522 1610
2020-05-18 07:30 6.04 3980 1830 (2016) 0 (2012) 267 0 0 1 27 183 522 1610
2020-05-18 06:30 6.35 4350 1830 (2016) 0 (2012) 267 0 0 1 27 183 522 1610
2020-05-18 05:30 6.76 4880 1830 (2016) 0 (2012) 267 0 0 1 27 183 522 1610
2020-05-18 04:30 7.36 5670 1830 (2016) 0 (2012) 267 0 0 1 27 183 522 1610
2020-05-18 03:30 7.89 6410 1830 (2016) 0 (2012) 267 0 0 1 27 183 522 1610
2020-05-18 02:30 8.33 7110 1830 (2016) 0 (2012) 267 0 0 1 27 183 522 1610
2020-05-18 01:30 8.78 7890 1830 (2016) 0 (2012) 267 0 0 1 27 183 522 1610
2020-05-18 00:30 8.86 8030 1830 (2016) 0 (2012) 267 0 0 1 27 183 522 1610
2020-05-17 23:30 8.96 8210 1580 (2010) 0 (2013) 199 0 1 1 33 105 217 1320
2020-05-17 22:30 8.87 8050 1580 (2010) 0 (2013) 199 0 1 1 33 105 217 1320
2020-05-17 21:30 8.72 7780 1580 (2010) 0 (2013) 199 0 1 1 33 105 217 1320
2020-05-17 20:30 8.56 7500 1580 (2010) 0 (2013) 199 0 1 1 33 105 217 1320
2020-05-17 19:30 8.38 7190 1580 (2010) 0 (2013) 199 0 1 1 33 105 217 1320
2020-05-17 18:30 8.16 6820 1580 (2010) 0 (2013) 199 0 1 1 33 105 217 1320
2020-05-17 17:30 8.00 6570 1580 (2010) 0 (2013) 199 0 1 1 33 105 217 1320
2020-05-17 16:30 7.89 6410 1580 (2010) 0 (2013) 199 0 1 1 33 105 217 1320
2020-05-17 15:30 7.79 6270 1580 (2010) 0 (2013) 199 0 1 1 33 105 217 1320
2020-05-17 14:30 7.78 6260 1580 (2010) 0 (2013) 199 0 1 1 33 105 217 1320
2020-05-17 13:30 7.85 6360 1580 (2010) 0 (2013) 199 0 1 1 33 105 217 1320
2020-05-17 12:30 7.93 6470 1580 (2010) 0 (2013) 199 0 1 1 33 105 217 1320
2020-05-17 11:30 7.98 6540 1580 (2010) 0 (2013) 199 0 1 1 33 105 217 1320
2020-05-17 10:30 7.91 6440 1580 (2010) 0 (2013) 199 0 1 1 33 105 217 1320
2020-05-17 09:30 7.73 6180 1580 (2010) 0 (2013) 199 0 1 1 33 105 217 1320
2020-05-17 08:30 7.59 5990 1580 (2010) 0 (2013) 199 0 1 1 33 105 217 1320
2020-05-17 07:30 7.29 5580 1580 (2010) 0 (2013) 199 0 1 1 33 105 217 1320
2020-05-17 06:30 6.89 5050 1580 (2010) 0 (2013) 199 0 1 1 33 105 217 1320
2020-05-17 05:30 6.36 4370 1580 (2010) 0 (2013) 199 0 1 1 33 105 217 1320
2020-05-17 04:30 5.95 3870 1580 (2010) 0 (2013) 199 0 1 1 33 105 217 1320
2020-05-17 03:30 5.45 3230 1580 (2010) 0 (2013) 199 0 1 1 33 105 217 1320
2020-05-17 02:30 4.91 2580 1580 (2010) 0 (2013) 199 0 1 1 33 105 217 1320
2020-05-17 01:30 4.16 1730 1580 (2010) 0 (2013) 199 0 1 1 33 105 217 1320
2020-05-17 00:30 3.71 1260 1580 (2010) 0 (2013) 199 0 1 1 33 105 217 1320
2020-05-16 23:30 3.69 1240 1210 (2010) 0 (2013) 175 0 0 1 55 177 190 1010
2020-05-16 22:30 3.71 1260 1210 (2010) 0 (2013) 175 0 0 1 55 177 190 1010
2020-05-16 21:30 3.59 1140 1210 (2010) 0 (2013) 175 0 0 1 55 177 190 1010
2020-05-16 20:30 3.47 1020 1210 (2010) 0 (2013) 175 0 0 1 55 177 190 1010
2020-05-16 19:30 3.45 1000 1210 (2010) 0 (2013) 175 0 0 1 55 177 190 1010
2020-05-16 18:30 3.44 994 1210 (2010) 0 (2013) 175 0 0 1 55 177 190 1010
2020-05-16 17:30 3.43 985 1210 (2010) 0 (2013) 175 0 0 1 55 177 190 1010
2020-05-16 16:30 3.44 994 1210 (2010) 0 (2013) 175 0 0 1 55 177 190 1010
2020-05-16 15:30 3.48 1030 1210 (2010) 0 (2013) 175 0 0 1 55 177 190 1010
2020-05-16 14:30 3.52 1070 1210 (2010) 0 (2013) 175 0 0 1 55 177 190 1010
2020-05-16 13:30 3.55 1100 1210 (2010) 0 (2013) 175 0 0 1 55 177 190 1010
2020-05-16 12:30 3.61 1160 1210 (2010) 0 (2013) 175 0 0 1 55 177 190 1010
2020-05-16 11:30 3.66 1210 1210 (2010) 0 (2013) 175 0 0 1 55 177 190 1010
2020-05-16 10:30 3.71 1260 1210 (2010) 0 (2013) 175 0 0 1 55 177 190 1010
2020-05-16 09:30 3.76 1310 1210 (2010) 0 (2013) 175 0 0 1 55 177 190 1010
2020-05-16 08:30 3.82 1380 1210 (2010) 0 (2013) 175 0 0 1 55 177 190 1010
2020-05-16 07:30 3.86 1420 1210 (2010) 0 (2013) 175 0 0 1 55 177 190 1010
2020-05-16 06:30 3.88 1440 1210 (2010) 0 (2013) 175 0 0 1 55 177 190 1010
2020-05-16 05:30 3.92 1490 1210 (2010) 0 (2013) 175 0 0 1 55 177 190 1010
2020-05-16 04:30 3.93 1500 1210 (2010) 0 (2013) 175 0 0 1 55 177 190 1010
2020-05-16 03:30 3.86 1420 1210 (2010) 0 (2013) 175 0 0 1 55 177 190 1010
2020-05-16 02:30 3.77 1320 1210 (2010) 0 (2013) 175 0 0 1 55 177 190 1010
2020-05-16 01:30 3.67 1220 1210 (2010) 0 (2013) 175 0 0 1 55 177 190 1010
2020-05-16 00:30 3.59 1140 1210 (2010) 0 (2013) 175 0 0 1 55 177 190 1010
2020-05-15 23:30 3.49 1040 1120 (2010) 0 (2013) 186 0 0 1 74 243 281 957
2020-05-15 22:30 3.41 967 1120 (2010) 0 (2013) 186 0 0 1 74 243 281 957
2020-05-15 21:30 3.36 923 1120 (2010) 0 (2013) 186 0 0 1 74 243 281 957
2020-05-15 20:30 3.34 906 1120 (2010) 0 (2013) 186 0 0 1 74 243 281 957
2020-05-15 19:30 3.34 906 1120 (2010) 0 (2013) 186 0 0 1 74 243 281 957
2020-05-15 18:30 3.30 872 1120 (2010) 0 (2013) 186 0 0 1 74 243 281 957
2020-05-15 17:30 3.24 823 1120 (2010) 0 (2013) 186 0 0 1 74 243 281 957
2020-05-15 16:30 3.20 791 1120 (2010) 0 (2013) 186 0 0 1 74 243 281 957
2020-05-15 15:30 3.14 745 1120 (2010) 0 (2013) 186 0 0 1 74 243 281 957
2020-05-15 14:30 3.05 680 1120 (2010) 0 (2013) 186 0 0 1 74 243 281 957
2020-05-15 13:30 2.90 580 1120 (2010) 0 (2013) 186 0 0 1 74 243 281 957
2020-05-15 12:30 2.86 555 1120 (2010) 0 (2013) 186 0 0 1 74 243 281 957
2020-05-15 11:30 2.83 537 1120 (2010) 0 (2013) 186 0 0 1 74 243 281 957
2020-05-15 10:30 2.74 486 1120 (2010) 0 (2013) 186 0 0 1 74 243 281 957
2020-05-15 09:30 2.63 427 1120 (2010) 0 (2013) 186 0 0 1 74 243 281 957
2020-05-15 08:30 2.61 417 1120 (2010) 0 (2013) 186 0 0 1 74 243 281 957
2020-05-15 07:30 2.52 374 1120 (2010) 0 (2013) 186 0 0 1 74 243 281 957
2020-05-15 06:30 2.47 351 1120 (2010) 0 (2013) 186 0 0 1 74 243 281 957
2020-05-15 05:30 2.45 343 1120 (2010) 0 (2013) 186 0 0 1 74 243 281 957
2020-05-15 04:30 2.44 338 1120 (2010) 0 (2013) 186 0 0 1 74 243 281 957
2020-05-15 03:30 2.40 321 1120 (2010) 0 (2013) 186 0 0 1 74 243 281 957
2020-05-15 02:30 2.44 338 1120 (2010) 0 (2013) 186 0 0 1 74 243 281 957
2020-05-15 01:30 2.44 338 1120 (2010) 0 (2013) 186 0 0 1 74 243 281 957
2020-05-15 00:30 2.46 347 1120 (2010) 0 (2013) 186 0 0 1 74 243 281 957

A total of 2175 rows are displayed for years 2009 through 2019.